<?xml version="1.0" encoding="UTF-8" standalone="no" ?>
<gpx xmlns="http://www.topografix.com/GPX/1/1" xmlns:xsi="http://www.w3.org/2001/XMLSchema-instance" xsi:schemaLocation="http://www.topografix.com/GPX/1/1 http://www.topografix.com/GPX/1/1/gpx.xsd" version="1.1" creator="VisuGPX - https://www.visugpx.com">
  <metadata>
    <name>Chemin Faisant à Soulac (Reconnaissance)</name>
    <desc><![CDATA[Balade au milieu des bockhaus et autres souvenir de la dernière guerre.
]]></desc>
  </metadata>
  <trk>
    <name><![CDATA[2016-07-08 13:06:02]]></name>
    <trkseg>
      <trkpt lat="45.52483" lon="-1.11441">
        <ele>11.67</ele>
        <time>2016-07-08T06:55:00Z</time>
      </trkpt>
      <trkpt lat="45.52484" lon="-1.11441">
        <ele>11.67</ele>
        <time>2016-07-08T06:55:01Z</time>
      </trkpt>
      <trkpt lat="45.52484" lon="-1.11441">
        <ele>0.62</ele>
        <time>2016-07-08T06:55:05Z</time>
      </trkpt>
      <trkpt lat="45.52484" lon="-1.11441">
        <ele>0.62</ele>
        <time>2016-07-08T06:55:06Z</time>
      </trkpt>
      <trkpt lat="45.52484" lon="-1.11441">
        <ele>-0.82</ele>
        <time>2016-07-08T06:55:23Z</time>
      </trkpt>
      <trkpt lat="45.52486" lon="-1.11441">
        <ele>0.14</ele>
        <time>2016-07-08T06:55:39Z</time>
      </trkpt>
      <trkpt lat="45.52485" lon="-1.11441">
        <ele>0.14</ele>
        <time>2016-07-08T06:55:52Z</time>
      </trkpt>
      <trkpt lat="45.52484" lon="-1.1144">
        <ele>0.62</ele>
        <time>2016-07-08T06:56:14Z</time>
      </trkpt>
      <trkpt lat="45.52486" lon="-1.1144">
        <ele>0.62</ele>
        <time>2016-07-08T06:56:31Z</time>
      </trkpt>
      <trkpt lat="45.52485" lon="-1.11438">
        <ele>0.62</ele>
        <time>2016-07-08T06:56:54Z</time>
      </trkpt>
      <trkpt lat="45.52486" lon="-1.1144">
        <ele>0.62</ele>
        <time>2016-07-08T06:57:09Z</time>
      </trkpt>
      <trkpt lat="45.52485" lon="-1.11439">
        <ele>0.62</ele>
        <time>2016-07-08T06:57:25Z</time>
      </trkpt>
      <trkpt lat="45.52486" lon="-1.1144">
        <ele>0.62</ele>
        <time>2016-07-08T06:57:41Z</time>
      </trkpt>
      <trkpt lat="45.52487" lon="-1.11441">
        <ele>0.62</ele>
        <time>2016-07-08T06:58:00Z</time>
      </trkpt>
      <trkpt lat="45.52488" lon="-1.11444">
        <ele>0.62</ele>
        <time>2016-07-08T06:58:12Z</time>
      </trkpt>
      <trkpt lat="45.52487" lon="-1.1144">
        <ele>0.62</ele>
        <time>2016-07-08T06:58:23Z</time>
      </trkpt>
      <trkpt lat="45.52487" lon="-1.11435">
        <ele>0.62</ele>
        <time>2016-07-08T06:58:46Z</time>
      </trkpt>
      <trkpt lat="45.52488" lon="-1.11422">
        <ele>0.62</ele>
        <time>2016-07-08T06:58:57Z</time>
      </trkpt>
      <trkpt lat="45.52488" lon="-1.11416">
        <ele>0.62</ele>
        <time>2016-07-08T06:59:02Z</time>
      </trkpt>
      <trkpt lat="45.52486" lon="-1.11393">
        <ele>0.62</ele>
        <time>2016-07-08T06:59:19Z</time>
      </trkpt>
      <trkpt lat="45.52491" lon="-1.11389">
        <ele>0.62</ele>
        <time>2016-07-08T06:59:24Z</time>
      </trkpt>
      <trkpt lat="45.525" lon="-1.11387">
        <ele>0.62</ele>
        <time>2016-07-08T06:59:43Z</time>
      </trkpt>
      <trkpt lat="45.52499" lon="-1.11388">
        <ele>0.62</ele>
        <time>2016-07-08T06:59:59Z</time>
      </trkpt>
      <trkpt lat="45.52502" lon="-1.11388">
        <ele>1.1</ele>
        <time>2016-07-08T07:00:18Z</time>
      </trkpt>
      <trkpt lat="45.525" lon="-1.11388">
        <ele>1.1</ele>
        <time>2016-07-08T07:00:38Z</time>
      </trkpt>
      <trkpt lat="45.52503" lon="-1.11381">
        <ele>1.1</ele>
        <time>2016-07-08T07:00:47Z</time>
      </trkpt>
      <trkpt lat="45.52507" lon="-1.11361">
        <ele>0.62</ele>
        <time>2016-07-08T07:01:03Z</time>
      </trkpt>
      <trkpt lat="45.52508" lon="-1.11358">
        <ele>0.62</ele>
        <time>2016-07-08T07:01:05Z</time>
      </trkpt>
      <trkpt lat="45.5251" lon="-1.11355">
        <ele>2.06</ele>
        <time>2016-07-08T07:01:08Z</time>
      </trkpt>
      <trkpt lat="45.52518" lon="-1.11345">
        <ele>2.06</ele>
        <time>2016-07-08T07:01:17Z</time>
      </trkpt>
      <trkpt lat="45.52537" lon="-1.11335">
        <ele>3.02</ele>
        <time>2016-07-08T07:01:34Z</time>
      </trkpt>
      <trkpt lat="45.52549" lon="-1.11329">
        <ele>3.5</ele>
        <time>2016-07-08T07:01:45Z</time>
      </trkpt>
      <trkpt lat="45.52568" lon="-1.11319">
        <ele>3.98</ele>
        <time>2016-07-08T07:02:02Z</time>
      </trkpt>
      <trkpt lat="45.52581" lon="-1.11306">
        <ele>3.98</ele>
        <time>2016-07-08T07:02:17Z</time>
      </trkpt>
      <trkpt lat="45.52583" lon="-1.11305">
        <ele>3.98</ele>
        <time>2016-07-08T07:02:19Z</time>
      </trkpt>
      <trkpt lat="45.52586" lon="-1.11303">
        <ele>3.98</ele>
        <time>2016-07-08T07:02:22Z</time>
      </trkpt>
      <trkpt lat="45.52601" lon="-1.11293">
        <ele>2.54</ele>
        <time>2016-07-08T07:02:38Z</time>
      </trkpt>
      <trkpt lat="45.52617" lon="-1.11282">
        <ele>2.06</ele>
        <time>2016-07-08T07:02:53Z</time>
      </trkpt>
      <trkpt lat="45.52636" lon="-1.11271">
        <ele>2.54</ele>
        <time>2016-07-08T07:03:09Z</time>
      </trkpt>
      <trkpt lat="45.52651" lon="-1.11268">
        <ele>2.06</ele>
        <time>2016-07-08T07:03:25Z</time>
      </trkpt>
      <trkpt lat="45.52665" lon="-1.11259">
        <ele>1.58</ele>
        <time>2016-07-08T07:03:40Z</time>
      </trkpt>
      <trkpt lat="45.52672" lon="-1.11255">
        <ele>1.58</ele>
        <time>2016-07-08T07:03:46Z</time>
      </trkpt>
      <trkpt lat="45.52681" lon="-1.11251">
        <ele>3.02</ele>
        <time>2016-07-08T07:03:55Z</time>
      </trkpt>
      <trkpt lat="45.52683" lon="-1.11249">
        <ele>3.02</ele>
        <time>2016-07-08T07:03:57Z</time>
      </trkpt>
      <trkpt lat="45.527" lon="-1.11243">
        <ele>3.5</ele>
        <time>2016-07-08T07:04:12Z</time>
      </trkpt>
      <trkpt lat="45.52724" lon="-1.11242">
        <ele>3.98</ele>
        <time>2016-07-08T07:04:30Z</time>
      </trkpt>
      <trkpt lat="45.52726" lon="-1.11242">
        <ele>3.98</ele>
        <time>2016-07-08T07:04:32Z</time>
      </trkpt>
      <trkpt lat="45.5273" lon="-1.11242">
        <ele>3.98</ele>
        <time>2016-07-08T07:04:35Z</time>
      </trkpt>
      <trkpt lat="45.52734" lon="-1.11242">
        <ele>3.98</ele>
        <time>2016-07-08T07:04:39Z</time>
      </trkpt>
      <trkpt lat="45.52743" lon="-1.11241">
        <ele>2.54</ele>
        <time>2016-07-08T07:04:47Z</time>
      </trkpt>
      <trkpt lat="45.52761" lon="-1.11232">
        <ele>2.06</ele>
        <time>2016-07-08T07:05:04Z</time>
      </trkpt>
      <trkpt lat="45.52777" lon="-1.11221">
        <ele>2.06</ele>
        <time>2016-07-08T07:05:20Z</time>
      </trkpt>
      <trkpt lat="45.52781" lon="-1.11219">
        <ele>2.06</ele>
        <time>2016-07-08T07:05:23Z</time>
      </trkpt>
      <trkpt lat="45.5279" lon="-1.11228">
        <ele>2.06</ele>
        <time>2016-07-08T07:05:36Z</time>
      </trkpt>
      <trkpt lat="45.52795" lon="-1.11224">
        <ele>2.06</ele>
        <time>2016-07-08T07:05:48Z</time>
      </trkpt>
      <trkpt lat="45.52798" lon="-1.11222">
        <ele>2.06</ele>
        <time>2016-07-08T07:06:00Z</time>
      </trkpt>
      <trkpt lat="45.5281" lon="-1.11204">
        <ele>2.06</ele>
        <time>2016-07-08T07:06:16Z</time>
      </trkpt>
      <trkpt lat="45.5282" lon="-1.11177">
        <ele>2.06</ele>
        <time>2016-07-08T07:06:35Z</time>
      </trkpt>
      <trkpt lat="45.52822" lon="-1.11172">
        <ele>2.06</ele>
        <time>2016-07-08T07:06:39Z</time>
      </trkpt>
      <trkpt lat="45.52829" lon="-1.1117">
        <ele>3.5</ele>
        <time>2016-07-08T07:06:47Z</time>
      </trkpt>
      <trkpt lat="45.52835" lon="-1.11165">
        <ele>4.46</ele>
        <time>2016-07-08T07:07:00Z</time>
      </trkpt>
      <trkpt lat="45.52843" lon="-1.11157">
        <ele>6.39</ele>
        <time>2016-07-08T07:07:14Z</time>
      </trkpt>
      <trkpt lat="45.52848" lon="-1.11134">
        <ele>8.31</ele>
        <time>2016-07-08T07:07:31Z</time>
      </trkpt>
      <trkpt lat="45.52855" lon="-1.11115">
        <ele>10.71</ele>
        <time>2016-07-08T07:07:46Z</time>
      </trkpt>
      <trkpt lat="45.52862" lon="-1.11097">
        <ele>12.15</ele>
        <time>2016-07-08T07:07:59Z</time>
      </trkpt>
      <trkpt lat="45.52863" lon="-1.11083">
        <ele>12.63</ele>
        <time>2016-07-08T07:08:12Z</time>
      </trkpt>
      <trkpt lat="45.52864" lon="-1.11077">
        <ele>13.12</ele>
        <time>2016-07-08T07:08:35Z</time>
      </trkpt>
      <trkpt lat="45.52863" lon="-1.1107">
        <ele>13.12</ele>
        <time>2016-07-08T07:09:07Z</time>
      </trkpt>
      <trkpt lat="45.52868" lon="-1.11055">
        <ele>14.08</ele>
        <time>2016-07-08T07:09:22Z</time>
      </trkpt>
      <trkpt lat="45.52875" lon="-1.11036">
        <ele>14.08</ele>
        <time>2016-07-08T07:09:37Z</time>
      </trkpt>
      <trkpt lat="45.52881" lon="-1.11028">
        <ele>15.04</ele>
        <time>2016-07-08T07:09:49Z</time>
      </trkpt>
      <trkpt lat="45.52881" lon="-1.11036">
        <ele>14.08</ele>
        <time>2016-07-08T07:10:03Z</time>
      </trkpt>
      <trkpt lat="45.52886" lon="-1.1103">
        <ele>13.12</ele>
        <time>2016-07-08T07:10:14Z</time>
      </trkpt>
      <trkpt lat="45.52889" lon="-1.11027">
        <ele>13.12</ele>
        <time>2016-07-08T07:10:29Z</time>
      </trkpt>
      <trkpt lat="45.52887" lon="-1.11025">
        <ele>11.67</ele>
        <time>2016-07-08T07:10:36Z</time>
      </trkpt>
      <trkpt lat="45.52889" lon="-1.11033">
        <ele>13.12</ele>
        <time>2016-07-08T07:11:18Z</time>
      </trkpt>
      <trkpt lat="45.52892" lon="-1.1102">
        <ele>15.52</ele>
        <time>2016-07-08T07:11:33Z</time>
      </trkpt>
      <trkpt lat="45.52893" lon="-1.11018">
        <ele>16</ele>
        <time>2016-07-08T07:11:54Z</time>
      </trkpt>
      <trkpt lat="45.529" lon="-1.11018">
        <ele>16.48</ele>
        <time>2016-07-08T07:12:11Z</time>
      </trkpt>
      <trkpt lat="45.52906" lon="-1.11014">
        <ele>16.96</ele>
        <time>2016-07-08T07:12:23Z</time>
      </trkpt>
      <trkpt lat="45.52917" lon="-1.1101">
        <ele>16.96</ele>
        <time>2016-07-08T07:12:36Z</time>
      </trkpt>
      <trkpt lat="45.52927" lon="-1.11">
        <ele>17.44</ele>
        <time>2016-07-08T07:12:51Z</time>
      </trkpt>
      <trkpt lat="45.52935" lon="-1.10992">
        <ele>16</ele>
        <time>2016-07-08T07:13:03Z</time>
      </trkpt>
      <trkpt lat="45.52937" lon="-1.10983">
        <ele>14.08</ele>
        <time>2016-07-08T07:13:17Z</time>
      </trkpt>
      <trkpt lat="45.52939" lon="-1.10971">
        <ele>12.63</ele>
        <time>2016-07-08T07:13:30Z</time>
      </trkpt>
      <trkpt lat="45.52949" lon="-1.10971">
        <ele>14.56</ele>
        <time>2016-07-08T07:13:42Z</time>
      </trkpt>
      <trkpt lat="45.52961" lon="-1.1097">
        <ele>15.04</ele>
        <time>2016-07-08T07:13:56Z</time>
      </trkpt>
      <trkpt lat="45.52976" lon="-1.10968">
        <ele>15.04</ele>
        <time>2016-07-08T07:14:10Z</time>
      </trkpt>
      <trkpt lat="45.52978" lon="-1.10967">
        <ele>14.08</ele>
        <time>2016-07-08T07:14:12Z</time>
      </trkpt>
      <trkpt lat="45.52991" lon="-1.10973">
        <ele>14.08</ele>
        <time>2016-07-08T07:14:26Z</time>
      </trkpt>
      <trkpt lat="45.53" lon="-1.10968">
        <ele>12.15</ele>
        <time>2016-07-08T07:14:39Z</time>
      </trkpt>
      <trkpt lat="45.53004" lon="-1.10968">
        <ele>11.19</ele>
        <time>2016-07-08T07:14:44Z</time>
      </trkpt>
      <trkpt lat="45.53015" lon="-1.10965">
        <ele>10.71</ele>
        <time>2016-07-08T07:14:56Z</time>
      </trkpt>
      <trkpt lat="45.53024" lon="-1.10954">
        <ele>10.23</ele>
        <time>2016-07-08T07:15:09Z</time>
      </trkpt>
      <trkpt lat="45.53029" lon="-1.10935">
        <ele>9.75</ele>
        <time>2016-07-08T07:15:26Z</time>
      </trkpt>
      <trkpt lat="45.53033" lon="-1.10917">
        <ele>9.75</ele>
        <time>2016-07-08T07:15:39Z</time>
      </trkpt>
      <trkpt lat="45.53038" lon="-1.10902">
        <ele>9.75</ele>
        <time>2016-07-08T07:15:52Z</time>
      </trkpt>
      <trkpt lat="45.53053" lon="-1.1089">
        <ele>8.31</ele>
        <time>2016-07-08T07:16:09Z</time>
      </trkpt>
      <trkpt lat="45.53064" lon="-1.10884">
        <ele>9.75</ele>
        <time>2016-07-08T07:16:21Z</time>
      </trkpt>
      <trkpt lat="45.53064" lon="-1.10884">
        <ele>9.75</ele>
        <time>2016-07-08T07:16:22Z</time>
      </trkpt>
      <trkpt lat="45.53077" lon="-1.10886">
        <ele>11.19</ele>
        <time>2016-07-08T07:16:35Z</time>
      </trkpt>
      <trkpt lat="45.53088" lon="-1.10883">
        <ele>12.15</ele>
        <time>2016-07-08T07:16:49Z</time>
      </trkpt>
      <trkpt lat="45.53093" lon="-1.10877">
        <ele>14.08</ele>
        <time>2016-07-08T07:17:05Z</time>
      </trkpt>
      <trkpt lat="45.53096" lon="-1.10867">
        <ele>14.56</ele>
        <time>2016-07-08T07:17:16Z</time>
      </trkpt>
      <trkpt lat="45.53102" lon="-1.10853">
        <ele>15.04</ele>
        <time>2016-07-08T07:17:30Z</time>
      </trkpt>
      <trkpt lat="45.53103" lon="-1.10856">
        <ele>15.04</ele>
        <time>2016-07-08T07:17:46Z</time>
      </trkpt>
      <trkpt lat="45.531" lon="-1.10864">
        <ele>15.04</ele>
        <time>2016-07-08T07:18:03Z</time>
      </trkpt>
      <trkpt lat="45.53099" lon="-1.10867">
        <ele>15.52</ele>
        <time>2016-07-08T07:18:19Z</time>
      </trkpt>
      <trkpt lat="45.53096" lon="-1.10867">
        <ele>15.52</ele>
        <time>2016-07-08T07:18:55Z</time>
      </trkpt>
      <trkpt lat="45.53095" lon="-1.10866">
        <ele>15.52</ele>
        <time>2016-07-08T07:19:09Z</time>
      </trkpt>
      <trkpt lat="45.53096" lon="-1.10863">
        <ele>15.52</ele>
        <time>2016-07-08T07:19:23Z</time>
      </trkpt>
      <trkpt lat="45.53102" lon="-1.10852">
        <ele>15.52</ele>
        <time>2016-07-08T07:19:37Z</time>
      </trkpt>
      <trkpt lat="45.53111" lon="-1.10846">
        <ele>15.52</ele>
        <time>2016-07-08T07:19:50Z</time>
      </trkpt>
      <trkpt lat="45.53121" lon="-1.10834">
        <ele>13.12</ele>
        <time>2016-07-08T07:20:04Z</time>
      </trkpt>
      <trkpt lat="45.53132" lon="-1.10825">
        <ele>12.15</ele>
        <time>2016-07-08T07:20:17Z</time>
      </trkpt>
      <trkpt lat="45.53133" lon="-1.10814">
        <ele>9.75</ele>
        <time>2016-07-08T07:20:31Z</time>
      </trkpt>
      <trkpt lat="45.53134" lon="-1.10806">
        <ele>9.75</ele>
        <time>2016-07-08T07:20:43Z</time>
      </trkpt>
      <trkpt lat="45.53134" lon="-1.10801">
        <ele>9.27</ele>
        <time>2016-07-08T07:20:56Z</time>
      </trkpt>
      <trkpt lat="45.53126" lon="-1.10794">
        <ele>8.79</ele>
        <time>2016-07-08T07:21:08Z</time>
      </trkpt>
      <trkpt lat="45.53128" lon="-1.10781">
        <ele>8.79</ele>
        <time>2016-07-08T07:21:19Z</time>
      </trkpt>
      <trkpt lat="45.53129" lon="-1.10778">
        <ele>8.79</ele>
        <time>2016-07-08T07:21:23Z</time>
      </trkpt>
      <trkpt lat="45.53139" lon="-1.10762">
        <ele>8.79</ele>
        <time>2016-07-08T07:21:38Z</time>
      </trkpt>
      <trkpt lat="45.5315" lon="-1.10752">
        <ele>9.75</ele>
        <time>2016-07-08T07:21:51Z</time>
      </trkpt>
      <trkpt lat="45.53161" lon="-1.10753">
        <ele>9.75</ele>
        <time>2016-07-08T07:22:04Z</time>
      </trkpt>
      <trkpt lat="45.53177" lon="-1.10758">
        <ele>11.67</ele>
        <time>2016-07-08T07:22:20Z</time>
      </trkpt>
      <trkpt lat="45.53189" lon="-1.10759">
        <ele>13.12</ele>
        <time>2016-07-08T07:22:32Z</time>
      </trkpt>
      <trkpt lat="45.53198" lon="-1.10754">
        <ele>14.56</ele>
        <time>2016-07-08T07:22:46Z</time>
      </trkpt>
      <trkpt lat="45.53213" lon="-1.10755">
        <ele>16.48</ele>
        <time>2016-07-08T07:23:00Z</time>
      </trkpt>
      <trkpt lat="45.53226" lon="-1.10752">
        <ele>16.96</ele>
        <time>2016-07-08T07:23:15Z</time>
      </trkpt>
      <trkpt lat="45.53231" lon="-1.1074">
        <ele>17.44</ele>
        <time>2016-07-08T07:23:30Z</time>
      </trkpt>
      <trkpt lat="45.5324" lon="-1.10725">
        <ele>17.92</ele>
        <time>2016-07-08T07:23:44Z</time>
      </trkpt>
      <trkpt lat="45.53249" lon="-1.10727">
        <ele>20.32</ele>
        <time>2016-07-08T07:23:59Z</time>
      </trkpt>
      <trkpt lat="45.53254" lon="-1.10726">
        <ele>19.84</ele>
        <time>2016-07-08T07:24:03Z</time>
      </trkpt>
      <trkpt lat="45.53263" lon="-1.10734">
        <ele>20.32</ele>
        <time>2016-07-08T07:24:16Z</time>
      </trkpt>
      <trkpt lat="45.53274" lon="-1.10732">
        <ele>21.77</ele>
        <time>2016-07-08T07:24:31Z</time>
      </trkpt>
      <trkpt lat="45.53277" lon="-1.10725">
        <ele>21.77</ele>
        <time>2016-07-08T07:24:42Z</time>
      </trkpt>
      <trkpt lat="45.53279" lon="-1.10728">
        <ele>21.77</ele>
        <time>2016-07-08T07:25:00Z</time>
      </trkpt>
      <trkpt lat="45.53281" lon="-1.10725">
        <ele>21.77</ele>
        <time>2016-07-08T07:25:11Z</time>
      </trkpt>
      <trkpt lat="45.53284" lon="-1.1072">
        <ele>21.77</ele>
        <time>2016-07-08T07:25:21Z</time>
      </trkpt>
      <trkpt lat="45.53287" lon="-1.10717">
        <ele>20.32</ele>
        <time>2016-07-08T07:25:24Z</time>
      </trkpt>
      <trkpt lat="45.533" lon="-1.10705">
        <ele>19.36</ele>
        <time>2016-07-08T07:25:39Z</time>
      </trkpt>
      <trkpt lat="45.53302" lon="-1.10701">
        <ele>18.88</ele>
        <time>2016-07-08T07:25:42Z</time>
      </trkpt>
      <trkpt lat="45.53308" lon="-1.10684">
        <ele>18.4</ele>
        <time>2016-07-08T07:25:56Z</time>
      </trkpt>
      <trkpt lat="45.53315" lon="-1.10669">
        <ele>16.96</ele>
        <time>2016-07-08T07:26:10Z</time>
      </trkpt>
      <trkpt lat="45.53326" lon="-1.10656">
        <ele>16</ele>
        <time>2016-07-08T07:26:25Z</time>
      </trkpt>
      <trkpt lat="45.5334" lon="-1.10641">
        <ele>15.52</ele>
        <time>2016-07-08T07:26:38Z</time>
      </trkpt>
      <trkpt lat="45.53353" lon="-1.10625">
        <ele>15.52</ele>
        <time>2016-07-08T07:26:53Z</time>
      </trkpt>
      <trkpt lat="45.53365" lon="-1.1061">
        <ele>14.56</ele>
        <time>2016-07-08T07:27:08Z</time>
      </trkpt>
      <trkpt lat="45.53378" lon="-1.10595">
        <ele>13.6</ele>
        <time>2016-07-08T07:27:23Z</time>
      </trkpt>
      <trkpt lat="45.53389" lon="-1.10584">
        <ele>13.6</ele>
        <time>2016-07-08T07:27:36Z</time>
      </trkpt>
      <trkpt lat="45.53401" lon="-1.10571">
        <ele>13.6</ele>
        <time>2016-07-08T07:27:49Z</time>
      </trkpt>
      <trkpt lat="45.53411" lon="-1.10576">
        <ele>13.6</ele>
        <time>2016-07-08T07:28:03Z</time>
      </trkpt>
      <trkpt lat="45.53421" lon="-1.10571">
        <ele>15.04</ele>
        <time>2016-07-08T07:28:15Z</time>
      </trkpt>
      <trkpt lat="45.53436" lon="-1.10563">
        <ele>16.48</ele>
        <time>2016-07-08T07:28:30Z</time>
      </trkpt>
      <trkpt lat="45.53446" lon="-1.10559">
        <ele>17.92</ele>
        <time>2016-07-08T07:28:42Z</time>
      </trkpt>
      <trkpt lat="45.53458" lon="-1.1055">
        <ele>19.36</ele>
        <time>2016-07-08T07:28:56Z</time>
      </trkpt>
      <trkpt lat="45.5347" lon="-1.10543">
        <ele>19.84</ele>
        <time>2016-07-08T07:29:09Z</time>
      </trkpt>
      <trkpt lat="45.53484" lon="-1.10539">
        <ele>18.88</ele>
        <time>2016-07-08T07:29:23Z</time>
      </trkpt>
      <trkpt lat="45.53487" lon="-1.10533">
        <ele>18.4</ele>
        <time>2016-07-08T07:29:29Z</time>
      </trkpt>
      <trkpt lat="45.53495" lon="-1.1052">
        <ele>16.96</ele>
        <time>2016-07-08T07:29:43Z</time>
      </trkpt>
      <trkpt lat="45.53506" lon="-1.10511">
        <ele>14.56</ele>
        <time>2016-07-08T07:29:57Z</time>
      </trkpt>
      <trkpt lat="45.53505" lon="-1.10499">
        <ele>13.12</ele>
        <time>2016-07-08T07:30:12Z</time>
      </trkpt>
      <trkpt lat="45.53504" lon="-1.10495">
        <ele>12.63</ele>
        <time>2016-07-08T07:30:27Z</time>
      </trkpt>
      <trkpt lat="45.53507" lon="-1.10487">
        <ele>11.19</ele>
        <time>2016-07-08T07:30:42Z</time>
      </trkpt>
      <trkpt lat="45.53514" lon="-1.10479">
        <ele>9.75</ele>
        <time>2016-07-08T07:30:56Z</time>
      </trkpt>
      <trkpt lat="45.53521" lon="-1.10462">
        <ele>8.31</ele>
        <time>2016-07-08T07:31:10Z</time>
      </trkpt>
      <trkpt lat="45.53533" lon="-1.10443">
        <ele>8.31</ele>
        <time>2016-07-08T07:31:25Z</time>
      </trkpt>
      <trkpt lat="45.5354" lon="-1.10428">
        <ele>8.79</ele>
        <time>2016-07-08T07:31:36Z</time>
      </trkpt>
      <trkpt lat="45.53548" lon="-1.10415">
        <ele>10.23</ele>
        <time>2016-07-08T07:31:47Z</time>
      </trkpt>
      <trkpt lat="45.5355" lon="-1.10412">
        <ele>10.23</ele>
        <time>2016-07-08T07:31:49Z</time>
      </trkpt>
      <trkpt lat="45.53551" lon="-1.10392">
        <ele>12.15</ele>
        <time>2016-07-08T07:32:04Z</time>
      </trkpt>
      <trkpt lat="45.5355" lon="-1.10391">
        <ele>12.15</ele>
        <time>2016-07-08T07:32:05Z</time>
      </trkpt>
      <trkpt lat="45.53548" lon="-1.10379">
        <ele>12.63</ele>
        <time>2016-07-08T07:32:17Z</time>
      </trkpt>
      <trkpt lat="45.53548" lon="-1.10362">
        <ele>14.08</ele>
        <time>2016-07-08T07:32:28Z</time>
      </trkpt>
      <trkpt lat="45.53554" lon="-1.10342">
        <ele>16</ele>
        <time>2016-07-08T07:32:42Z</time>
      </trkpt>
      <trkpt lat="45.53563" lon="-1.10334">
        <ele>16.96</ele>
        <time>2016-07-08T07:32:51Z</time>
      </trkpt>
      <trkpt lat="45.53576" lon="-1.10322">
        <ele>17.44</ele>
        <time>2016-07-08T07:33:07Z</time>
      </trkpt>
      <trkpt lat="45.53587" lon="-1.10309">
        <ele>17.44</ele>
        <time>2016-07-08T07:33:21Z</time>
      </trkpt>
      <trkpt lat="45.53596" lon="-1.10297">
        <ele>14.56</ele>
        <time>2016-07-08T07:33:34Z</time>
      </trkpt>
      <trkpt lat="45.53606" lon="-1.1028">
        <ele>12.15</ele>
        <time>2016-07-08T07:33:48Z</time>
      </trkpt>
      <trkpt lat="45.53616" lon="-1.10261">
        <ele>9.75</ele>
        <time>2016-07-08T07:34:04Z</time>
      </trkpt>
      <trkpt lat="45.5362" lon="-1.10255">
        <ele>9.75</ele>
        <time>2016-07-08T07:34:09Z</time>
      </trkpt>
      <trkpt lat="45.53631" lon="-1.10246">
        <ele>11.19</ele>
        <time>2016-07-08T07:34:19Z</time>
      </trkpt>
      <trkpt lat="45.53637" lon="-1.10239">
        <ele>12.15</ele>
        <time>2016-07-08T07:34:26Z</time>
      </trkpt>
      <trkpt lat="45.5364" lon="-1.10238">
        <ele>12.15</ele>
        <time>2016-07-08T07:34:29Z</time>
      </trkpt>
      <trkpt lat="45.53642" lon="-1.10236">
        <ele>13.12</ele>
        <time>2016-07-08T07:34:31Z</time>
      </trkpt>
      <trkpt lat="45.53648" lon="-1.1023">
        <ele>14.08</ele>
        <time>2016-07-08T07:34:38Z</time>
      </trkpt>
      <trkpt lat="45.53663" lon="-1.10216">
        <ele>16</ele>
        <time>2016-07-08T07:34:52Z</time>
      </trkpt>
      <trkpt lat="45.53675" lon="-1.10207">
        <ele>16.96</ele>
        <time>2016-07-08T07:35:06Z</time>
      </trkpt>
      <trkpt lat="45.53676" lon="-1.10207">
        <ele>16.96</ele>
        <time>2016-07-08T07:35:07Z</time>
      </trkpt>
      <trkpt lat="45.53688" lon="-1.10196">
        <ele>16.96</ele>
        <time>2016-07-08T07:35:20Z</time>
      </trkpt>
      <trkpt lat="45.53697" lon="-1.10191">
        <ele>17.44</ele>
        <time>2016-07-08T07:35:32Z</time>
      </trkpt>
      <trkpt lat="45.53708" lon="-1.10189">
        <ele>17.44</ele>
        <time>2016-07-08T07:35:47Z</time>
      </trkpt>
      <trkpt lat="45.53712" lon="-1.1019">
        <ele>17.44</ele>
        <time>2016-07-08T07:36:15Z</time>
      </trkpt>
      <trkpt lat="45.53709" lon="-1.10186">
        <ele>16.96</ele>
        <time>2016-07-08T07:36:59Z</time>
      </trkpt>
      <trkpt lat="45.53708" lon="-1.10191">
        <ele>16.96</ele>
        <time>2016-07-08T07:37:12Z</time>
      </trkpt>
      <trkpt lat="45.53703" lon="-1.10199">
        <ele>16.96</ele>
        <time>2016-07-08T07:37:27Z</time>
      </trkpt>
      <trkpt lat="45.53696" lon="-1.10204">
        <ele>16.96</ele>
        <time>2016-07-08T07:37:42Z</time>
      </trkpt>
      <trkpt lat="45.53692" lon="-1.10203">
        <ele>16.96</ele>
        <time>2016-07-08T07:38:15Z</time>
      </trkpt>
      <trkpt lat="45.53692" lon="-1.10204">
        <ele>16.96</ele>
        <time>2016-07-08T07:38:45Z</time>
      </trkpt>
      <trkpt lat="45.53698" lon="-1.10196">
        <ele>16.96</ele>
        <time>2016-07-08T07:39:04Z</time>
      </trkpt>
      <trkpt lat="45.53707" lon="-1.10187">
        <ele>16.96</ele>
        <time>2016-07-08T07:39:19Z</time>
      </trkpt>
      <trkpt lat="45.53711" lon="-1.10179">
        <ele>16.96</ele>
        <time>2016-07-08T07:39:32Z</time>
      </trkpt>
      <trkpt lat="45.53715" lon="-1.10183">
        <ele>16.96</ele>
        <time>2016-07-08T07:39:47Z</time>
      </trkpt>
      <trkpt lat="45.53713" lon="-1.10184">
        <ele>16.96</ele>
        <time>2016-07-08T07:40:12Z</time>
      </trkpt>
      <trkpt lat="45.53715" lon="-1.10177">
        <ele>16.96</ele>
        <time>2016-07-08T07:40:28Z</time>
      </trkpt>
      <trkpt lat="45.53721" lon="-1.10165">
        <ele>17.92</ele>
        <time>2016-07-08T07:40:41Z</time>
      </trkpt>
      <trkpt lat="45.53723" lon="-1.10157">
        <ele>18.4</ele>
        <time>2016-07-08T07:40:46Z</time>
      </trkpt>
      <trkpt lat="45.53735" lon="-1.10138">
        <ele>19.36</ele>
        <time>2016-07-08T07:41:03Z</time>
      </trkpt>
      <trkpt lat="45.53744" lon="-1.10124">
        <ele>19.36</ele>
        <time>2016-07-08T07:41:17Z</time>
      </trkpt>
      <trkpt lat="45.53759" lon="-1.10106">
        <ele>19.36</ele>
        <time>2016-07-08T07:41:34Z</time>
      </trkpt>
      <trkpt lat="45.53766" lon="-1.10098">
        <ele>17.92</ele>
        <time>2016-07-08T07:41:43Z</time>
      </trkpt>
      <trkpt lat="45.53775" lon="-1.10087">
        <ele>17.44</ele>
        <time>2016-07-08T07:41:55Z</time>
      </trkpt>
      <trkpt lat="45.53784" lon="-1.10079">
        <ele>16.48</ele>
        <time>2016-07-08T07:42:08Z</time>
      </trkpt>
      <trkpt lat="45.53786" lon="-1.10079">
        <ele>16</ele>
        <time>2016-07-08T07:42:14Z</time>
      </trkpt>
      <trkpt lat="45.53788" lon="-1.10078">
        <ele>16</ele>
        <time>2016-07-08T07:42:17Z</time>
      </trkpt>
      <trkpt lat="45.53789" lon="-1.1008">
        <ele>16</ele>
        <time>2016-07-08T07:42:19Z</time>
      </trkpt>
      <trkpt lat="45.53796" lon="-1.10085">
        <ele>16</ele>
        <time>2016-07-08T07:42:29Z</time>
      </trkpt>
      <trkpt lat="45.538" lon="-1.10088">
        <ele>16</ele>
        <time>2016-07-08T07:42:40Z</time>
      </trkpt>
      <trkpt lat="45.53801" lon="-1.1009">
        <ele>16</ele>
        <time>2016-07-08T07:42:56Z</time>
      </trkpt>
      <trkpt lat="45.53802" lon="-1.10089">
        <ele>16</ele>
        <time>2016-07-08T07:43:20Z</time>
      </trkpt>
      <trkpt lat="45.53806" lon="-1.10085">
        <ele>17.92</ele>
        <time>2016-07-08T07:43:35Z</time>
      </trkpt>
      <trkpt lat="45.53812" lon="-1.10088">
        <ele>19.84</ele>
        <time>2016-07-08T07:43:48Z</time>
      </trkpt>
      <trkpt lat="45.53819" lon="-1.10084">
        <ele>19.84</ele>
        <time>2016-07-08T07:44:00Z</time>
      </trkpt>
      <trkpt lat="45.53829" lon="-1.10072">
        <ele>20.81</ele>
        <time>2016-07-08T07:44:15Z</time>
      </trkpt>
      <trkpt lat="45.53837" lon="-1.10058">
        <ele>21.29</ele>
        <time>2016-07-08T07:44:29Z</time>
      </trkpt>
      <trkpt lat="45.53842" lon="-1.10047">
        <ele>21.77</ele>
        <time>2016-07-08T07:44:37Z</time>
      </trkpt>
      <trkpt lat="45.53854" lon="-1.10034">
        <ele>22.25</ele>
        <time>2016-07-08T07:44:52Z</time>
      </trkpt>
      <trkpt lat="45.53871" lon="-1.10027">
        <ele>23.21</ele>
        <time>2016-07-08T07:45:07Z</time>
      </trkpt>
      <trkpt lat="45.53886" lon="-1.10027">
        <ele>24.65</ele>
        <time>2016-07-08T07:45:21Z</time>
      </trkpt>
      <trkpt lat="45.539" lon="-1.10027">
        <ele>26.09</ele>
        <time>2016-07-08T07:45:34Z</time>
      </trkpt>
      <trkpt lat="45.5391" lon="-1.10029">
        <ele>26.09</ele>
        <time>2016-07-08T07:45:45Z</time>
      </trkpt>
      <trkpt lat="45.53926" lon="-1.10054">
        <ele>26.57</ele>
        <time>2016-07-08T07:46:01Z</time>
      </trkpt>
      <trkpt lat="45.53932" lon="-1.10065">
        <ele>26.57</ele>
        <time>2016-07-08T07:46:11Z</time>
      </trkpt>
      <trkpt lat="45.53936" lon="-1.10069">
        <ele>26.57</ele>
        <time>2016-07-08T07:46:16Z</time>
      </trkpt>
      <trkpt lat="45.53938" lon="-1.1007">
        <ele>26.57</ele>
        <time>2016-07-08T07:46:18Z</time>
      </trkpt>
      <trkpt lat="45.53942" lon="-1.10074">
        <ele>25.13</ele>
        <time>2016-07-08T07:46:22Z</time>
      </trkpt>
      <trkpt lat="45.53948" lon="-1.1008">
        <ele>25.13</ele>
        <time>2016-07-08T07:46:34Z</time>
      </trkpt>
      <trkpt lat="45.53948" lon="-1.10081">
        <ele>24.17</ele>
        <time>2016-07-08T07:47:05Z</time>
      </trkpt>
      <trkpt lat="45.53948" lon="-1.10081">
        <ele>24.17</ele>
        <time>2016-07-08T07:47:30Z</time>
      </trkpt>
      <trkpt lat="45.53947" lon="-1.10082">
        <ele>24.17</ele>
        <time>2016-07-08T07:47:54Z</time>
      </trkpt>
      <trkpt lat="45.53947" lon="-1.10082">
        <ele>24.17</ele>
        <time>2016-07-08T07:48:17Z</time>
      </trkpt>
      <trkpt lat="45.53947" lon="-1.10082">
        <ele>24.17</ele>
        <time>2016-07-08T07:48:32Z</time>
      </trkpt>
      <trkpt lat="45.53948" lon="-1.10081">
        <ele>24.17</ele>
        <time>2016-07-08T07:48:55Z</time>
      </trkpt>
      <trkpt lat="45.5395" lon="-1.10078">
        <ele>24.17</ele>
        <time>2016-07-08T07:49:07Z</time>
      </trkpt>
      <trkpt lat="45.5395" lon="-1.10079">
        <ele>24.17</ele>
        <time>2016-07-08T07:49:22Z</time>
      </trkpt>
      <trkpt lat="45.53951" lon="-1.10076">
        <ele>23.69</ele>
        <time>2016-07-08T07:49:40Z</time>
      </trkpt>
      <trkpt lat="45.53952" lon="-1.10074">
        <ele>23.69</ele>
        <time>2016-07-08T07:49:42Z</time>
      </trkpt>
      <trkpt lat="45.53965" lon="-1.10062">
        <ele>23.69</ele>
        <time>2016-07-08T07:49:58Z</time>
      </trkpt>
      <trkpt lat="45.53966" lon="-1.10061">
        <ele>23.69</ele>
        <time>2016-07-08T07:50:00Z</time>
      </trkpt>
      <trkpt lat="45.53982" lon="-1.1005">
        <ele>23.21</ele>
        <time>2016-07-08T07:50:15Z</time>
      </trkpt>
      <trkpt lat="45.53998" lon="-1.10036">
        <ele>22.25</ele>
        <time>2016-07-08T07:50:32Z</time>
      </trkpt>
      <trkpt lat="45.54005" lon="-1.10031">
        <ele>22.25</ele>
        <time>2016-07-08T07:50:39Z</time>
      </trkpt>
      <trkpt lat="45.54021" lon="-1.10016">
        <ele>25.13</ele>
        <time>2016-07-08T07:50:55Z</time>
      </trkpt>
      <trkpt lat="45.54033" lon="-1.10003">
        <ele>26.57</ele>
        <time>2016-07-08T07:51:09Z</time>
      </trkpt>
      <trkpt lat="45.54038" lon="-1.09997">
        <ele>26.57</ele>
        <time>2016-07-08T07:51:23Z</time>
      </trkpt>
      <trkpt lat="45.5404" lon="-1.09995">
        <ele>25.13</ele>
        <time>2016-07-08T07:51:25Z</time>
      </trkpt>
      <trkpt lat="45.54041" lon="-1.09993">
        <ele>24.65</ele>
        <time>2016-07-08T07:51:27Z</time>
      </trkpt>
      <trkpt lat="45.54044" lon="-1.09992">
        <ele>24.65</ele>
        <time>2016-07-08T07:51:30Z</time>
      </trkpt>
      <trkpt lat="45.5406" lon="-1.09976">
        <ele>23.21</ele>
        <time>2016-07-08T07:51:48Z</time>
      </trkpt>
      <trkpt lat="45.54067" lon="-1.09953">
        <ele>23.21</ele>
        <time>2016-07-08T07:52:05Z</time>
      </trkpt>
      <trkpt lat="45.54081" lon="-1.09941">
        <ele>21.29</ele>
        <time>2016-07-08T07:52:21Z</time>
      </trkpt>
      <trkpt lat="45.54095" lon="-1.09931">
        <ele>19.84</ele>
        <time>2016-07-08T07:52:36Z</time>
      </trkpt>
      <trkpt lat="45.54106" lon="-1.09907">
        <ele>19.36</ele>
        <time>2016-07-08T07:52:54Z</time>
      </trkpt>
      <trkpt lat="45.54118" lon="-1.09882">
        <ele>19.36</ele>
        <time>2016-07-08T07:53:12Z</time>
      </trkpt>
      <trkpt lat="45.54122" lon="-1.09877">
        <ele>19.36</ele>
        <time>2016-07-08T07:53:17Z</time>
      </trkpt>
      <trkpt lat="45.54136" lon="-1.09861">
        <ele>17.92</ele>
        <time>2016-07-08T07:53:35Z</time>
      </trkpt>
      <trkpt lat="45.54137" lon="-1.09859">
        <ele>17.92</ele>
        <time>2016-07-08T07:53:37Z</time>
      </trkpt>
      <trkpt lat="45.54153" lon="-1.09847">
        <ele>17.44</ele>
        <time>2016-07-08T07:53:53Z</time>
      </trkpt>
      <trkpt lat="45.54164" lon="-1.09838">
        <ele>17.44</ele>
        <time>2016-07-08T07:54:06Z</time>
      </trkpt>
      <trkpt lat="45.54178" lon="-1.09833">
        <ele>16.48</ele>
        <time>2016-07-08T07:54:18Z</time>
      </trkpt>
      <trkpt lat="45.54183" lon="-1.09831">
        <ele>16.48</ele>
        <time>2016-07-08T07:54:22Z</time>
      </trkpt>
      <trkpt lat="45.54204" lon="-1.09818">
        <ele>15.52</ele>
        <time>2016-07-08T07:54:40Z</time>
      </trkpt>
      <trkpt lat="45.54215" lon="-1.09802">
        <ele>15.04</ele>
        <time>2016-07-08T07:54:54Z</time>
      </trkpt>
      <trkpt lat="45.54225" lon="-1.09791">
        <ele>14.08</ele>
        <time>2016-07-08T07:55:05Z</time>
      </trkpt>
      <trkpt lat="45.54237" lon="-1.09784">
        <ele>12.63</ele>
        <time>2016-07-08T07:55:20Z</time>
      </trkpt>
      <trkpt lat="45.54251" lon="-1.09777">
        <ele>12.63</ele>
        <time>2016-07-08T07:55:35Z</time>
      </trkpt>
      <trkpt lat="45.54266" lon="-1.0977">
        <ele>12.63</ele>
        <time>2016-07-08T07:55:49Z</time>
      </trkpt>
      <trkpt lat="45.5427" lon="-1.09768">
        <ele>14.08</ele>
        <time>2016-07-08T07:55:54Z</time>
      </trkpt>
      <trkpt lat="45.54278" lon="-1.09767">
        <ele>14.56</ele>
        <time>2016-07-08T07:55:59Z</time>
      </trkpt>
      <trkpt lat="45.5429" lon="-1.09759">
        <ele>15.52</ele>
        <time>2016-07-08T07:56:11Z</time>
      </trkpt>
      <trkpt lat="45.54302" lon="-1.09757">
        <ele>14.08</ele>
        <time>2016-07-08T07:56:23Z</time>
      </trkpt>
      <trkpt lat="45.5432" lon="-1.0975">
        <ele>14.08</ele>
        <time>2016-07-08T07:56:39Z</time>
      </trkpt>
      <trkpt lat="45.54331" lon="-1.09745">
        <ele>15.04</ele>
        <time>2016-07-08T07:56:48Z</time>
      </trkpt>
      <trkpt lat="45.54341" lon="-1.09739">
        <ele>16.48</ele>
        <time>2016-07-08T07:57:00Z</time>
      </trkpt>
      <trkpt lat="45.54356" lon="-1.09732">
        <ele>17.44</ele>
        <time>2016-07-08T07:57:15Z</time>
      </trkpt>
      <trkpt lat="45.54371" lon="-1.09728">
        <ele>17.92</ele>
        <time>2016-07-08T07:57:28Z</time>
      </trkpt>
      <trkpt lat="45.54387" lon="-1.09724">
        <ele>18.88</ele>
        <time>2016-07-08T07:57:42Z</time>
      </trkpt>
      <trkpt lat="45.54394" lon="-1.09721">
        <ele>19.84</ele>
        <time>2016-07-08T07:57:54Z</time>
      </trkpt>
      <trkpt lat="45.54407" lon="-1.09716">
        <ele>21.77</ele>
        <time>2016-07-08T07:58:09Z</time>
      </trkpt>
      <trkpt lat="45.5442" lon="-1.09709">
        <ele>21.77</ele>
        <time>2016-07-08T07:58:23Z</time>
      </trkpt>
      <trkpt lat="45.54432" lon="-1.09704">
        <ele>22.25</ele>
        <time>2016-07-08T07:58:36Z</time>
      </trkpt>
      <trkpt lat="45.54446" lon="-1.09698">
        <ele>23.69</ele>
        <time>2016-07-08T07:58:48Z</time>
      </trkpt>
      <trkpt lat="45.54467" lon="-1.09692">
        <ele>25.61</ele>
        <time>2016-07-08T07:59:04Z</time>
      </trkpt>
      <trkpt lat="45.54477" lon="-1.09688">
        <ele>25.61</ele>
        <time>2016-07-08T07:59:15Z</time>
      </trkpt>
      <trkpt lat="45.54482" lon="-1.09691">
        <ele>25.61</ele>
        <time>2016-07-08T07:59:28Z</time>
      </trkpt>
      <trkpt lat="45.54483" lon="-1.09693">
        <ele>24.65</ele>
        <time>2016-07-08T07:59:42Z</time>
      </trkpt>
      <trkpt lat="45.54482" lon="-1.09691">
        <ele>24.65</ele>
        <time>2016-07-08T07:59:57Z</time>
      </trkpt>
      <trkpt lat="45.54483" lon="-1.09689">
        <ele>24.65</ele>
        <time>2016-07-08T08:00:14Z</time>
      </trkpt>
      <trkpt lat="45.54484" lon="-1.0969">
        <ele>24.17</ele>
        <time>2016-07-08T08:00:30Z</time>
      </trkpt>
      <trkpt lat="45.54488" lon="-1.09689">
        <ele>21.77</ele>
        <time>2016-07-08T08:00:46Z</time>
      </trkpt>
      <trkpt lat="45.54493" lon="-1.09686">
        <ele>19.36</ele>
        <time>2016-07-08T08:01:00Z</time>
      </trkpt>
      <trkpt lat="45.54498" lon="-1.09684">
        <ele>16.48</ele>
        <time>2016-07-08T08:01:12Z</time>
      </trkpt>
      <trkpt lat="45.54507" lon="-1.09679">
        <ele>14.08</ele>
        <time>2016-07-08T08:01:27Z</time>
      </trkpt>
      <trkpt lat="45.54514" lon="-1.09675">
        <ele>13.12</ele>
        <time>2016-07-08T08:01:38Z</time>
      </trkpt>
      <trkpt lat="45.54525" lon="-1.09671">
        <ele>13.12</ele>
        <time>2016-07-08T08:01:49Z</time>
      </trkpt>
      <trkpt lat="45.5453" lon="-1.09669">
        <ele>13.12</ele>
        <time>2016-07-08T08:01:59Z</time>
      </trkpt>
      <trkpt lat="45.54537" lon="-1.09665">
        <ele>14.08</ele>
        <time>2016-07-08T08:02:07Z</time>
      </trkpt>
      <trkpt lat="45.54544" lon="-1.09658">
        <ele>14.56</ele>
        <time>2016-07-08T08:02:17Z</time>
      </trkpt>
      <trkpt lat="45.54553" lon="-1.09655">
        <ele>14.56</ele>
        <time>2016-07-08T08:02:28Z</time>
      </trkpt>
      <trkpt lat="45.54556" lon="-1.09657">
        <ele>15.04</ele>
        <time>2016-07-08T08:02:38Z</time>
      </trkpt>
      <trkpt lat="45.5456" lon="-1.09655">
        <ele>15.52</ele>
        <time>2016-07-08T08:02:44Z</time>
      </trkpt>
      <trkpt lat="45.54564" lon="-1.09652">
        <ele>15.52</ele>
        <time>2016-07-08T08:02:50Z</time>
      </trkpt>
      <trkpt lat="45.54578" lon="-1.09641">
        <ele>16</ele>
        <time>2016-07-08T08:03:03Z</time>
      </trkpt>
      <trkpt lat="45.54586" lon="-1.09634">
        <ele>16.48</ele>
        <time>2016-07-08T08:03:12Z</time>
      </trkpt>
      <trkpt lat="45.54593" lon="-1.09624">
        <ele>16.96</ele>
        <time>2016-07-08T08:03:25Z</time>
      </trkpt>
      <trkpt lat="45.54596" lon="-1.09616">
        <ele>16.96</ele>
        <time>2016-07-08T08:03:31Z</time>
      </trkpt>
      <trkpt lat="45.546" lon="-1.09606">
        <ele>14.56</ele>
        <time>2016-07-08T08:03:44Z</time>
      </trkpt>
      <trkpt lat="45.54603" lon="-1.096">
        <ele>12.63</ele>
        <time>2016-07-08T08:03:56Z</time>
      </trkpt>
      <trkpt lat="45.54607" lon="-1.09597">
        <ele>11.67</ele>
        <time>2016-07-08T08:04:06Z</time>
      </trkpt>
      <trkpt lat="45.54608" lon="-1.09595">
        <ele>9.75</ele>
        <time>2016-07-08T08:04:13Z</time>
      </trkpt>
      <trkpt lat="45.54611" lon="-1.09588">
        <ele>9.27</ele>
        <time>2016-07-08T08:04:20Z</time>
      </trkpt>
      <trkpt lat="45.54617" lon="-1.09579">
        <ele>8.79</ele>
        <time>2016-07-08T08:04:32Z</time>
      </trkpt>
      <trkpt lat="45.54619" lon="-1.09574">
        <ele>8.79</ele>
        <time>2016-07-08T08:04:39Z</time>
      </trkpt>
      <trkpt lat="45.54629" lon="-1.09553">
        <ele>9.27</ele>
        <time>2016-07-08T08:04:48Z</time>
      </trkpt>
      <trkpt lat="45.54631" lon="-1.09543">
        <ele>9.27</ele>
        <time>2016-07-08T08:04:53Z</time>
      </trkpt>
      <trkpt lat="45.54634" lon="-1.09532">
        <ele>9.27</ele>
        <time>2016-07-08T08:05:04Z</time>
      </trkpt>
      <trkpt lat="45.54634" lon="-1.09529">
        <ele>9.27</ele>
        <time>2016-07-08T08:05:13Z</time>
      </trkpt>
      <trkpt lat="45.54632" lon="-1.0953">
        <ele>9.27</ele>
        <time>2016-07-08T08:05:15Z</time>
      </trkpt>
      <trkpt lat="45.54631" lon="-1.0953">
        <ele>9.27</ele>
        <time>2016-07-08T08:05:17Z</time>
      </trkpt>
      <trkpt lat="45.54626" lon="-1.09532">
        <ele>9.27</ele>
        <time>2016-07-08T08:05:28Z</time>
      </trkpt>
      <trkpt lat="45.54632" lon="-1.09535">
        <ele>9.27</ele>
        <time>2016-07-08T08:05:34Z</time>
      </trkpt>
      <trkpt lat="45.54638" lon="-1.09537">
        <ele>9.27</ele>
        <time>2016-07-08T08:05:45Z</time>
      </trkpt>
      <trkpt lat="45.5464" lon="-1.09537">
        <ele>9.27</ele>
        <time>2016-07-08T08:05:59Z</time>
      </trkpt>
      <trkpt lat="45.54642" lon="-1.09538">
        <ele>9.27</ele>
        <time>2016-07-08T08:06:18Z</time>
      </trkpt>
      <trkpt lat="45.54643" lon="-1.09537">
        <ele>9.27</ele>
        <time>2016-07-08T08:06:36Z</time>
      </trkpt>
      <trkpt lat="45.54646" lon="-1.0954">
        <ele>10.23</ele>
        <time>2016-07-08T08:06:53Z</time>
      </trkpt>
      <trkpt lat="45.5465" lon="-1.09542">
        <ele>12.15</ele>
        <time>2016-07-08T08:07:05Z</time>
      </trkpt>
      <trkpt lat="45.54664" lon="-1.0954">
        <ele>13.6</ele>
        <time>2016-07-08T08:07:20Z</time>
      </trkpt>
      <trkpt lat="45.54671" lon="-1.09541">
        <ele>12.63</ele>
        <time>2016-07-08T08:07:30Z</time>
      </trkpt>
      <trkpt lat="45.54672" lon="-1.09541">
        <ele>12.15</ele>
        <time>2016-07-08T08:07:31Z</time>
      </trkpt>
      <trkpt lat="45.54684" lon="-1.09542">
        <ele>10.71</ele>
        <time>2016-07-08T08:07:45Z</time>
      </trkpt>
      <trkpt lat="45.54696" lon="-1.09544">
        <ele>10.71</ele>
        <time>2016-07-08T08:07:57Z</time>
      </trkpt>
      <trkpt lat="45.54705" lon="-1.09545">
        <ele>12.15</ele>
        <time>2016-07-08T08:08:06Z</time>
      </trkpt>
      <trkpt lat="45.5472" lon="-1.09543">
        <ele>12.63</ele>
        <time>2016-07-08T08:08:19Z</time>
      </trkpt>
      <trkpt lat="45.54738" lon="-1.09544">
        <ele>12.63</ele>
        <time>2016-07-08T08:08:33Z</time>
      </trkpt>
      <trkpt lat="45.54751" lon="-1.09543">
        <ele>13.12</ele>
        <time>2016-07-08T08:08:44Z</time>
      </trkpt>
      <trkpt lat="45.54769" lon="-1.09542">
        <ele>14.08</ele>
        <time>2016-07-08T08:08:59Z</time>
      </trkpt>
      <trkpt lat="45.54779" lon="-1.0954">
        <ele>14.56</ele>
        <time>2016-07-08T08:09:09Z</time>
      </trkpt>
      <trkpt lat="45.54793" lon="-1.09534">
        <ele>15.04</ele>
        <time>2016-07-08T08:09:22Z</time>
      </trkpt>
      <trkpt lat="45.54804" lon="-1.09529">
        <ele>16.96</ele>
        <time>2016-07-08T08:09:34Z</time>
      </trkpt>
      <trkpt lat="45.54812" lon="-1.09525">
        <ele>18.4</ele>
        <time>2016-07-08T08:09:45Z</time>
      </trkpt>
      <trkpt lat="45.54816" lon="-1.09523">
        <ele>18.88</ele>
        <time>2016-07-08T08:09:48Z</time>
      </trkpt>
      <trkpt lat="45.54826" lon="-1.09516">
        <ele>19.84</ele>
        <time>2016-07-08T08:09:59Z</time>
      </trkpt>
      <trkpt lat="45.54843" lon="-1.09502">
        <ele>20.81</ele>
        <time>2016-07-08T08:10:13Z</time>
      </trkpt>
      <trkpt lat="45.54858" lon="-1.09489">
        <ele>21.29</ele>
        <time>2016-07-08T08:10:26Z</time>
      </trkpt>
      <trkpt lat="45.54871" lon="-1.09475">
        <ele>21.29</ele>
        <time>2016-07-08T08:10:40Z</time>
      </trkpt>
      <trkpt lat="45.54883" lon="-1.09464">
        <ele>19.36</ele>
        <time>2016-07-08T08:10:55Z</time>
      </trkpt>
      <trkpt lat="45.54894" lon="-1.09454">
        <ele>16.48</ele>
        <time>2016-07-08T08:11:08Z</time>
      </trkpt>
      <trkpt lat="45.54904" lon="-1.09443">
        <ele>14.56</ele>
        <time>2016-07-08T08:11:20Z</time>
      </trkpt>
      <trkpt lat="45.5491" lon="-1.09437">
        <ele>14.08</ele>
        <time>2016-07-08T08:11:25Z</time>
      </trkpt>
      <trkpt lat="45.54914" lon="-1.09433">
        <ele>14.08</ele>
        <time>2016-07-08T08:11:28Z</time>
      </trkpt>
      <trkpt lat="45.54924" lon="-1.09421">
        <ele>14.56</ele>
        <time>2016-07-08T08:11:42Z</time>
      </trkpt>
      <trkpt lat="45.54928" lon="-1.09416">
        <ele>15.52</ele>
        <time>2016-07-08T08:11:46Z</time>
      </trkpt>
      <trkpt lat="45.54939" lon="-1.09403">
        <ele>17.44</ele>
        <time>2016-07-08T08:12:00Z</time>
      </trkpt>
      <trkpt lat="45.54947" lon="-1.09391">
        <ele>18.88</ele>
        <time>2016-07-08T08:12:12Z</time>
      </trkpt>
      <trkpt lat="45.54956" lon="-1.0938">
        <ele>20.32</ele>
        <time>2016-07-08T08:12:24Z</time>
      </trkpt>
      <trkpt lat="45.54969" lon="-1.09367">
        <ele>21.77</ele>
        <time>2016-07-08T08:12:38Z</time>
      </trkpt>
      <trkpt lat="45.54974" lon="-1.09364">
        <ele>22.25</ele>
        <time>2016-07-08T08:12:42Z</time>
      </trkpt>
      <trkpt lat="45.54986" lon="-1.09354">
        <ele>20.81</ele>
        <time>2016-07-08T08:12:53Z</time>
      </trkpt>
      <trkpt lat="45.54993" lon="-1.09344">
        <ele>17.92</ele>
        <time>2016-07-08T08:13:06Z</time>
      </trkpt>
      <trkpt lat="45.55" lon="-1.09334">
        <ele>15.04</ele>
        <time>2016-07-08T08:13:19Z</time>
      </trkpt>
      <trkpt lat="45.5501" lon="-1.09325">
        <ele>13.6</ele>
        <time>2016-07-08T08:13:31Z</time>
      </trkpt>
      <trkpt lat="45.55013" lon="-1.09321">
        <ele>13.12</ele>
        <time>2016-07-08T08:13:35Z</time>
      </trkpt>
      <trkpt lat="45.55022" lon="-1.0931">
        <ele>13.12</ele>
        <time>2016-07-08T08:13:48Z</time>
      </trkpt>
      <trkpt lat="45.55029" lon="-1.09305">
        <ele>12.63</ele>
        <time>2016-07-08T08:13:56Z</time>
      </trkpt>
      <trkpt lat="45.55034" lon="-1.093">
        <ele>12.63</ele>
        <time>2016-07-08T08:14:01Z</time>
      </trkpt>
      <trkpt lat="45.55036" lon="-1.09298">
        <ele>12.15</ele>
        <time>2016-07-08T08:14:03Z</time>
      </trkpt>
      <trkpt lat="45.55041" lon="-1.09292">
        <ele>11.67</ele>
        <time>2016-07-08T08:14:09Z</time>
      </trkpt>
      <trkpt lat="45.55048" lon="-1.09273">
        <ele>11.19</ele>
        <time>2016-07-08T08:14:21Z</time>
      </trkpt>
      <trkpt lat="45.5506" lon="-1.09249">
        <ele>11.19</ele>
        <time>2016-07-08T08:14:35Z</time>
      </trkpt>
      <trkpt lat="45.55076" lon="-1.09229">
        <ele>11.67</ele>
        <time>2016-07-08T08:14:49Z</time>
      </trkpt>
      <trkpt lat="45.55077" lon="-1.09228">
        <ele>11.67</ele>
        <time>2016-07-08T08:14:50Z</time>
      </trkpt>
      <trkpt lat="45.55082" lon="-1.09224">
        <ele>11.67</ele>
        <time>2016-07-08T08:14:55Z</time>
      </trkpt>
      <trkpt lat="45.55084" lon="-1.0922">
        <ele>11.67</ele>
        <time>2016-07-08T08:14:58Z</time>
      </trkpt>
      <trkpt lat="45.55096" lon="-1.09211">
        <ele>11.19</ele>
        <time>2016-07-08T08:15:11Z</time>
      </trkpt>
      <trkpt lat="45.55098" lon="-1.0921">
        <ele>11.19</ele>
        <time>2016-07-08T08:15:12Z</time>
      </trkpt>
      <trkpt lat="45.55101" lon="-1.09206">
        <ele>11.19</ele>
        <time>2016-07-08T08:15:16Z</time>
      </trkpt>
      <trkpt lat="45.55104" lon="-1.09204">
        <ele>11.19</ele>
        <time>2016-07-08T08:15:19Z</time>
      </trkpt>
      <trkpt lat="45.5511" lon="-1.09198">
        <ele>11.19</ele>
        <time>2016-07-08T08:15:26Z</time>
      </trkpt>
      <trkpt lat="45.55118" lon="-1.09191">
        <ele>11.19</ele>
        <time>2016-07-08T08:15:34Z</time>
      </trkpt>
      <trkpt lat="45.55121" lon="-1.09189">
        <ele>11.19</ele>
        <time>2016-07-08T08:15:37Z</time>
      </trkpt>
      <trkpt lat="45.55124" lon="-1.09188">
        <ele>11.19</ele>
        <time>2016-07-08T08:15:41Z</time>
      </trkpt>
      <trkpt lat="45.55134" lon="-1.09183">
        <ele>11.19</ele>
        <time>2016-07-08T08:15:52Z</time>
      </trkpt>
      <trkpt lat="45.55136" lon="-1.09182">
        <ele>11.19</ele>
        <time>2016-07-08T08:15:54Z</time>
      </trkpt>
      <trkpt lat="45.55139" lon="-1.09184">
        <ele>11.19</ele>
        <time>2016-07-08T08:16:03Z</time>
      </trkpt>
      <trkpt lat="45.55137" lon="-1.09179">
        <ele>11.19</ele>
        <time>2016-07-08T08:16:15Z</time>
      </trkpt>
      <trkpt lat="45.55135" lon="-1.09177">
        <ele>11.19</ele>
        <time>2016-07-08T08:16:23Z</time>
      </trkpt>
      <trkpt lat="45.55137" lon="-1.09176">
        <ele>11.19</ele>
        <time>2016-07-08T08:16:35Z</time>
      </trkpt>
      <trkpt lat="45.5514" lon="-1.09178">
        <ele>11.19</ele>
        <time>2016-07-08T08:16:45Z</time>
      </trkpt>
      <trkpt lat="45.55139" lon="-1.09182">
        <ele>11.19</ele>
        <time>2016-07-08T08:16:58Z</time>
      </trkpt>
      <trkpt lat="45.55138" lon="-1.09183">
        <ele>11.19</ele>
        <time>2016-07-08T08:17:00Z</time>
      </trkpt>
      <trkpt lat="45.55136" lon="-1.09184">
        <ele>11.19</ele>
        <time>2016-07-08T08:17:09Z</time>
      </trkpt>
      <trkpt lat="45.55136" lon="-1.09184">
        <ele>11.19</ele>
        <time>2016-07-08T08:17:28Z</time>
      </trkpt>
      <trkpt lat="45.55137" lon="-1.09183">
        <ele>11.19</ele>
        <time>2016-07-08T08:17:52Z</time>
      </trkpt>
      <trkpt lat="45.55135" lon="-1.09179">
        <ele>11.19</ele>
        <time>2016-07-08T08:17:59Z</time>
      </trkpt>
      <trkpt lat="45.55134" lon="-1.09175">
        <ele>11.19</ele>
        <time>2016-07-08T08:18:03Z</time>
      </trkpt>
      <trkpt lat="45.55135" lon="-1.09174">
        <ele>10.71</ele>
        <time>2016-07-08T08:18:12Z</time>
      </trkpt>
      <trkpt lat="45.55132" lon="-1.09167">
        <ele>10.71</ele>
        <time>2016-07-08T08:18:21Z</time>
      </trkpt>
      <trkpt lat="45.55133" lon="-1.09166">
        <ele>10.71</ele>
        <time>2016-07-08T08:18:23Z</time>
      </trkpt>
      <trkpt lat="45.55134" lon="-1.09164">
        <ele>10.23</ele>
        <time>2016-07-08T08:18:26Z</time>
      </trkpt>
      <trkpt lat="45.55138" lon="-1.0916">
        <ele>10.23</ele>
        <time>2016-07-08T08:18:32Z</time>
      </trkpt>
      <trkpt lat="45.55145" lon="-1.09156">
        <ele>10.23</ele>
        <time>2016-07-08T08:18:41Z</time>
      </trkpt>
      <trkpt lat="45.55156" lon="-1.09143">
        <ele>9.75</ele>
        <time>2016-07-08T08:18:54Z</time>
      </trkpt>
      <trkpt lat="45.55161" lon="-1.09137">
        <ele>9.75</ele>
        <time>2016-07-08T08:19:00Z</time>
      </trkpt>
      <trkpt lat="45.55165" lon="-1.09131">
        <ele>9.75</ele>
        <time>2016-07-08T08:19:05Z</time>
      </trkpt>
      <trkpt lat="45.55174" lon="-1.09118">
        <ele>9.75</ele>
        <time>2016-07-08T08:19:18Z</time>
      </trkpt>
      <trkpt lat="45.55185" lon="-1.09098">
        <ele>9.75</ele>
        <time>2016-07-08T08:19:33Z</time>
      </trkpt>
      <trkpt lat="45.55194" lon="-1.09085">
        <ele>9.75</ele>
        <time>2016-07-08T08:19:44Z</time>
      </trkpt>
      <trkpt lat="45.55196" lon="-1.09081">
        <ele>10.71</ele>
        <time>2016-07-08T08:19:47Z</time>
      </trkpt>
      <trkpt lat="45.55199" lon="-1.09077">
        <ele>11.19</ele>
        <time>2016-07-08T08:19:51Z</time>
      </trkpt>
      <trkpt lat="45.55204" lon="-1.09073">
        <ele>11.19</ele>
        <time>2016-07-08T08:19:56Z</time>
      </trkpt>
      <trkpt lat="45.55208" lon="-1.09072">
        <ele>11.67</ele>
        <time>2016-07-08T08:20:13Z</time>
      </trkpt>
      <trkpt lat="45.55214" lon="-1.09079">
        <ele>11.67</ele>
        <time>2016-07-08T08:20:23Z</time>
      </trkpt>
      <trkpt lat="45.55216" lon="-1.09083">
        <ele>11.67</ele>
        <time>2016-07-08T08:20:27Z</time>
      </trkpt>
      <trkpt lat="45.55226" lon="-1.09094">
        <ele>12.15</ele>
        <time>2016-07-08T08:20:40Z</time>
      </trkpt>
      <trkpt lat="45.55237" lon="-1.09097">
        <ele>12.15</ele>
        <time>2016-07-08T08:20:52Z</time>
      </trkpt>
      <trkpt lat="45.55248" lon="-1.09104">
        <ele>12.63</ele>
        <time>2016-07-08T08:21:05Z</time>
      </trkpt>
      <trkpt lat="45.55261" lon="-1.0911">
        <ele>12.63</ele>
        <time>2016-07-08T08:21:19Z</time>
      </trkpt>
      <trkpt lat="45.55262" lon="-1.09111">
        <ele>12.63</ele>
        <time>2016-07-08T08:21:20Z</time>
      </trkpt>
      <trkpt lat="45.55267" lon="-1.09114">
        <ele>12.63</ele>
        <time>2016-07-08T08:21:25Z</time>
      </trkpt>
      <trkpt lat="45.55276" lon="-1.09121">
        <ele>13.12</ele>
        <time>2016-07-08T08:21:37Z</time>
      </trkpt>
      <trkpt lat="45.55288" lon="-1.09124">
        <ele>13.12</ele>
        <time>2016-07-08T08:21:45Z</time>
      </trkpt>
      <trkpt lat="45.55296" lon="-1.09126">
        <ele>13.12</ele>
        <time>2016-07-08T08:21:54Z</time>
      </trkpt>
      <trkpt lat="45.55305" lon="-1.09131">
        <ele>13.12</ele>
        <time>2016-07-08T08:22:03Z</time>
      </trkpt>
      <trkpt lat="45.55317" lon="-1.09137">
        <ele>12.15</ele>
        <time>2016-07-08T08:22:15Z</time>
      </trkpt>
      <trkpt lat="45.55318" lon="-1.09138">
        <ele>12.15</ele>
        <time>2016-07-08T08:22:16Z</time>
      </trkpt>
      <trkpt lat="45.55333" lon="-1.09142">
        <ele>12.63</ele>
        <time>2016-07-08T08:22:29Z</time>
      </trkpt>
      <trkpt lat="45.55337" lon="-1.09148">
        <ele>12.63</ele>
        <time>2016-07-08T08:22:36Z</time>
      </trkpt>
      <trkpt lat="45.55345" lon="-1.09153">
        <ele>13.12</ele>
        <time>2016-07-08T08:22:48Z</time>
      </trkpt>
      <trkpt lat="45.55362" lon="-1.09166">
        <ele>13.12</ele>
        <time>2016-07-08T08:23:02Z</time>
      </trkpt>
      <trkpt lat="45.55387" lon="-1.09174">
        <ele>13.6</ele>
        <time>2016-07-08T08:23:15Z</time>
      </trkpt>
      <trkpt lat="45.55391" lon="-1.09177">
        <ele>13.6</ele>
        <time>2016-07-08T08:23:19Z</time>
      </trkpt>
      <trkpt lat="45.55407" lon="-1.09193">
        <ele>15.04</ele>
        <time>2016-07-08T08:23:33Z</time>
      </trkpt>
      <trkpt lat="45.55408" lon="-1.09196">
        <ele>15.04</ele>
        <time>2016-07-08T08:23:35Z</time>
      </trkpt>
      <trkpt lat="45.55412" lon="-1.092">
        <ele>15.04</ele>
        <time>2016-07-08T08:23:38Z</time>
      </trkpt>
      <trkpt lat="45.55425" lon="-1.09214">
        <ele>15.04</ele>
        <time>2016-07-08T08:23:45Z</time>
      </trkpt>
      <trkpt lat="45.55437" lon="-1.0923">
        <ele>15.52</ele>
        <time>2016-07-08T08:23:57Z</time>
      </trkpt>
      <trkpt lat="45.55448" lon="-1.09249">
        <ele>15.52</ele>
        <time>2016-07-08T08:24:11Z</time>
      </trkpt>
      <trkpt lat="45.55456" lon="-1.09261">
        <ele>14.08</ele>
        <time>2016-07-08T08:24:25Z</time>
      </trkpt>
      <trkpt lat="45.55457" lon="-1.09262">
        <ele>14.08</ele>
        <time>2016-07-08T08:24:26Z</time>
      </trkpt>
      <trkpt lat="45.55461" lon="-1.09266">
        <ele>14.08</ele>
        <time>2016-07-08T08:24:38Z</time>
      </trkpt>
      <trkpt lat="45.55466" lon="-1.09269">
        <ele>14.08</ele>
        <time>2016-07-08T08:24:52Z</time>
      </trkpt>
      <trkpt lat="45.55464" lon="-1.09267">
        <ele>14.08</ele>
        <time>2016-07-08T08:25:02Z</time>
      </trkpt>
      <trkpt lat="45.55463" lon="-1.09264">
        <ele>14.08</ele>
        <time>2016-07-08T08:25:11Z</time>
      </trkpt>
      <trkpt lat="45.55464" lon="-1.09266">
        <ele>14.08</ele>
        <time>2016-07-08T08:25:22Z</time>
      </trkpt>
      <trkpt lat="45.55463" lon="-1.09266">
        <ele>14.08</ele>
        <time>2016-07-08T08:25:33Z</time>
      </trkpt>
      <trkpt lat="45.55463" lon="-1.09266">
        <ele>14.56</ele>
        <time>2016-07-08T08:25:47Z</time>
      </trkpt>
      <trkpt lat="45.55464" lon="-1.09265">
        <ele>14.08</ele>
        <time>2016-07-08T08:26:06Z</time>
      </trkpt>
      <trkpt lat="45.55464" lon="-1.09263">
        <ele>14.08</ele>
        <time>2016-07-08T08:26:29Z</time>
      </trkpt>
      <trkpt lat="45.55464" lon="-1.09265">
        <ele>14.08</ele>
        <time>2016-07-08T08:26:56Z</time>
      </trkpt>
      <trkpt lat="45.55464" lon="-1.09267">
        <ele>14.08</ele>
        <time>2016-07-08T08:27:11Z</time>
      </trkpt>
      <trkpt lat="45.55466" lon="-1.09267">
        <ele>14.56</ele>
        <time>2016-07-08T08:27:39Z</time>
      </trkpt>
      <trkpt lat="45.55464" lon="-1.09273">
        <ele>14.56</ele>
        <time>2016-07-08T08:28:10Z</time>
      </trkpt>
      <trkpt lat="45.55464" lon="-1.09272">
        <ele>14.56</ele>
        <time>2016-07-08T08:28:38Z</time>
      </trkpt>
      <trkpt lat="45.55467" lon="-1.09266">
        <ele>14.56</ele>
        <time>2016-07-08T08:29:17Z</time>
      </trkpt>
      <trkpt lat="45.55468" lon="-1.09267">
        <ele>14.56</ele>
        <time>2016-07-08T08:29:49Z</time>
      </trkpt>
      <trkpt lat="45.55468" lon="-1.0927">
        <ele>14.56</ele>
        <time>2016-07-08T08:30:17Z</time>
      </trkpt>
      <trkpt lat="45.55471" lon="-1.0927">
        <ele>15.04</ele>
        <time>2016-07-08T08:30:39Z</time>
      </trkpt>
      <trkpt lat="45.55468" lon="-1.09266">
        <ele>14.56</ele>
        <time>2016-07-08T08:31:06Z</time>
      </trkpt>
      <trkpt lat="45.55472" lon="-1.0927">
        <ele>14.56</ele>
        <time>2016-07-08T08:31:33Z</time>
      </trkpt>
      <trkpt lat="45.55471" lon="-1.0927">
        <ele>16.48</ele>
        <time>2016-07-08T08:31:43Z</time>
      </trkpt>
      <trkpt lat="45.55471" lon="-1.09269">
        <ele>13.6</ele>
        <time>2016-07-08T08:31:45Z</time>
      </trkpt>
      <trkpt lat="45.55471" lon="-1.09269">
        <ele>13.6</ele>
        <time>2016-07-08T08:31:46Z</time>
      </trkpt>
      <trkpt lat="45.55468" lon="-1.09267">
        <ele>15.04</ele>
        <time>2016-07-08T08:31:50Z</time>
      </trkpt>
      <trkpt lat="45.55468" lon="-1.09267">
        <ele>10.71</ele>
        <time>2016-07-08T08:31:51Z</time>
      </trkpt>
      <trkpt lat="45.55468" lon="-1.09267">
        <ele>13.6</ele>
        <time>2016-07-08T08:31:52Z</time>
      </trkpt>
      <trkpt lat="45.55471" lon="-1.09268">
        <ele>14.56</ele>
        <time>2016-07-08T08:32:18Z</time>
      </trkpt>
      <trkpt lat="45.55466" lon="-1.09267">
        <ele>14.08</ele>
        <time>2016-07-08T08:32:42Z</time>
      </trkpt>
      <trkpt lat="45.55466" lon="-1.09268">
        <ele>14.08</ele>
        <time>2016-07-08T08:33:11Z</time>
      </trkpt>
      <trkpt lat="45.55468" lon="-1.09267">
        <ele>14.08</ele>
        <time>2016-07-08T08:33:43Z</time>
      </trkpt>
      <trkpt lat="45.5547" lon="-1.09267">
        <ele>14.08</ele>
        <time>2016-07-08T08:34:20Z</time>
      </trkpt>
      <trkpt lat="45.55465" lon="-1.09267">
        <ele>12.63</ele>
        <time>2016-07-08T08:34:40Z</time>
      </trkpt>
      <trkpt lat="45.55464" lon="-1.09266">
        <ele>12.63</ele>
        <time>2016-07-08T08:35:07Z</time>
      </trkpt>
      <trkpt lat="45.55463" lon="-1.09264">
        <ele>14.08</ele>
        <time>2016-07-08T08:35:22Z</time>
      </trkpt>
      <trkpt lat="45.55464" lon="-1.09263">
        <ele>14.08</ele>
        <time>2016-07-08T08:35:39Z</time>
      </trkpt>
      <trkpt lat="45.55464" lon="-1.09265">
        <ele>14.08</ele>
        <time>2016-07-08T08:35:58Z</time>
      </trkpt>
      <trkpt lat="45.55464" lon="-1.09264">
        <ele>14.08</ele>
        <time>2016-07-08T08:36:15Z</time>
      </trkpt>
      <trkpt lat="45.55467" lon="-1.0927">
        <ele>13.6</ele>
        <time>2016-07-08T08:36:26Z</time>
      </trkpt>
      <trkpt lat="45.55472" lon="-1.09273">
        <ele>13.6</ele>
        <time>2016-07-08T08:36:37Z</time>
      </trkpt>
      <trkpt lat="45.55474" lon="-1.09275">
        <ele>13.6</ele>
        <time>2016-07-08T08:36:40Z</time>
      </trkpt>
      <trkpt lat="45.55477" lon="-1.09276">
        <ele>13.6</ele>
        <time>2016-07-08T08:36:44Z</time>
      </trkpt>
      <trkpt lat="45.55482" lon="-1.09275">
        <ele>14.56</ele>
        <time>2016-07-08T08:36:55Z</time>
      </trkpt>
      <trkpt lat="45.55485" lon="-1.09277">
        <ele>15.52</ele>
        <time>2016-07-08T08:37:01Z</time>
      </trkpt>
      <trkpt lat="45.55489" lon="-1.09277">
        <ele>16</ele>
        <time>2016-07-08T08:37:04Z</time>
      </trkpt>
      <trkpt lat="45.55498" lon="-1.09283">
        <ele>16</ele>
        <time>2016-07-08T08:37:17Z</time>
      </trkpt>
      <trkpt lat="45.55503" lon="-1.09285">
        <ele>16.96</ele>
        <time>2016-07-08T08:37:23Z</time>
      </trkpt>
      <trkpt lat="45.55519" lon="-1.09292">
        <ele>16</ele>
        <time>2016-07-08T08:37:40Z</time>
      </trkpt>
      <trkpt lat="45.55535" lon="-1.09296">
        <ele>13.12</ele>
        <time>2016-07-08T08:37:54Z</time>
      </trkpt>
      <trkpt lat="45.55542" lon="-1.09292">
        <ele>14.56</ele>
        <time>2016-07-08T08:38:03Z</time>
      </trkpt>
      <trkpt lat="45.55547" lon="-1.09288">
        <ele>15.52</ele>
        <time>2016-07-08T08:38:09Z</time>
      </trkpt>
      <trkpt lat="45.5556" lon="-1.0928">
        <ele>15.04</ele>
        <time>2016-07-08T08:38:22Z</time>
      </trkpt>
      <trkpt lat="45.55561" lon="-1.0928">
        <ele>15.04</ele>
        <time>2016-07-08T08:38:23Z</time>
      </trkpt>
      <trkpt lat="45.55568" lon="-1.09277">
        <ele>13.12</ele>
        <time>2016-07-08T08:38:30Z</time>
      </trkpt>
      <trkpt lat="45.55571" lon="-1.09276">
        <ele>12.63</ele>
        <time>2016-07-08T08:38:33Z</time>
      </trkpt>
      <trkpt lat="45.55579" lon="-1.09268">
        <ele>11.67</ele>
        <time>2016-07-08T08:38:44Z</time>
      </trkpt>
      <trkpt lat="45.55586" lon="-1.09262">
        <ele>13.12</ele>
        <time>2016-07-08T08:38:52Z</time>
      </trkpt>
      <trkpt lat="45.55588" lon="-1.0926">
        <ele>13.12</ele>
        <time>2016-07-08T08:38:57Z</time>
      </trkpt>
      <trkpt lat="45.55594" lon="-1.09258">
        <ele>13.12</ele>
        <time>2016-07-08T08:39:05Z</time>
      </trkpt>
      <trkpt lat="45.55597" lon="-1.09255">
        <ele>13.12</ele>
        <time>2016-07-08T08:39:09Z</time>
      </trkpt>
      <trkpt lat="45.55596" lon="-1.0925">
        <ele>13.12</ele>
        <time>2016-07-08T08:39:13Z</time>
      </trkpt>
      <trkpt lat="45.55593" lon="-1.09238">
        <ele>13.12</ele>
        <time>2016-07-08T08:39:21Z</time>
      </trkpt>
      <trkpt lat="45.55587" lon="-1.09224">
        <ele>13.12</ele>
        <time>2016-07-08T08:39:33Z</time>
      </trkpt>
      <trkpt lat="45.55582" lon="-1.09214">
        <ele>13.12</ele>
        <time>2016-07-08T08:39:44Z</time>
      </trkpt>
      <trkpt lat="45.55581" lon="-1.09213">
        <ele>13.12</ele>
        <time>2016-07-08T08:39:51Z</time>
      </trkpt>
      <trkpt lat="45.55574" lon="-1.09209">
        <ele>12.15</ele>
        <time>2016-07-08T08:40:03Z</time>
      </trkpt>
      <trkpt lat="45.55573" lon="-1.09207">
        <ele>12.15</ele>
        <time>2016-07-08T08:40:14Z</time>
      </trkpt>
      <trkpt lat="45.55573" lon="-1.09206">
        <ele>12.15</ele>
        <time>2016-07-08T08:40:20Z</time>
      </trkpt>
      <trkpt lat="45.55571" lon="-1.09198">
        <ele>12.15</ele>
        <time>2016-07-08T08:40:28Z</time>
      </trkpt>
      <trkpt lat="45.5557" lon="-1.09192">
        <ele>12.15</ele>
        <time>2016-07-08T08:40:35Z</time>
      </trkpt>
      <trkpt lat="45.55574" lon="-1.09184">
        <ele>12.15</ele>
        <time>2016-07-08T08:40:40Z</time>
      </trkpt>
      <trkpt lat="45.55585" lon="-1.09173">
        <ele>12.15</ele>
        <time>2016-07-08T08:40:54Z</time>
      </trkpt>
      <trkpt lat="45.5559" lon="-1.09167">
        <ele>13.6</ele>
        <time>2016-07-08T08:40:59Z</time>
      </trkpt>
      <trkpt lat="45.55591" lon="-1.09165">
        <ele>14.08</ele>
        <time>2016-07-08T08:41:02Z</time>
      </trkpt>
      <trkpt lat="45.55593" lon="-1.09162">
        <ele>14.56</ele>
        <time>2016-07-08T08:41:05Z</time>
      </trkpt>
      <trkpt lat="45.55604" lon="-1.09149">
        <ele>16</ele>
        <time>2016-07-08T08:41:17Z</time>
      </trkpt>
      <trkpt lat="45.55613" lon="-1.09136">
        <ele>17.92</ele>
        <time>2016-07-08T08:41:30Z</time>
      </trkpt>
      <trkpt lat="45.55624" lon="-1.09124">
        <ele>18.4</ele>
        <time>2016-07-08T08:41:41Z</time>
      </trkpt>
      <trkpt lat="45.55631" lon="-1.09115">
        <ele>18.88</ele>
        <time>2016-07-08T08:41:49Z</time>
      </trkpt>
      <trkpt lat="45.55638" lon="-1.09106">
        <ele>20.32</ele>
        <time>2016-07-08T08:41:58Z</time>
      </trkpt>
      <trkpt lat="45.55644" lon="-1.09095">
        <ele>21.77</ele>
        <time>2016-07-08T08:42:12Z</time>
      </trkpt>
      <trkpt lat="45.55645" lon="-1.09094">
        <ele>21.77</ele>
        <time>2016-07-08T08:42:15Z</time>
      </trkpt>
      <trkpt lat="45.55648" lon="-1.09091">
        <ele>21.77</ele>
        <time>2016-07-08T08:42:18Z</time>
      </trkpt>
      <trkpt lat="45.55652" lon="-1.09088">
        <ele>21.77</ele>
        <time>2016-07-08T08:42:21Z</time>
      </trkpt>
      <trkpt lat="45.55655" lon="-1.09083">
        <ele>22.25</ele>
        <time>2016-07-08T08:42:25Z</time>
      </trkpt>
      <trkpt lat="45.55659" lon="-1.09078">
        <ele>22.25</ele>
        <time>2016-07-08T08:42:29Z</time>
      </trkpt>
      <trkpt lat="45.55662" lon="-1.09072">
        <ele>22.73</ele>
        <time>2016-07-08T08:42:34Z</time>
      </trkpt>
      <trkpt lat="45.55674" lon="-1.09049">
        <ele>23.69</ele>
        <time>2016-07-08T08:42:51Z</time>
      </trkpt>
      <trkpt lat="45.55678" lon="-1.09041">
        <ele>24.17</ele>
        <time>2016-07-08T08:42:57Z</time>
      </trkpt>
      <trkpt lat="45.55684" lon="-1.09037">
        <ele>24.17</ele>
        <time>2016-07-08T08:43:02Z</time>
      </trkpt>
      <trkpt lat="45.55688" lon="-1.09034">
        <ele>23.69</ele>
        <time>2016-07-08T08:43:07Z</time>
      </trkpt>
      <trkpt lat="45.5569" lon="-1.09032">
        <ele>23.69</ele>
        <time>2016-07-08T08:43:18Z</time>
      </trkpt>
      <trkpt lat="45.55693" lon="-1.09029">
        <ele>23.69</ele>
        <time>2016-07-08T08:43:33Z</time>
      </trkpt>
      <trkpt lat="45.55694" lon="-1.0903">
        <ele>23.69</ele>
        <time>2016-07-08T08:43:58Z</time>
      </trkpt>
      <trkpt lat="45.55701" lon="-1.09024">
        <ele>22.25</ele>
        <time>2016-07-08T08:44:05Z</time>
      </trkpt>
      <trkpt lat="45.5571" lon="-1.09014">
        <ele>20.32</ele>
        <time>2016-07-08T08:44:16Z</time>
      </trkpt>
      <trkpt lat="45.55718" lon="-1.09001">
        <ele>17.92</ele>
        <time>2016-07-08T08:44:28Z</time>
      </trkpt>
      <trkpt lat="45.55729" lon="-1.08987">
        <ele>17.92</ele>
        <time>2016-07-08T08:44:41Z</time>
      </trkpt>
      <trkpt lat="45.55744" lon="-1.08973">
        <ele>17.92</ele>
        <time>2016-07-08T08:44:54Z</time>
      </trkpt>
      <trkpt lat="45.55748" lon="-1.08969">
        <ele>17.92</ele>
        <time>2016-07-08T08:44:57Z</time>
      </trkpt>
      <trkpt lat="45.55749" lon="-1.08967">
        <ele>17.92</ele>
        <time>2016-07-08T08:44:59Z</time>
      </trkpt>
      <trkpt lat="45.55759" lon="-1.08956">
        <ele>17.92</ele>
        <time>2016-07-08T08:45:10Z</time>
      </trkpt>
      <trkpt lat="45.55763" lon="-1.08953">
        <ele>17.92</ele>
        <time>2016-07-08T08:45:14Z</time>
      </trkpt>
      <trkpt lat="45.55774" lon="-1.08934">
        <ele>17.92</ele>
        <time>2016-07-08T08:45:29Z</time>
      </trkpt>
      <trkpt lat="45.55784" lon="-1.08922">
        <ele>17.44</ele>
        <time>2016-07-08T08:45:40Z</time>
      </trkpt>
      <trkpt lat="45.55796" lon="-1.08909">
        <ele>16</ele>
        <time>2016-07-08T08:45:51Z</time>
      </trkpt>
      <trkpt lat="45.55807" lon="-1.08891">
        <ele>15.04</ele>
        <time>2016-07-08T08:46:06Z</time>
      </trkpt>
      <trkpt lat="45.5581" lon="-1.08887">
        <ele>15.04</ele>
        <time>2016-07-08T08:46:16Z</time>
      </trkpt>
      <trkpt lat="45.55818" lon="-1.08881">
        <ele>15.04</ele>
        <time>2016-07-08T08:46:26Z</time>
      </trkpt>
      <trkpt lat="45.55827" lon="-1.08866">
        <ele>15.04</ele>
        <time>2016-07-08T08:46:41Z</time>
      </trkpt>
      <trkpt lat="45.55832" lon="-1.08856">
        <ele>15.04</ele>
        <time>2016-07-08T08:46:47Z</time>
      </trkpt>
      <trkpt lat="45.55844" lon="-1.08841">
        <ele>15.04</ele>
        <time>2016-07-08T08:46:58Z</time>
      </trkpt>
      <trkpt lat="45.55845" lon="-1.0884">
        <ele>15.04</ele>
        <time>2016-07-08T08:46:59Z</time>
      </trkpt>
      <trkpt lat="45.55847" lon="-1.08837">
        <ele>15.04</ele>
        <time>2016-07-08T08:47:01Z</time>
      </trkpt>
      <trkpt lat="45.55856" lon="-1.08825">
        <ele>15.04</ele>
        <time>2016-07-08T08:47:09Z</time>
      </trkpt>
      <trkpt lat="45.55859" lon="-1.0882">
        <ele>15.04</ele>
        <time>2016-07-08T08:47:13Z</time>
      </trkpt>
      <trkpt lat="45.55871" lon="-1.08803">
        <ele>15.04</ele>
        <time>2016-07-08T08:47:28Z</time>
      </trkpt>
      <trkpt lat="45.55877" lon="-1.08793">
        <ele>15.04</ele>
        <time>2016-07-08T08:47:37Z</time>
      </trkpt>
      <trkpt lat="45.5588" lon="-1.0879">
        <ele>15.04</ele>
        <time>2016-07-08T08:47:40Z</time>
      </trkpt>
      <trkpt lat="45.55881" lon="-1.08787">
        <ele>15.04</ele>
        <time>2016-07-08T08:47:43Z</time>
      </trkpt>
      <trkpt lat="45.55883" lon="-1.08784">
        <ele>15.04</ele>
        <time>2016-07-08T08:47:45Z</time>
      </trkpt>
      <trkpt lat="45.55886" lon="-1.0878">
        <ele>15.04</ele>
        <time>2016-07-08T08:47:48Z</time>
      </trkpt>
      <trkpt lat="45.5589" lon="-1.08766">
        <ele>14.56</ele>
        <time>2016-07-08T08:48:00Z</time>
      </trkpt>
      <trkpt lat="45.55894" lon="-1.08753">
        <ele>14.08</ele>
        <time>2016-07-08T08:48:10Z</time>
      </trkpt>
      <trkpt lat="45.55894" lon="-1.08752">
        <ele>14.08</ele>
        <time>2016-07-08T08:48:11Z</time>
      </trkpt>
      <trkpt lat="45.55901" lon="-1.08745">
        <ele>14.08</ele>
        <time>2016-07-08T08:48:17Z</time>
      </trkpt>
      <trkpt lat="45.55905" lon="-1.08738">
        <ele>14.56</ele>
        <time>2016-07-08T08:48:24Z</time>
      </trkpt>
      <trkpt lat="45.55909" lon="-1.0873">
        <ele>14.56</ele>
        <time>2016-07-08T08:48:29Z</time>
      </trkpt>
      <trkpt lat="45.5592" lon="-1.08715">
        <ele>14.56</ele>
        <time>2016-07-08T08:48:42Z</time>
      </trkpt>
      <trkpt lat="45.55921" lon="-1.08712">
        <ele>14.56</ele>
        <time>2016-07-08T08:48:50Z</time>
      </trkpt>
      <trkpt lat="45.55922" lon="-1.08711">
        <ele>16</ele>
        <time>2016-07-08T08:48:54Z</time>
      </trkpt>
      <trkpt lat="45.55926" lon="-1.0871">
        <ele>16.96</ele>
        <time>2016-07-08T08:49:10Z</time>
      </trkpt>
      <trkpt lat="45.55933" lon="-1.08707">
        <ele>16</ele>
        <time>2016-07-08T08:49:38Z</time>
      </trkpt>
      <trkpt lat="45.55936" lon="-1.08687">
        <ele>17.44</ele>
        <time>2016-07-08T08:49:54Z</time>
      </trkpt>
      <trkpt lat="45.55933" lon="-1.08681">
        <ele>17.44</ele>
        <time>2016-07-08T08:49:58Z</time>
      </trkpt>
      <trkpt lat="45.55926" lon="-1.08667">
        <ele>17.44</ele>
        <time>2016-07-08T08:50:07Z</time>
      </trkpt>
      <trkpt lat="45.55918" lon="-1.08656">
        <ele>17.44</ele>
        <time>2016-07-08T08:50:16Z</time>
      </trkpt>
      <trkpt lat="45.55908" lon="-1.08634">
        <ele>17.44</ele>
        <time>2016-07-08T08:50:32Z</time>
      </trkpt>
      <trkpt lat="45.55901" lon="-1.08621">
        <ele>16</ele>
        <time>2016-07-08T08:50:41Z</time>
      </trkpt>
      <trkpt lat="45.55896" lon="-1.08599">
        <ele>16</ele>
        <time>2016-07-08T08:50:57Z</time>
      </trkpt>
      <trkpt lat="45.55895" lon="-1.08576">
        <ele>15.04</ele>
        <time>2016-07-08T08:51:09Z</time>
      </trkpt>
      <trkpt lat="45.55896" lon="-1.08571">
        <ele>15.04</ele>
        <time>2016-07-08T08:51:13Z</time>
      </trkpt>
      <trkpt lat="45.55899" lon="-1.08558">
        <ele>14.56</ele>
        <time>2016-07-08T08:51:19Z</time>
      </trkpt>
      <trkpt lat="45.55893" lon="-1.08535">
        <ele>14.56</ele>
        <time>2016-07-08T08:51:32Z</time>
      </trkpt>
      <trkpt lat="45.55886" lon="-1.08518">
        <ele>14.08</ele>
        <time>2016-07-08T08:51:44Z</time>
      </trkpt>
      <trkpt lat="45.55884" lon="-1.08508">
        <ele>14.08</ele>
        <time>2016-07-08T08:51:51Z</time>
      </trkpt>
      <trkpt lat="45.55876" lon="-1.08486">
        <ele>14.08</ele>
        <time>2016-07-08T08:52:04Z</time>
      </trkpt>
      <trkpt lat="45.5587" lon="-1.08467">
        <ele>14.08</ele>
        <time>2016-07-08T08:52:16Z</time>
      </trkpt>
      <trkpt lat="45.55871" lon="-1.08457">
        <ele>14.08</ele>
        <time>2016-07-08T08:52:27Z</time>
      </trkpt>
      <trkpt lat="45.55871" lon="-1.08463">
        <ele>14.08</ele>
        <time>2016-07-08T08:52:36Z</time>
      </trkpt>
      <trkpt lat="45.55876" lon="-1.08469">
        <ele>14.08</ele>
        <time>2016-07-08T08:52:45Z</time>
      </trkpt>
      <trkpt lat="45.55878" lon="-1.08472">
        <ele>14.08</ele>
        <time>2016-07-08T08:52:56Z</time>
      </trkpt>
      <trkpt lat="45.55879" lon="-1.08476">
        <ele>14.08</ele>
        <time>2016-07-08T08:52:58Z</time>
      </trkpt>
      <trkpt lat="45.5589" lon="-1.08495">
        <ele>14.56</ele>
        <time>2016-07-08T08:53:12Z</time>
      </trkpt>
      <trkpt lat="45.55892" lon="-1.08499">
        <ele>14.56</ele>
        <time>2016-07-08T08:53:15Z</time>
      </trkpt>
      <trkpt lat="45.55897" lon="-1.08524">
        <ele>14.56</ele>
        <time>2016-07-08T08:53:27Z</time>
      </trkpt>
      <trkpt lat="45.559" lon="-1.08532">
        <ele>14.56</ele>
        <time>2016-07-08T08:53:32Z</time>
      </trkpt>
      <trkpt lat="45.55903" lon="-1.08545">
        <ele>14.56</ele>
        <time>2016-07-08T08:53:41Z</time>
      </trkpt>
      <trkpt lat="45.559" lon="-1.08566">
        <ele>14.56</ele>
        <time>2016-07-08T08:53:55Z</time>
      </trkpt>
      <trkpt lat="45.559" lon="-1.08569">
        <ele>14.56</ele>
        <time>2016-07-08T08:53:57Z</time>
      </trkpt>
      <trkpt lat="45.55898" lon="-1.08576">
        <ele>14.56</ele>
        <time>2016-07-08T08:54:01Z</time>
      </trkpt>
      <trkpt lat="45.55898" lon="-1.08597">
        <ele>15.04</ele>
        <time>2016-07-08T08:54:13Z</time>
      </trkpt>
      <trkpt lat="45.559" lon="-1.08616">
        <ele>15.52</ele>
        <time>2016-07-08T08:54:25Z</time>
      </trkpt>
      <trkpt lat="45.55901" lon="-1.08626">
        <ele>15.52</ele>
        <time>2016-07-08T08:54:32Z</time>
      </trkpt>
      <trkpt lat="45.55904" lon="-1.08631">
        <ele>15.52</ele>
        <time>2016-07-08T08:54:35Z</time>
      </trkpt>
      <trkpt lat="45.55907" lon="-1.08635">
        <ele>15.52</ele>
        <time>2016-07-08T08:54:38Z</time>
      </trkpt>
      <trkpt lat="45.55911" lon="-1.08644">
        <ele>15.52</ele>
        <time>2016-07-08T08:54:44Z</time>
      </trkpt>
      <trkpt lat="45.55912" lon="-1.08648">
        <ele>15.52</ele>
        <time>2016-07-08T08:54:47Z</time>
      </trkpt>
      <trkpt lat="45.55918" lon="-1.08669">
        <ele>16</ele>
        <time>2016-07-08T08:55:01Z</time>
      </trkpt>
      <trkpt lat="45.55923" lon="-1.08677">
        <ele>16</ele>
        <time>2016-07-08T08:55:07Z</time>
      </trkpt>
      <trkpt lat="45.5593" lon="-1.08691">
        <ele>16</ele>
        <time>2016-07-08T08:55:17Z</time>
      </trkpt>
      <trkpt lat="45.55939" lon="-1.08687">
        <ele>16</ele>
        <time>2016-07-08T08:55:28Z</time>
      </trkpt>
      <trkpt lat="45.5595" lon="-1.08676">
        <ele>16</ele>
        <time>2016-07-08T08:55:41Z</time>
      </trkpt>
      <trkpt lat="45.55957" lon="-1.08662">
        <ele>16</ele>
        <time>2016-07-08T08:55:53Z</time>
      </trkpt>
      <trkpt lat="45.5597" lon="-1.08643">
        <ele>16</ele>
        <time>2016-07-08T08:56:09Z</time>
      </trkpt>
      <trkpt lat="45.55973" lon="-1.08638">
        <ele>16</ele>
        <time>2016-07-08T08:56:13Z</time>
      </trkpt>
      <trkpt lat="45.55978" lon="-1.08632">
        <ele>16</ele>
        <time>2016-07-08T08:56:18Z</time>
      </trkpt>
      <trkpt lat="45.55988" lon="-1.08615">
        <ele>15.52</ele>
        <time>2016-07-08T08:56:32Z</time>
      </trkpt>
      <trkpt lat="45.55999" lon="-1.08598">
        <ele>15.52</ele>
        <time>2016-07-08T08:56:45Z</time>
      </trkpt>
      <trkpt lat="45.56009" lon="-1.08585">
        <ele>15.52</ele>
        <time>2016-07-08T08:56:57Z</time>
      </trkpt>
      <trkpt lat="45.56013" lon="-1.08575">
        <ele>15.52</ele>
        <time>2016-07-08T08:57:11Z</time>
      </trkpt>
      <trkpt lat="45.56016" lon="-1.08571">
        <ele>15.52</ele>
        <time>2016-07-08T08:57:19Z</time>
      </trkpt>
      <trkpt lat="45.56018" lon="-1.08568">
        <ele>16</ele>
        <time>2016-07-08T08:57:23Z</time>
      </trkpt>
      <trkpt lat="45.56025" lon="-1.08555">
        <ele>14.08</ele>
        <time>2016-07-08T08:57:37Z</time>
      </trkpt>
      <trkpt lat="45.56033" lon="-1.08542">
        <ele>13.6</ele>
        <time>2016-07-08T08:57:49Z</time>
      </trkpt>
      <trkpt lat="45.56042" lon="-1.0853">
        <ele>15.04</ele>
        <time>2016-07-08T08:58:01Z</time>
      </trkpt>
      <trkpt lat="45.56052" lon="-1.08514">
        <ele>15.04</ele>
        <time>2016-07-08T08:58:14Z</time>
      </trkpt>
      <trkpt lat="45.5606" lon="-1.08505">
        <ele>15.52</ele>
        <time>2016-07-08T08:58:26Z</time>
      </trkpt>
      <trkpt lat="45.56066" lon="-1.08493">
        <ele>16.48</ele>
        <time>2016-07-08T08:58:36Z</time>
      </trkpt>
      <trkpt lat="45.56068" lon="-1.08491">
        <ele>16.48</ele>
        <time>2016-07-08T08:58:38Z</time>
      </trkpt>
      <trkpt lat="45.5608" lon="-1.08473">
        <ele>16.96</ele>
        <time>2016-07-08T08:58:51Z</time>
      </trkpt>
      <trkpt lat="45.56092" lon="-1.0845">
        <ele>17.44</ele>
        <time>2016-07-08T08:59:07Z</time>
      </trkpt>
      <trkpt lat="45.56103" lon="-1.08432">
        <ele>17.44</ele>
        <time>2016-07-08T08:59:20Z</time>
      </trkpt>
      <trkpt lat="45.56126" lon="-1.08408">
        <ele>16.48</ele>
        <time>2016-07-08T08:59:33Z</time>
      </trkpt>
      <trkpt lat="45.56137" lon="-1.08386">
        <ele>15.04</ele>
        <time>2016-07-08T08:59:48Z</time>
      </trkpt>
      <trkpt lat="45.56138" lon="-1.08384">
        <ele>15.04</ele>
        <time>2016-07-08T08:59:50Z</time>
      </trkpt>
      <trkpt lat="45.56141" lon="-1.08372">
        <ele>14.08</ele>
        <time>2016-07-08T09:00:00Z</time>
      </trkpt>
      <trkpt lat="45.56146" lon="-1.08372">
        <ele>14.08</ele>
        <time>2016-07-08T09:00:06Z</time>
      </trkpt>
      <trkpt lat="45.5617" lon="-1.0837">
        <ele>14.08</ele>
        <time>2016-07-08T09:00:22Z</time>
      </trkpt>
      <trkpt lat="45.56177" lon="-1.08364">
        <ele>14.08</ele>
        <time>2016-07-08T09:00:31Z</time>
      </trkpt>
      <trkpt lat="45.56179" lon="-1.08362">
        <ele>14.08</ele>
        <time>2016-07-08T09:00:34Z</time>
      </trkpt>
      <trkpt lat="45.56189" lon="-1.0836">
        <ele>14.08</ele>
        <time>2016-07-08T09:00:47Z</time>
      </trkpt>
      <trkpt lat="45.56192" lon="-1.08363">
        <ele>15.04</ele>
        <time>2016-07-08T09:00:52Z</time>
      </trkpt>
      <trkpt lat="45.56196" lon="-1.08365">
        <ele>15.52</ele>
        <time>2016-07-08T09:00:57Z</time>
      </trkpt>
      <trkpt lat="45.56203" lon="-1.08368">
        <ele>16.96</ele>
        <time>2016-07-08T09:01:08Z</time>
      </trkpt>
      <trkpt lat="45.5621" lon="-1.08375">
        <ele>17.44</ele>
        <time>2016-07-08T09:01:22Z</time>
      </trkpt>
      <trkpt lat="45.5621" lon="-1.08375">
        <ele>17.44</ele>
        <time>2016-07-08T09:01:38Z</time>
      </trkpt>
      <trkpt lat="45.56211" lon="-1.08373">
        <ele>17.44</ele>
        <time>2016-07-08T09:01:56Z</time>
      </trkpt>
      <trkpt lat="45.56212" lon="-1.08372">
        <ele>17.44</ele>
        <time>2016-07-08T09:02:07Z</time>
      </trkpt>
      <trkpt lat="45.5621" lon="-1.08373">
        <ele>16.96</ele>
        <time>2016-07-08T09:02:17Z</time>
      </trkpt>
      <trkpt lat="45.56211" lon="-1.08375">
        <ele>16.96</ele>
        <time>2016-07-08T09:02:32Z</time>
      </trkpt>
      <trkpt lat="45.56212" lon="-1.08374">
        <ele>16.96</ele>
        <time>2016-07-08T09:02:42Z</time>
      </trkpt>
      <trkpt lat="45.56212" lon="-1.08374">
        <ele>16.96</ele>
        <time>2016-07-08T09:02:45Z</time>
      </trkpt>
      <trkpt lat="45.5621" lon="-1.08372">
        <ele>16.96</ele>
        <time>2016-07-08T09:02:58Z</time>
      </trkpt>
      <trkpt lat="45.56209" lon="-1.08372">
        <ele>16.96</ele>
        <time>2016-07-08T09:03:11Z</time>
      </trkpt>
      <trkpt lat="45.56208" lon="-1.08376">
        <ele>16.48</ele>
        <time>2016-07-08T09:03:23Z</time>
      </trkpt>
      <trkpt lat="45.56209" lon="-1.08376">
        <ele>16.48</ele>
        <time>2016-07-08T09:03:38Z</time>
      </trkpt>
      <trkpt lat="45.56211" lon="-1.08376">
        <ele>16.48</ele>
        <time>2016-07-08T09:03:53Z</time>
      </trkpt>
      <trkpt lat="45.56211" lon="-1.08378">
        <ele>16.48</ele>
        <time>2016-07-08T09:04:10Z</time>
      </trkpt>
      <trkpt lat="45.56208" lon="-1.08379">
        <ele>16.48</ele>
        <time>2016-07-08T09:04:40Z</time>
      </trkpt>
      <trkpt lat="45.56206" lon="-1.08377">
        <ele>16</ele>
        <time>2016-07-08T09:05:05Z</time>
      </trkpt>
      <trkpt lat="45.5621" lon="-1.08378">
        <ele>16</ele>
        <time>2016-07-08T09:05:22Z</time>
      </trkpt>
      <trkpt lat="45.56208" lon="-1.08382">
        <ele>16</ele>
        <time>2016-07-08T09:05:26Z</time>
      </trkpt>
      <trkpt lat="45.56206" lon="-1.08388">
        <ele>15.04</ele>
        <time>2016-07-08T09:05:37Z</time>
      </trkpt>
      <trkpt lat="45.56202" lon="-1.08393">
        <ele>13.6</ele>
        <time>2016-07-08T09:05:47Z</time>
      </trkpt>
      <trkpt lat="45.56201" lon="-1.08393">
        <ele>13.12</ele>
        <time>2016-07-08T09:05:49Z</time>
      </trkpt>
      <trkpt lat="45.56205" lon="-1.08402">
        <ele>12.63</ele>
        <time>2016-07-08T09:05:58Z</time>
      </trkpt>
      <trkpt lat="45.56205" lon="-1.08408">
        <ele>12.15</ele>
        <time>2016-07-08T09:06:06Z</time>
      </trkpt>
      <trkpt lat="45.56211" lon="-1.08409">
        <ele>11.19</ele>
        <time>2016-07-08T09:06:11Z</time>
      </trkpt>
      <trkpt lat="45.56215" lon="-1.08412">
        <ele>11.19</ele>
        <time>2016-07-08T09:06:16Z</time>
      </trkpt>
      <trkpt lat="45.56217" lon="-1.08414">
        <ele>11.19</ele>
        <time>2016-07-08T09:06:21Z</time>
      </trkpt>
      <trkpt lat="45.56224" lon="-1.08421">
        <ele>9.75</ele>
        <time>2016-07-08T09:06:30Z</time>
      </trkpt>
      <trkpt lat="45.56228" lon="-1.08425">
        <ele>9.27</ele>
        <time>2016-07-08T09:06:34Z</time>
      </trkpt>
      <trkpt lat="45.56229" lon="-1.08428">
        <ele>9.27</ele>
        <time>2016-07-08T09:06:37Z</time>
      </trkpt>
      <trkpt lat="45.5623" lon="-1.0843">
        <ele>8.79</ele>
        <time>2016-07-08T09:06:39Z</time>
      </trkpt>
      <trkpt lat="45.56237" lon="-1.08434">
        <ele>8.31</ele>
        <time>2016-07-08T09:06:45Z</time>
      </trkpt>
      <trkpt lat="45.56239" lon="-1.08434">
        <ele>8.31</ele>
        <time>2016-07-08T09:06:47Z</time>
      </trkpt>
      <trkpt lat="45.56246" lon="-1.08441">
        <ele>7.35</ele>
        <time>2016-07-08T09:06:55Z</time>
      </trkpt>
      <trkpt lat="45.56248" lon="-1.08445">
        <ele>7.35</ele>
        <time>2016-07-08T09:06:58Z</time>
      </trkpt>
      <trkpt lat="45.56256" lon="-1.0845">
        <ele>7.35</ele>
        <time>2016-07-08T09:07:05Z</time>
      </trkpt>
      <trkpt lat="45.56266" lon="-1.08459">
        <ele>6.39</ele>
        <time>2016-07-08T09:07:16Z</time>
      </trkpt>
      <trkpt lat="45.56278" lon="-1.08472">
        <ele>6.39</ele>
        <time>2016-07-08T09:07:29Z</time>
      </trkpt>
      <trkpt lat="45.5628" lon="-1.08474">
        <ele>6.39</ele>
        <time>2016-07-08T09:07:31Z</time>
      </trkpt>
      <trkpt lat="45.5628" lon="-1.08477">
        <ele>6.39</ele>
        <time>2016-07-08T09:07:33Z</time>
      </trkpt>
      <trkpt lat="45.56284" lon="-1.08481">
        <ele>5.91</ele>
        <time>2016-07-08T09:07:38Z</time>
      </trkpt>
      <trkpt lat="45.56287" lon="-1.08486">
        <ele>5.91</ele>
        <time>2016-07-08T09:07:43Z</time>
      </trkpt>
      <trkpt lat="45.56291" lon="-1.0849">
        <ele>5.91</ele>
        <time>2016-07-08T09:07:48Z</time>
      </trkpt>
      <trkpt lat="45.56293" lon="-1.08492">
        <ele>5.91</ele>
        <time>2016-07-08T09:07:50Z</time>
      </trkpt>
      <trkpt lat="45.56294" lon="-1.08494">
        <ele>5.91</ele>
        <time>2016-07-08T09:07:52Z</time>
      </trkpt>
      <trkpt lat="45.56296" lon="-1.08496">
        <ele>5.91</ele>
        <time>2016-07-08T09:07:54Z</time>
      </trkpt>
      <trkpt lat="45.56297" lon="-1.08499">
        <ele>5.91</ele>
        <time>2016-07-08T09:07:57Z</time>
      </trkpt>
      <trkpt lat="45.56299" lon="-1.085">
        <ele>5.91</ele>
        <time>2016-07-08T09:07:59Z</time>
      </trkpt>
      <trkpt lat="45.56302" lon="-1.08503">
        <ele>5.91</ele>
        <time>2016-07-08T09:08:03Z</time>
      </trkpt>
      <trkpt lat="45.56304" lon="-1.08507">
        <ele>5.91</ele>
        <time>2016-07-08T09:08:07Z</time>
      </trkpt>
      <trkpt lat="45.56307" lon="-1.08509">
        <ele>5.91</ele>
        <time>2016-07-08T09:08:10Z</time>
      </trkpt>
      <trkpt lat="45.56309" lon="-1.0851">
        <ele>5.42</ele>
        <time>2016-07-08T09:08:12Z</time>
      </trkpt>
      <trkpt lat="45.56311" lon="-1.08512">
        <ele>5.42</ele>
        <time>2016-07-08T09:08:15Z</time>
      </trkpt>
      <trkpt lat="45.56315" lon="-1.08515">
        <ele>5.42</ele>
        <time>2016-07-08T09:08:19Z</time>
      </trkpt>
      <trkpt lat="45.5632" lon="-1.08525">
        <ele>5.42</ele>
        <time>2016-07-08T09:08:26Z</time>
      </trkpt>
      <trkpt lat="45.56321" lon="-1.0853">
        <ele>5.42</ele>
        <time>2016-07-08T09:08:29Z</time>
      </trkpt>
      <trkpt lat="45.56323" lon="-1.08531">
        <ele>5.42</ele>
        <time>2016-07-08T09:08:31Z</time>
      </trkpt>
      <trkpt lat="45.56326" lon="-1.08532">
        <ele>5.42</ele>
        <time>2016-07-08T09:08:33Z</time>
      </trkpt>
      <trkpt lat="45.56334" lon="-1.08532">
        <ele>5.42</ele>
        <time>2016-07-08T09:08:39Z</time>
      </trkpt>
      <trkpt lat="45.56341" lon="-1.08533">
        <ele>5.42</ele>
        <time>2016-07-08T09:08:45Z</time>
      </trkpt>
      <trkpt lat="45.56355" lon="-1.08542">
        <ele>4.94</ele>
        <time>2016-07-08T09:08:57Z</time>
      </trkpt>
      <trkpt lat="45.56361" lon="-1.08544">
        <ele>4.94</ele>
        <time>2016-07-08T09:09:02Z</time>
      </trkpt>
      <trkpt lat="45.56369" lon="-1.08548">
        <ele>4.94</ele>
        <time>2016-07-08T09:09:09Z</time>
      </trkpt>
      <trkpt lat="45.56372" lon="-1.0855">
        <ele>4.94</ele>
        <time>2016-07-08T09:09:13Z</time>
      </trkpt>
      <trkpt lat="45.56377" lon="-1.08554">
        <ele>6.39</ele>
        <time>2016-07-08T09:09:20Z</time>
      </trkpt>
      <trkpt lat="45.56379" lon="-1.08555">
        <ele>6.87</ele>
        <time>2016-07-08T09:09:22Z</time>
      </trkpt>
      <trkpt lat="45.56381" lon="-1.08556">
        <ele>6.87</ele>
        <time>2016-07-08T09:09:24Z</time>
      </trkpt>
      <trkpt lat="45.56393" lon="-1.08562">
        <ele>6.87</ele>
        <time>2016-07-08T09:09:37Z</time>
      </trkpt>
      <trkpt lat="45.56401" lon="-1.08564">
        <ele>6.87</ele>
        <time>2016-07-08T09:09:44Z</time>
      </trkpt>
      <trkpt lat="45.56414" lon="-1.08573">
        <ele>5.91</ele>
        <time>2016-07-08T09:09:57Z</time>
      </trkpt>
      <trkpt lat="45.56415" lon="-1.08574">
        <ele>5.91</ele>
        <time>2016-07-08T09:09:58Z</time>
      </trkpt>
      <trkpt lat="45.56418" lon="-1.08576">
        <ele>5.91</ele>
        <time>2016-07-08T09:10:01Z</time>
      </trkpt>
      <trkpt lat="45.56423" lon="-1.08582">
        <ele>4.94</ele>
        <time>2016-07-08T09:10:06Z</time>
      </trkpt>
      <trkpt lat="45.56425" lon="-1.08583">
        <ele>4.94</ele>
        <time>2016-07-08T09:10:08Z</time>
      </trkpt>
      <trkpt lat="45.56427" lon="-1.08585">
        <ele>4.94</ele>
        <time>2016-07-08T09:10:10Z</time>
      </trkpt>
      <trkpt lat="45.56438" lon="-1.08597">
        <ele>4.94</ele>
        <time>2016-07-08T09:10:21Z</time>
      </trkpt>
      <trkpt lat="45.5644" lon="-1.08598">
        <ele>4.94</ele>
        <time>2016-07-08T09:10:23Z</time>
      </trkpt>
      <trkpt lat="45.56442" lon="-1.08601">
        <ele>4.94</ele>
        <time>2016-07-08T09:10:26Z</time>
      </trkpt>
      <trkpt lat="45.56453" lon="-1.08611">
        <ele>4.94</ele>
        <time>2016-07-08T09:10:38Z</time>
      </trkpt>
      <trkpt lat="45.56455" lon="-1.08611">
        <ele>4.94</ele>
        <time>2016-07-08T09:10:41Z</time>
      </trkpt>
      <trkpt lat="45.56465" lon="-1.08616">
        <ele>4.94</ele>
        <time>2016-07-08T09:10:52Z</time>
      </trkpt>
      <trkpt lat="45.56468" lon="-1.08618">
        <ele>4.94</ele>
        <time>2016-07-08T09:10:55Z</time>
      </trkpt>
      <trkpt lat="45.5647" lon="-1.08619">
        <ele>4.94</ele>
        <time>2016-07-08T09:10:58Z</time>
      </trkpt>
      <trkpt lat="45.56474" lon="-1.08622">
        <ele>4.94</ele>
        <time>2016-07-08T09:11:06Z</time>
      </trkpt>
      <trkpt lat="45.56484" lon="-1.08628">
        <ele>4.94</ele>
        <time>2016-07-08T09:11:19Z</time>
      </trkpt>
      <trkpt lat="45.56487" lon="-1.08633">
        <ele>4.94</ele>
        <time>2016-07-08T09:11:24Z</time>
      </trkpt>
      <trkpt lat="45.5649" lon="-1.08635">
        <ele>6.39</ele>
        <time>2016-07-08T09:11:27Z</time>
      </trkpt>
      <trkpt lat="45.56497" lon="-1.0864">
        <ele>7.35</ele>
        <time>2016-07-08T09:11:36Z</time>
      </trkpt>
      <trkpt lat="45.56506" lon="-1.08644">
        <ele>6.39</ele>
        <time>2016-07-08T09:11:44Z</time>
      </trkpt>
      <trkpt lat="45.56507" lon="-1.08645">
        <ele>6.39</ele>
        <time>2016-07-08T09:11:45Z</time>
      </trkpt>
      <trkpt lat="45.5651" lon="-1.08646">
        <ele>6.39</ele>
        <time>2016-07-08T09:11:57Z</time>
      </trkpt>
      <trkpt lat="45.5652" lon="-1.08652">
        <ele>6.39</ele>
        <time>2016-07-08T09:12:10Z</time>
      </trkpt>
      <trkpt lat="45.56524" lon="-1.08654">
        <ele>6.39</ele>
        <time>2016-07-08T09:12:15Z</time>
      </trkpt>
      <trkpt lat="45.56526" lon="-1.08656">
        <ele>6.39</ele>
        <time>2016-07-08T09:12:19Z</time>
      </trkpt>
      <trkpt lat="45.56528" lon="-1.08658">
        <ele>6.39</ele>
        <time>2016-07-08T09:12:21Z</time>
      </trkpt>
      <trkpt lat="45.5653" lon="-1.08658">
        <ele>6.39</ele>
        <time>2016-07-08T09:12:23Z</time>
      </trkpt>
      <trkpt lat="45.56538" lon="-1.08664">
        <ele>6.39</ele>
        <time>2016-07-08T09:12:31Z</time>
      </trkpt>
      <trkpt lat="45.56546" lon="-1.08673">
        <ele>7.83</ele>
        <time>2016-07-08T09:12:43Z</time>
      </trkpt>
      <trkpt lat="45.56551" lon="-1.08677">
        <ele>9.75</ele>
        <time>2016-07-08T09:12:56Z</time>
      </trkpt>
      <trkpt lat="45.56555" lon="-1.08678">
        <ele>10.71</ele>
        <time>2016-07-08T09:13:07Z</time>
      </trkpt>
      <trkpt lat="45.56559" lon="-1.08679">
        <ele>12.15</ele>
        <time>2016-07-08T09:13:14Z</time>
      </trkpt>
      <trkpt lat="45.56566" lon="-1.0868">
        <ele>13.12</ele>
        <time>2016-07-08T09:13:25Z</time>
      </trkpt>
      <trkpt lat="45.56568" lon="-1.08679">
        <ele>14.08</ele>
        <time>2016-07-08T09:13:38Z</time>
      </trkpt>
      <trkpt lat="45.56568" lon="-1.08679">
        <ele>14.08</ele>
        <time>2016-07-08T09:13:48Z</time>
      </trkpt>
      <trkpt lat="45.56569" lon="-1.0868">
        <ele>12.63</ele>
        <time>2016-07-08T09:13:56Z</time>
      </trkpt>
      <trkpt lat="45.5657" lon="-1.08685">
        <ele>12.15</ele>
        <time>2016-07-08T09:14:00Z</time>
      </trkpt>
      <trkpt lat="45.56574" lon="-1.08688">
        <ele>10.71</ele>
        <time>2016-07-08T09:14:05Z</time>
      </trkpt>
      <trkpt lat="45.56581" lon="-1.08693">
        <ele>8.79</ele>
        <time>2016-07-08T09:14:14Z</time>
      </trkpt>
      <trkpt lat="45.56584" lon="-1.08695">
        <ele>8.31</ele>
        <time>2016-07-08T09:14:24Z</time>
      </trkpt>
      <trkpt lat="45.56585" lon="-1.08696">
        <ele>8.31</ele>
        <time>2016-07-08T09:14:26Z</time>
      </trkpt>
      <trkpt lat="45.56591" lon="-1.08702">
        <ele>7.83</ele>
        <time>2016-07-08T09:14:35Z</time>
      </trkpt>
      <trkpt lat="45.56591" lon="-1.08702">
        <ele>7.35</ele>
        <time>2016-07-08T09:14:47Z</time>
      </trkpt>
      <trkpt lat="45.56597" lon="-1.08708">
        <ele>7.35</ele>
        <time>2016-07-08T09:14:55Z</time>
      </trkpt>
      <trkpt lat="45.566" lon="-1.08709">
        <ele>7.35</ele>
        <time>2016-07-08T09:14:58Z</time>
      </trkpt>
      <trkpt lat="45.56608" lon="-1.08718">
        <ele>6.87</ele>
        <time>2016-07-08T09:15:09Z</time>
      </trkpt>
      <trkpt lat="45.56608" lon="-1.08718">
        <ele>6.87</ele>
        <time>2016-07-08T09:15:10Z</time>
      </trkpt>
      <trkpt lat="45.56612" lon="-1.08723">
        <ele>6.87</ele>
        <time>2016-07-08T09:15:16Z</time>
      </trkpt>
      <trkpt lat="45.56615" lon="-1.08725">
        <ele>5.91</ele>
        <time>2016-07-08T09:15:22Z</time>
      </trkpt>
      <trkpt lat="45.56622" lon="-1.08729">
        <ele>5.91</ele>
        <time>2016-07-08T09:15:32Z</time>
      </trkpt>
      <trkpt lat="45.56623" lon="-1.0873">
        <ele>5.91</ele>
        <time>2016-07-08T09:15:33Z</time>
      </trkpt>
      <trkpt lat="45.56625" lon="-1.08732">
        <ele>5.91</ele>
        <time>2016-07-08T09:15:36Z</time>
      </trkpt>
      <trkpt lat="45.56631" lon="-1.08737">
        <ele>5.42</ele>
        <time>2016-07-08T09:15:48Z</time>
      </trkpt>
      <trkpt lat="45.56632" lon="-1.08737">
        <ele>6.39</ele>
        <time>2016-07-08T09:16:12Z</time>
      </trkpt>
      <trkpt lat="45.56632" lon="-1.08737">
        <ele>6.39</ele>
        <time>2016-07-08T09:16:13Z</time>
      </trkpt>
      <trkpt lat="45.5663" lon="-1.08736">
        <ele>6.39</ele>
        <time>2016-07-08T09:16:25Z</time>
      </trkpt>
      <trkpt lat="45.56628" lon="-1.08734">
        <ele>4.94</ele>
        <time>2016-07-08T09:16:34Z</time>
      </trkpt>
      <trkpt lat="45.56629" lon="-1.08736">
        <ele>4.46</ele>
        <time>2016-07-08T09:16:52Z</time>
      </trkpt>
      <trkpt lat="45.5663" lon="-1.08737">
        <ele>4.94</ele>
        <time>2016-07-08T09:16:53Z</time>
      </trkpt>
      <trkpt lat="45.56631" lon="-1.08738">
        <ele>4.94</ele>
        <time>2016-07-08T09:16:56Z</time>
      </trkpt>
      <trkpt lat="45.56635" lon="-1.08743">
        <ele>4.46</ele>
        <time>2016-07-08T09:17:03Z</time>
      </trkpt>
      <trkpt lat="45.56637" lon="-1.08746">
        <ele>4.46</ele>
        <time>2016-07-08T09:17:13Z</time>
      </trkpt>
      <trkpt lat="45.56639" lon="-1.08747">
        <ele>4.46</ele>
        <time>2016-07-08T09:17:15Z</time>
      </trkpt>
      <trkpt lat="45.56641" lon="-1.0875">
        <ele>4.46</ele>
        <time>2016-07-08T09:17:18Z</time>
      </trkpt>
      <trkpt lat="45.56645" lon="-1.08754">
        <ele>3.98</ele>
        <time>2016-07-08T09:17:28Z</time>
      </trkpt>
      <trkpt lat="45.56645" lon="-1.08756">
        <ele>3.98</ele>
        <time>2016-07-08T09:17:31Z</time>
      </trkpt>
      <trkpt lat="45.56649" lon="-1.08761">
        <ele>3.98</ele>
        <time>2016-07-08T09:17:37Z</time>
      </trkpt>
      <trkpt lat="45.56651" lon="-1.08764">
        <ele>3.98</ele>
        <time>2016-07-08T09:17:40Z</time>
      </trkpt>
      <trkpt lat="45.56652" lon="-1.08765">
        <ele>3.98</ele>
        <time>2016-07-08T09:17:48Z</time>
      </trkpt>
      <trkpt lat="45.56653" lon="-1.08768">
        <ele>4.94</ele>
        <time>2016-07-08T09:17:51Z</time>
      </trkpt>
      <trkpt lat="45.5666" lon="-1.08774">
        <ele>3.98</ele>
        <time>2016-07-08T09:18:01Z</time>
      </trkpt>
      <trkpt lat="45.5666" lon="-1.08774">
        <ele>3.98</ele>
        <time>2016-07-08T09:18:02Z</time>
      </trkpt>
      <trkpt lat="45.56666" lon="-1.08783">
        <ele>3.98</ele>
        <time>2016-07-08T09:18:11Z</time>
      </trkpt>
      <trkpt lat="45.56669" lon="-1.08787">
        <ele>3.98</ele>
        <time>2016-07-08T09:18:19Z</time>
      </trkpt>
      <trkpt lat="45.56674" lon="-1.08792">
        <ele>3.98</ele>
        <time>2016-07-08T09:18:28Z</time>
      </trkpt>
      <trkpt lat="45.56676" lon="-1.08795">
        <ele>3.98</ele>
        <time>2016-07-08T09:18:32Z</time>
      </trkpt>
      <trkpt lat="45.56676" lon="-1.08799">
        <ele>3.98</ele>
        <time>2016-07-08T09:18:35Z</time>
      </trkpt>
      <trkpt lat="45.56682" lon="-1.08809">
        <ele>3.5</ele>
        <time>2016-07-08T09:18:46Z</time>
      </trkpt>
      <trkpt lat="45.56686" lon="-1.08814">
        <ele>3.5</ele>
        <time>2016-07-08T09:18:51Z</time>
      </trkpt>
      <trkpt lat="45.56689" lon="-1.08817">
        <ele>3.5</ele>
        <time>2016-07-08T09:19:00Z</time>
      </trkpt>
      <trkpt lat="45.56691" lon="-1.08818">
        <ele>3.5</ele>
        <time>2016-07-08T09:19:03Z</time>
      </trkpt>
      <trkpt lat="45.56692" lon="-1.0882">
        <ele>3.5</ele>
        <time>2016-07-08T09:19:05Z</time>
      </trkpt>
      <trkpt lat="45.56698" lon="-1.08828">
        <ele>3.5</ele>
        <time>2016-07-08T09:19:13Z</time>
      </trkpt>
      <trkpt lat="45.56702" lon="-1.08831">
        <ele>3.5</ele>
        <time>2016-07-08T09:19:18Z</time>
      </trkpt>
      <trkpt lat="45.56711" lon="-1.0884">
        <ele>3.02</ele>
        <time>2016-07-08T09:19:30Z</time>
      </trkpt>
      <trkpt lat="45.56712" lon="-1.08841">
        <ele>3.02</ele>
        <time>2016-07-08T09:19:33Z</time>
      </trkpt>
      <trkpt lat="45.56714" lon="-1.08844">
        <ele>3.02</ele>
        <time>2016-07-08T09:19:37Z</time>
      </trkpt>
      <trkpt lat="45.56723" lon="-1.08858">
        <ele>3.02</ele>
        <time>2016-07-08T09:19:50Z</time>
      </trkpt>
      <trkpt lat="45.56728" lon="-1.08867">
        <ele>4.46</ele>
        <time>2016-07-08T09:19:59Z</time>
      </trkpt>
      <trkpt lat="45.56731" lon="-1.08874">
        <ele>4.46</ele>
        <time>2016-07-08T09:20:09Z</time>
      </trkpt>
      <trkpt lat="45.56733" lon="-1.08877">
        <ele>3.5</ele>
        <time>2016-07-08T09:20:23Z</time>
      </trkpt>
      <trkpt lat="45.56734" lon="-1.08876">
        <ele>3.02</ele>
        <time>2016-07-08T09:20:35Z</time>
      </trkpt>
      <trkpt lat="45.56736" lon="-1.08881">
        <ele>3.02</ele>
        <time>2016-07-08T09:20:44Z</time>
      </trkpt>
      <trkpt lat="45.56739" lon="-1.08884">
        <ele>2.06</ele>
        <time>2016-07-08T09:20:48Z</time>
      </trkpt>
      <trkpt lat="45.56742" lon="-1.08889">
        <ele>1.58</ele>
        <time>2016-07-08T09:20:57Z</time>
      </trkpt>
      <trkpt lat="45.56744" lon="-1.08893">
        <ele>1.58</ele>
        <time>2016-07-08T09:21:01Z</time>
      </trkpt>
      <trkpt lat="45.5674" lon="-1.08906">
        <ele>1.58</ele>
        <time>2016-07-08T09:21:12Z</time>
      </trkpt>
      <trkpt lat="45.56739" lon="-1.08911">
        <ele>1.58</ele>
        <time>2016-07-08T09:21:16Z</time>
      </trkpt>
      <trkpt lat="45.56738" lon="-1.08913">
        <ele>1.58</ele>
        <time>2016-07-08T09:21:18Z</time>
      </trkpt>
      <trkpt lat="45.5674" lon="-1.08915">
        <ele>2.54</ele>
        <time>2016-07-08T09:21:25Z</time>
      </trkpt>
      <trkpt lat="45.5674" lon="-1.08916">
        <ele>3.02</ele>
        <time>2016-07-08T09:21:26Z</time>
      </trkpt>
      <trkpt lat="45.56739" lon="-1.0892">
        <ele>2.54</ele>
        <time>2016-07-08T09:21:42Z</time>
      </trkpt>
      <trkpt lat="45.56739" lon="-1.0892">
        <ele>2.54</ele>
        <time>2016-07-08T09:21:48Z</time>
      </trkpt>
      <trkpt lat="45.56737" lon="-1.08923">
        <ele>1.58</ele>
        <time>2016-07-08T09:21:51Z</time>
      </trkpt>
      <trkpt lat="45.56731" lon="-1.08931">
        <ele>3.02</ele>
        <time>2016-07-08T09:22:02Z</time>
      </trkpt>
      <trkpt lat="45.56725" lon="-1.0895">
        <ele>3.5</ele>
        <time>2016-07-08T09:22:16Z</time>
      </trkpt>
      <trkpt lat="45.56722" lon="-1.0896">
        <ele>2.06</ele>
        <time>2016-07-08T09:22:27Z</time>
      </trkpt>
      <trkpt lat="45.56719" lon="-1.0897">
        <ele>3.02</ele>
        <time>2016-07-08T09:22:36Z</time>
      </trkpt>
      <trkpt lat="45.56719" lon="-1.08972">
        <ele>3.98</ele>
        <time>2016-07-08T09:22:44Z</time>
      </trkpt>
      <trkpt lat="45.56717" lon="-1.08977">
        <ele>2.54</ele>
        <time>2016-07-08T09:22:48Z</time>
      </trkpt>
      <trkpt lat="45.56717" lon="-1.0898">
        <ele>2.54</ele>
        <time>2016-07-08T09:22:57Z</time>
      </trkpt>
      <trkpt lat="45.56709" lon="-1.09005">
        <ele>2.06</ele>
        <time>2016-07-08T09:23:15Z</time>
      </trkpt>
      <trkpt lat="45.56702" lon="-1.0902">
        <ele>2.06</ele>
        <time>2016-07-08T09:23:29Z</time>
      </trkpt>
      <trkpt lat="45.56699" lon="-1.09027">
        <ele>1.58</ele>
        <time>2016-07-08T09:23:42Z</time>
      </trkpt>
      <trkpt lat="45.56699" lon="-1.09029">
        <ele>1.58</ele>
        <time>2016-07-08T09:23:59Z</time>
      </trkpt>
      <trkpt lat="45.56697" lon="-1.09033">
        <ele>1.58</ele>
        <time>2016-07-08T09:24:16Z</time>
      </trkpt>
      <trkpt lat="45.56696" lon="-1.09038">
        <ele>1.58</ele>
        <time>2016-07-08T09:24:19Z</time>
      </trkpt>
      <trkpt lat="45.56695" lon="-1.09042">
        <ele>1.58</ele>
        <time>2016-07-08T09:24:22Z</time>
      </trkpt>
      <trkpt lat="45.56693" lon="-1.0905">
        <ele>1.58</ele>
        <time>2016-07-08T09:24:27Z</time>
      </trkpt>
      <trkpt lat="45.56682" lon="-1.09073">
        <ele>1.58</ele>
        <time>2016-07-08T09:24:41Z</time>
      </trkpt>
      <trkpt lat="45.56671" lon="-1.09097">
        <ele>1.58</ele>
        <time>2016-07-08T09:24:56Z</time>
      </trkpt>
      <trkpt lat="45.56661" lon="-1.09118">
        <ele>1.58</ele>
        <time>2016-07-08T09:25:11Z</time>
      </trkpt>
      <trkpt lat="45.56647" lon="-1.09139">
        <ele>1.58</ele>
        <time>2016-07-08T09:25:26Z</time>
      </trkpt>
      <trkpt lat="45.56634" lon="-1.09155">
        <ele>1.58</ele>
        <time>2016-07-08T09:25:42Z</time>
      </trkpt>
      <trkpt lat="45.56627" lon="-1.09166">
        <ele>1.58</ele>
        <time>2016-07-08T09:25:51Z</time>
      </trkpt>
      <trkpt lat="45.56625" lon="-1.09167">
        <ele>1.1</ele>
        <time>2016-07-08T09:25:55Z</time>
      </trkpt>
      <trkpt lat="45.56623" lon="-1.09172">
        <ele>1.1</ele>
        <time>2016-07-08T09:26:00Z</time>
      </trkpt>
      <trkpt lat="45.56621" lon="-1.09176">
        <ele>2.54</ele>
        <time>2016-07-08T09:26:03Z</time>
      </trkpt>
      <trkpt lat="45.56614" lon="-1.09188">
        <ele>2.54</ele>
        <time>2016-07-08T09:26:13Z</time>
      </trkpt>
      <trkpt lat="45.5661" lon="-1.092">
        <ele>2.54</ele>
        <time>2016-07-08T09:26:22Z</time>
      </trkpt>
      <trkpt lat="45.56607" lon="-1.09205">
        <ele>1.58</ele>
        <time>2016-07-08T09:26:26Z</time>
      </trkpt>
      <trkpt lat="45.56595" lon="-1.09217">
        <ele>1.58</ele>
        <time>2016-07-08T09:26:39Z</time>
      </trkpt>
      <trkpt lat="45.56592" lon="-1.0922">
        <ele>1.1</ele>
        <time>2016-07-08T09:26:42Z</time>
      </trkpt>
      <trkpt lat="45.56588" lon="-1.09226">
        <ele>2.06</ele>
        <time>2016-07-08T09:26:48Z</time>
      </trkpt>
      <trkpt lat="45.56577" lon="-1.0924">
        <ele>2.06</ele>
        <time>2016-07-08T09:27:01Z</time>
      </trkpt>
      <trkpt lat="45.56566" lon="-1.09252">
        <ele>2.06</ele>
        <time>2016-07-08T09:27:13Z</time>
      </trkpt>
      <trkpt lat="45.56565" lon="-1.09251">
        <ele>2.06</ele>
        <time>2016-07-08T09:27:19Z</time>
      </trkpt>
      <trkpt lat="45.56552" lon="-1.09269">
        <ele>2.06</ele>
        <time>2016-07-08T09:27:35Z</time>
      </trkpt>
      <trkpt lat="45.56539" lon="-1.09279">
        <ele>2.06</ele>
        <time>2016-07-08T09:27:49Z</time>
      </trkpt>
      <trkpt lat="45.56535" lon="-1.09281">
        <ele>2.06</ele>
        <time>2016-07-08T09:27:57Z</time>
      </trkpt>
      <trkpt lat="45.56522" lon="-1.09292">
        <ele>1.1</ele>
        <time>2016-07-08T09:28:11Z</time>
      </trkpt>
      <trkpt lat="45.56518" lon="-1.09295">
        <ele>2.06</ele>
        <time>2016-07-08T09:28:17Z</time>
      </trkpt>
      <trkpt lat="45.56504" lon="-1.09304">
        <ele>1.1</ele>
        <time>2016-07-08T09:28:31Z</time>
      </trkpt>
      <trkpt lat="45.56489" lon="-1.09311">
        <ele>0.62</ele>
        <time>2016-07-08T09:28:46Z</time>
      </trkpt>
      <trkpt lat="45.56489" lon="-1.09311">
        <ele>2.06</ele>
        <time>2016-07-08T09:28:47Z</time>
      </trkpt>
      <trkpt lat="45.56486" lon="-1.09314">
        <ele>2.06</ele>
        <time>2016-07-08T09:28:51Z</time>
      </trkpt>
      <trkpt lat="45.56467" lon="-1.09322">
        <ele>2.06</ele>
        <time>2016-07-08T09:29:09Z</time>
      </trkpt>
      <trkpt lat="45.56449" lon="-1.0933">
        <ele>0.62</ele>
        <time>2016-07-08T09:29:25Z</time>
      </trkpt>
      <trkpt lat="45.56429" lon="-1.09335">
        <ele>0.62</ele>
        <time>2016-07-08T09:29:42Z</time>
      </trkpt>
      <trkpt lat="45.56415" lon="-1.0934">
        <ele>0.62</ele>
        <time>2016-07-08T09:29:55Z</time>
      </trkpt>
      <trkpt lat="45.56399" lon="-1.09349">
        <ele>0.62</ele>
        <time>2016-07-08T09:30:10Z</time>
      </trkpt>
      <trkpt lat="45.56383" lon="-1.0936">
        <ele>0.62</ele>
        <time>2016-07-08T09:30:25Z</time>
      </trkpt>
      <trkpt lat="45.56369" lon="-1.0937">
        <ele>0.62</ele>
        <time>2016-07-08T09:30:38Z</time>
      </trkpt>
      <trkpt lat="45.56363" lon="-1.09373">
        <ele>0.62</ele>
        <time>2016-07-08T09:30:43Z</time>
      </trkpt>
      <trkpt lat="45.56346" lon="-1.09385">
        <ele>0.62</ele>
        <time>2016-07-08T09:30:59Z</time>
      </trkpt>
      <trkpt lat="45.56331" lon="-1.0939">
        <ele>0.62</ele>
        <time>2016-07-08T09:31:12Z</time>
      </trkpt>
      <trkpt lat="45.56315" lon="-1.09401">
        <ele>0.62</ele>
        <time>2016-07-08T09:31:27Z</time>
      </trkpt>
      <trkpt lat="45.56313" lon="-1.09402">
        <ele>0.62</ele>
        <time>2016-07-08T09:31:29Z</time>
      </trkpt>
      <trkpt lat="45.56293" lon="-1.09414">
        <ele>0.62</ele>
        <time>2016-07-08T09:31:48Z</time>
      </trkpt>
      <trkpt lat="45.56282" lon="-1.09418">
        <ele>0.62</ele>
        <time>2016-07-08T09:31:58Z</time>
      </trkpt>
      <trkpt lat="45.5628" lon="-1.0942">
        <ele>2.06</ele>
        <time>2016-07-08T09:32:00Z</time>
      </trkpt>
      <trkpt lat="45.56274" lon="-1.09423">
        <ele>0.62</ele>
        <time>2016-07-08T09:32:05Z</time>
      </trkpt>
      <trkpt lat="45.56257" lon="-1.09432">
        <ele>0.62</ele>
        <time>2016-07-08T09:32:19Z</time>
      </trkpt>
      <trkpt lat="45.56244" lon="-1.09443">
        <ele>0.62</ele>
        <time>2016-07-08T09:32:32Z</time>
      </trkpt>
      <trkpt lat="45.5623" lon="-1.09449">
        <ele>2.06</ele>
        <time>2016-07-08T09:32:45Z</time>
      </trkpt>
      <trkpt lat="45.56227" lon="-1.0945">
        <ele>0.62</ele>
        <time>2016-07-08T09:32:49Z</time>
      </trkpt>
      <trkpt lat="45.5621" lon="-1.0946">
        <ele>0.62</ele>
        <time>2016-07-08T09:33:05Z</time>
      </trkpt>
      <trkpt lat="45.56195" lon="-1.09467">
        <ele>0.62</ele>
        <time>2016-07-08T09:33:19Z</time>
      </trkpt>
      <trkpt lat="45.56179" lon="-1.09471">
        <ele>0.62</ele>
        <time>2016-07-08T09:33:34Z</time>
      </trkpt>
      <trkpt lat="45.56168" lon="-1.09474">
        <ele>0.62</ele>
        <time>2016-07-08T09:33:44Z</time>
      </trkpt>
      <trkpt lat="45.56165" lon="-1.09476">
        <ele>0.62</ele>
        <time>2016-07-08T09:33:47Z</time>
      </trkpt>
      <trkpt lat="45.56147" lon="-1.09482">
        <ele>0.62</ele>
        <time>2016-07-08T09:34:02Z</time>
      </trkpt>
      <trkpt lat="45.5613" lon="-1.09486">
        <ele>0.62</ele>
        <time>2016-07-08T09:34:15Z</time>
      </trkpt>
      <trkpt lat="45.56112" lon="-1.0949">
        <ele>0.62</ele>
        <time>2016-07-08T09:34:31Z</time>
      </trkpt>
      <trkpt lat="45.5609" lon="-1.09497">
        <ele>0.14</ele>
        <time>2016-07-08T09:34:49Z</time>
      </trkpt>
      <trkpt lat="45.56074" lon="-1.09503">
        <ele>0.14</ele>
        <time>2016-07-08T09:35:03Z</time>
      </trkpt>
      <trkpt lat="45.56054" lon="-1.0951">
        <ele>0.14</ele>
        <time>2016-07-08T09:35:20Z</time>
      </trkpt>
      <trkpt lat="45.56033" lon="-1.09518">
        <ele>0.14</ele>
        <time>2016-07-08T09:35:38Z</time>
      </trkpt>
      <trkpt lat="45.56014" lon="-1.09523">
        <ele>0.14</ele>
        <time>2016-07-08T09:35:54Z</time>
      </trkpt>
      <trkpt lat="45.56003" lon="-1.09527">
        <ele>0.14</ele>
        <time>2016-07-08T09:36:03Z</time>
      </trkpt>
      <trkpt lat="45.5599" lon="-1.09531">
        <ele>0.14</ele>
        <time>2016-07-08T09:36:14Z</time>
      </trkpt>
      <trkpt lat="45.55972" lon="-1.09538">
        <ele>1.1</ele>
        <time>2016-07-08T09:36:31Z</time>
      </trkpt>
      <trkpt lat="45.55974" lon="-1.09544">
        <ele>-0.34</ele>
        <time>2016-07-08T09:36:41Z</time>
      </trkpt>
      <trkpt lat="45.55972" lon="-1.09542">
        <ele>-0.34</ele>
        <time>2016-07-08T09:36:55Z</time>
      </trkpt>
      <trkpt lat="45.55959" lon="-1.09541">
        <ele>0.62</ele>
        <time>2016-07-08T09:37:10Z</time>
      </trkpt>
      <trkpt lat="45.55942" lon="-1.09543">
        <ele>0.62</ele>
        <time>2016-07-08T09:37:25Z</time>
      </trkpt>
      <trkpt lat="45.55923" lon="-1.09548">
        <ele>0.62</ele>
        <time>2016-07-08T09:37:41Z</time>
      </trkpt>
      <trkpt lat="45.55906" lon="-1.09552">
        <ele>0.62</ele>
        <time>2016-07-08T09:37:55Z</time>
      </trkpt>
      <trkpt lat="45.55889" lon="-1.09556">
        <ele>1.1</ele>
        <time>2016-07-08T09:38:10Z</time>
      </trkpt>
      <trkpt lat="45.55871" lon="-1.09559">
        <ele>1.58</ele>
        <time>2016-07-08T09:38:26Z</time>
      </trkpt>
      <trkpt lat="45.55868" lon="-1.09561">
        <ele>0.14</ele>
        <time>2016-07-08T09:38:29Z</time>
      </trkpt>
      <trkpt lat="45.55848" lon="-1.0957">
        <ele>0.14</ele>
        <time>2016-07-08T09:38:47Z</time>
      </trkpt>
      <trkpt lat="45.55828" lon="-1.09577">
        <ele>0.14</ele>
        <time>2016-07-08T09:39:04Z</time>
      </trkpt>
      <trkpt lat="45.55818" lon="-1.09578">
        <ele>2.06</ele>
        <time>2016-07-08T09:39:13Z</time>
      </trkpt>
      <trkpt lat="45.5581" lon="-1.0958">
        <ele>0.14</ele>
        <time>2016-07-08T09:39:34Z</time>
      </trkpt>
      <trkpt lat="45.55791" lon="-1.09585">
        <ele>0.14</ele>
        <time>2016-07-08T09:39:51Z</time>
      </trkpt>
      <trkpt lat="45.55772" lon="-1.09587">
        <ele>0.14</ele>
        <time>2016-07-08T09:40:08Z</time>
      </trkpt>
      <trkpt lat="45.55771" lon="-1.09587">
        <ele>1.58</ele>
        <time>2016-07-08T09:40:09Z</time>
      </trkpt>
      <trkpt lat="45.55768" lon="-1.09587">
        <ele>0.14</ele>
        <time>2016-07-08T09:40:12Z</time>
      </trkpt>
      <trkpt lat="45.55749" lon="-1.0959">
        <ele>0.14</ele>
        <time>2016-07-08T09:40:27Z</time>
      </trkpt>
      <trkpt lat="45.5573" lon="-1.09596">
        <ele>0.14</ele>
        <time>2016-07-08T09:40:43Z</time>
      </trkpt>
      <trkpt lat="45.55724" lon="-1.09599">
        <ele>1.1</ele>
        <time>2016-07-08T09:40:49Z</time>
      </trkpt>
      <trkpt lat="45.55718" lon="-1.096">
        <ele>2.06</ele>
        <time>2016-07-08T09:40:55Z</time>
      </trkpt>
      <trkpt lat="45.55715" lon="-1.09602">
        <ele>1.1</ele>
        <time>2016-07-08T09:40:58Z</time>
      </trkpt>
      <trkpt lat="45.55712" lon="-1.09603">
        <ele>1.1</ele>
        <time>2016-07-08T09:41:01Z</time>
      </trkpt>
      <trkpt lat="45.55696" lon="-1.09605">
        <ele>1.1</ele>
        <time>2016-07-08T09:41:15Z</time>
      </trkpt>
      <trkpt lat="45.55694" lon="-1.09605">
        <ele>1.1</ele>
        <time>2016-07-08T09:41:17Z</time>
      </trkpt>
      <trkpt lat="45.5569" lon="-1.09602">
        <ele>2.54</ele>
        <time>2016-07-08T09:41:24Z</time>
      </trkpt>
      <trkpt lat="45.55688" lon="-1.0961">
        <ele>3.5</ele>
        <time>2016-07-08T09:41:34Z</time>
      </trkpt>
      <trkpt lat="45.55688" lon="-1.09613">
        <ele>3.5</ele>
        <time>2016-07-08T09:41:36Z</time>
      </trkpt>
      <trkpt lat="45.55693" lon="-1.0963">
        <ele>3.5</ele>
        <time>2016-07-08T09:41:51Z</time>
      </trkpt>
      <trkpt lat="45.55693" lon="-1.09633">
        <ele>2.06</ele>
        <time>2016-07-08T09:42:04Z</time>
      </trkpt>
      <trkpt lat="45.55697" lon="-1.09633">
        <ele>2.06</ele>
        <time>2016-07-08T09:42:17Z</time>
      </trkpt>
      <trkpt lat="45.55697" lon="-1.09633">
        <ele>1.58</ele>
        <time>2016-07-08T09:42:20Z</time>
      </trkpt>
      <trkpt lat="45.55693" lon="-1.09638">
        <ele>1.58</ele>
        <time>2016-07-08T09:42:25Z</time>
      </trkpt>
      <trkpt lat="45.55685" lon="-1.09645">
        <ele>2.06</ele>
        <time>2016-07-08T09:42:39Z</time>
      </trkpt>
      <trkpt lat="45.55685" lon="-1.09646">
        <ele>1.1</ele>
        <time>2016-07-08T09:42:54Z</time>
      </trkpt>
      <trkpt lat="45.55685" lon="-1.09646">
        <ele>1.1</ele>
        <time>2016-07-08T09:42:55Z</time>
      </trkpt>
      <trkpt lat="45.55683" lon="-1.09646">
        <ele>2.06</ele>
        <time>2016-07-08T09:43:09Z</time>
      </trkpt>
      <trkpt lat="45.55681" lon="-1.09651">
        <ele>0.62</ele>
        <time>2016-07-08T09:43:18Z</time>
      </trkpt>
      <trkpt lat="45.55667" lon="-1.09658">
        <ele>0.14</ele>
        <time>2016-07-08T09:43:33Z</time>
      </trkpt>
      <trkpt lat="45.55652" lon="-1.09664">
        <ele>0.14</ele>
        <time>2016-07-08T09:43:47Z</time>
      </trkpt>
      <trkpt lat="45.55635" lon="-1.0967">
        <ele>0.14</ele>
        <time>2016-07-08T09:44:03Z</time>
      </trkpt>
      <trkpt lat="45.55617" lon="-1.09676">
        <ele>0.14</ele>
        <time>2016-07-08T09:44:21Z</time>
      </trkpt>
      <trkpt lat="45.556" lon="-1.09679">
        <ele>0.14</ele>
        <time>2016-07-08T09:44:35Z</time>
      </trkpt>
      <trkpt lat="45.55592" lon="-1.09684">
        <ele>0.14</ele>
        <time>2016-07-08T09:44:47Z</time>
      </trkpt>
      <trkpt lat="45.55589" lon="-1.09687">
        <ele>-0.82</ele>
        <time>2016-07-08T09:44:51Z</time>
      </trkpt>
      <trkpt lat="45.55582" lon="-1.09687">
        <ele>-0.82</ele>
        <time>2016-07-08T09:44:58Z</time>
      </trkpt>
      <trkpt lat="45.55561" lon="-1.09687">
        <ele>-0.82</ele>
        <time>2016-07-08T09:45:17Z</time>
      </trkpt>
      <trkpt lat="45.55546" lon="-1.09691">
        <ele>0.14</ele>
        <time>2016-07-08T09:45:31Z</time>
      </trkpt>
      <trkpt lat="45.55532" lon="-1.09694">
        <ele>0.14</ele>
        <time>2016-07-08T09:45:45Z</time>
      </trkpt>
      <trkpt lat="45.55515" lon="-1.09698">
        <ele>0.14</ele>
        <time>2016-07-08T09:46:02Z</time>
      </trkpt>
      <trkpt lat="45.555" lon="-1.097">
        <ele>0.14</ele>
        <time>2016-07-08T09:46:16Z</time>
      </trkpt>
      <trkpt lat="45.55483" lon="-1.09701">
        <ele>0.14</ele>
        <time>2016-07-08T09:46:32Z</time>
      </trkpt>
      <trkpt lat="45.55465" lon="-1.09702">
        <ele>0.14</ele>
        <time>2016-07-08T09:46:48Z</time>
      </trkpt>
      <trkpt lat="45.55451" lon="-1.09703">
        <ele>0.14</ele>
        <time>2016-07-08T09:47:02Z</time>
      </trkpt>
      <trkpt lat="45.55432" lon="-1.09707">
        <ele>0.14</ele>
        <time>2016-07-08T09:47:18Z</time>
      </trkpt>
      <trkpt lat="45.55414" lon="-1.0971">
        <ele>0.14</ele>
        <time>2016-07-08T09:47:34Z</time>
      </trkpt>
      <trkpt lat="45.55394" lon="-1.09712">
        <ele>0.62</ele>
        <time>2016-07-08T09:47:51Z</time>
      </trkpt>
      <trkpt lat="45.55376" lon="-1.09718">
        <ele>0.62</ele>
        <time>2016-07-08T09:48:07Z</time>
      </trkpt>
      <trkpt lat="45.55362" lon="-1.09723">
        <ele>1.1</ele>
        <time>2016-07-08T09:48:21Z</time>
      </trkpt>
      <trkpt lat="45.55347" lon="-1.09728">
        <ele>1.1</ele>
        <time>2016-07-08T09:48:34Z</time>
      </trkpt>
      <trkpt lat="45.55342" lon="-1.0973">
        <ele>0.14</ele>
        <time>2016-07-08T09:48:40Z</time>
      </trkpt>
      <trkpt lat="45.55322" lon="-1.09736">
        <ele>0.14</ele>
        <time>2016-07-08T09:48:58Z</time>
      </trkpt>
      <trkpt lat="45.55304" lon="-1.09739">
        <ele>0.14</ele>
        <time>2016-07-08T09:49:15Z</time>
      </trkpt>
      <trkpt lat="45.55297" lon="-1.0974">
        <ele>1.58</ele>
        <time>2016-07-08T09:49:23Z</time>
      </trkpt>
      <trkpt lat="45.55283" lon="-1.09745">
        <ele>0.62</ele>
        <time>2016-07-08T09:49:36Z</time>
      </trkpt>
      <trkpt lat="45.55264" lon="-1.09747">
        <ele>0.14</ele>
        <time>2016-07-08T09:49:52Z</time>
      </trkpt>
      <trkpt lat="45.55246" lon="-1.09748">
        <ele>0.14</ele>
        <time>2016-07-08T09:50:08Z</time>
      </trkpt>
      <trkpt lat="45.55228" lon="-1.09749">
        <ele>0.14</ele>
        <time>2016-07-08T09:50:24Z</time>
      </trkpt>
      <trkpt lat="45.55207" lon="-1.09752">
        <ele>0.14</ele>
        <time>2016-07-08T09:50:42Z</time>
      </trkpt>
      <trkpt lat="45.55189" lon="-1.09754">
        <ele>0.14</ele>
        <time>2016-07-08T09:50:57Z</time>
      </trkpt>
      <trkpt lat="45.5517" lon="-1.09756">
        <ele>0.14</ele>
        <time>2016-07-08T09:51:12Z</time>
      </trkpt>
      <trkpt lat="45.55153" lon="-1.09759">
        <ele>0.14</ele>
        <time>2016-07-08T09:51:27Z</time>
      </trkpt>
      <trkpt lat="45.55139" lon="-1.09763">
        <ele>0.14</ele>
        <time>2016-07-08T09:51:42Z</time>
      </trkpt>
      <trkpt lat="45.55135" lon="-1.09765">
        <ele>-0.34</ele>
        <time>2016-07-08T09:51:53Z</time>
      </trkpt>
      <trkpt lat="45.55113" lon="-1.09766">
        <ele>-0.82</ele>
        <time>2016-07-08T09:52:12Z</time>
      </trkpt>
      <trkpt lat="45.55094" lon="-1.09769">
        <ele>-0.82</ele>
        <time>2016-07-08T09:52:27Z</time>
      </trkpt>
      <trkpt lat="45.55087" lon="-1.0977">
        <ele>1.1</ele>
        <time>2016-07-08T09:52:33Z</time>
      </trkpt>
      <trkpt lat="45.5508" lon="-1.09771">
        <ele>-0.34</ele>
        <time>2016-07-08T09:52:39Z</time>
      </trkpt>
      <trkpt lat="45.55061" lon="-1.0977">
        <ele>-0.34</ele>
        <time>2016-07-08T09:52:54Z</time>
      </trkpt>
      <trkpt lat="45.5504" lon="-1.0977">
        <ele>-0.34</ele>
        <time>2016-07-08T09:53:11Z</time>
      </trkpt>
      <trkpt lat="45.5502" lon="-1.09768">
        <ele>-0.34</ele>
        <time>2016-07-08T09:53:28Z</time>
      </trkpt>
      <trkpt lat="45.55007" lon="-1.09768">
        <ele>-0.34</ele>
        <time>2016-07-08T09:53:39Z</time>
      </trkpt>
      <trkpt lat="45.54986" lon="-1.09768">
        <ele>-0.82</ele>
        <time>2016-07-08T09:53:57Z</time>
      </trkpt>
      <trkpt lat="45.54967" lon="-1.0977">
        <ele>-0.82</ele>
        <time>2016-07-08T09:54:13Z</time>
      </trkpt>
      <trkpt lat="45.54949" lon="-1.09768">
        <ele>-0.82</ele>
        <time>2016-07-08T09:54:28Z</time>
      </trkpt>
      <trkpt lat="45.54928" lon="-1.0977">
        <ele>-0.82</ele>
        <time>2016-07-08T09:54:45Z</time>
      </trkpt>
      <trkpt lat="45.54915" lon="-1.09773">
        <ele>-0.82</ele>
        <time>2016-07-08T09:55:00Z</time>
      </trkpt>
      <trkpt lat="45.54911" lon="-1.09773">
        <ele>-0.82</ele>
        <time>2016-07-08T09:55:06Z</time>
      </trkpt>
      <trkpt lat="45.54888" lon="-1.09775">
        <ele>-0.82</ele>
        <time>2016-07-08T09:55:26Z</time>
      </trkpt>
      <trkpt lat="45.5487" lon="-1.09776">
        <ele>-1.3</ele>
        <time>2016-07-08T09:55:41Z</time>
      </trkpt>
      <trkpt lat="45.54851" lon="-1.09779">
        <ele>-1.3</ele>
        <time>2016-07-08T09:55:57Z</time>
      </trkpt>
      <trkpt lat="45.54829" lon="-1.09785">
        <ele>-1.3</ele>
        <time>2016-07-08T09:56:15Z</time>
      </trkpt>
      <trkpt lat="45.54809" lon="-1.09789">
        <ele>-1.3</ele>
        <time>2016-07-08T09:56:31Z</time>
      </trkpt>
      <trkpt lat="45.5479" lon="-1.09796">
        <ele>-1.3</ele>
        <time>2016-07-08T09:56:47Z</time>
      </trkpt>
      <trkpt lat="45.54768" lon="-1.09804">
        <ele>-0.34</ele>
        <time>2016-07-08T09:57:06Z</time>
      </trkpt>
      <trkpt lat="45.54753" lon="-1.09808">
        <ele>0.62</ele>
        <time>2016-07-08T09:57:23Z</time>
      </trkpt>
      <trkpt lat="45.54748" lon="-1.09815">
        <ele>-0.82</ele>
        <time>2016-07-08T09:57:36Z</time>
      </trkpt>
      <trkpt lat="45.54745" lon="-1.09817">
        <ele>-0.82</ele>
        <time>2016-07-08T09:57:39Z</time>
      </trkpt>
      <trkpt lat="45.54729" lon="-1.09822">
        <ele>-1.3</ele>
        <time>2016-07-08T09:57:53Z</time>
      </trkpt>
      <trkpt lat="45.54713" lon="-1.09827">
        <ele>-1.3</ele>
        <time>2016-07-08T09:58:07Z</time>
      </trkpt>
      <trkpt lat="45.547" lon="-1.09832">
        <ele>-1.3</ele>
        <time>2016-07-08T09:58:19Z</time>
      </trkpt>
      <trkpt lat="45.54684" lon="-1.09836">
        <ele>-1.79</ele>
        <time>2016-07-08T09:58:32Z</time>
      </trkpt>
      <trkpt lat="45.54669" lon="-1.0984">
        <ele>-1.79</ele>
        <time>2016-07-08T09:58:45Z</time>
      </trkpt>
      <trkpt lat="45.54661" lon="-1.09845">
        <ele>-1.79</ele>
        <time>2016-07-08T09:58:56Z</time>
      </trkpt>
      <trkpt lat="45.54646" lon="-1.0985">
        <ele>-1.79</ele>
        <time>2016-07-08T09:59:09Z</time>
      </trkpt>
      <trkpt lat="45.5464" lon="-1.09853">
        <ele>-1.79</ele>
        <time>2016-07-08T09:59:14Z</time>
      </trkpt>
      <trkpt lat="45.54626" lon="-1.09857">
        <ele>-1.79</ele>
        <time>2016-07-08T09:59:26Z</time>
      </trkpt>
      <trkpt lat="45.54621" lon="-1.09858">
        <ele>-0.34</ele>
        <time>2016-07-08T09:59:30Z</time>
      </trkpt>
      <trkpt lat="45.54606" lon="-1.09863">
        <ele>-0.34</ele>
        <time>2016-07-08T09:59:43Z</time>
      </trkpt>
      <trkpt lat="45.54604" lon="-1.09863">
        <ele>-0.34</ele>
        <time>2016-07-08T09:59:45Z</time>
      </trkpt>
      <trkpt lat="45.54587" lon="-1.09867">
        <ele>-0.34</ele>
        <time>2016-07-08T09:59:59Z</time>
      </trkpt>
      <trkpt lat="45.5457" lon="-1.09872">
        <ele>0.14</ele>
        <time>2016-07-08T10:00:14Z</time>
      </trkpt>
      <trkpt lat="45.54563" lon="-1.09875">
        <ele>1.1</ele>
        <time>2016-07-08T10:00:26Z</time>
      </trkpt>
      <trkpt lat="45.54555" lon="-1.09878">
        <ele>1.1</ele>
        <time>2016-07-08T10:00:39Z</time>
      </trkpt>
      <trkpt lat="45.5455" lon="-1.09884">
        <ele>1.1</ele>
        <time>2016-07-08T10:00:52Z</time>
      </trkpt>
      <trkpt lat="45.54535" lon="-1.0989">
        <ele>1.1</ele>
        <time>2016-07-08T10:01:07Z</time>
      </trkpt>
      <trkpt lat="45.54516" lon="-1.09896">
        <ele>0.62</ele>
        <time>2016-07-08T10:01:25Z</time>
      </trkpt>
      <trkpt lat="45.54513" lon="-1.09899">
        <ele>1.58</ele>
        <time>2016-07-08T10:01:35Z</time>
      </trkpt>
      <trkpt lat="45.54513" lon="-1.09899">
        <ele>1.58</ele>
        <time>2016-07-08T10:01:48Z</time>
      </trkpt>
      <trkpt lat="45.54506" lon="-1.09902">
        <ele>-0.82</ele>
        <time>2016-07-08T10:01:55Z</time>
      </trkpt>
      <trkpt lat="45.545" lon="-1.09903">
        <ele>0.62</ele>
        <time>2016-07-08T10:02:08Z</time>
      </trkpt>
      <trkpt lat="45.545" lon="-1.09905">
        <ele>0.62</ele>
        <time>2016-07-08T10:02:15Z</time>
      </trkpt>
      <trkpt lat="45.54487" lon="-1.0991">
        <ele>0.62</ele>
        <time>2016-07-08T10:02:31Z</time>
      </trkpt>
      <trkpt lat="45.54478" lon="-1.09915">
        <ele>0.62</ele>
        <time>2016-07-08T10:02:45Z</time>
      </trkpt>
      <trkpt lat="45.54471" lon="-1.09917">
        <ele>1.1</ele>
        <time>2016-07-08T10:02:59Z</time>
      </trkpt>
      <trkpt lat="45.54471" lon="-1.09924">
        <ele>1.58</ele>
        <time>2016-07-08T10:03:12Z</time>
      </trkpt>
      <trkpt lat="45.54469" lon="-1.09928">
        <ele>1.1</ele>
        <time>2016-07-08T10:03:16Z</time>
      </trkpt>
      <trkpt lat="45.54467" lon="-1.09929">
        <ele>0.14</ele>
        <time>2016-07-08T10:03:18Z</time>
      </trkpt>
      <trkpt lat="45.54464" lon="-1.09932">
        <ele>-0.34</ele>
        <time>2016-07-08T10:03:22Z</time>
      </trkpt>
      <trkpt lat="45.5445" lon="-1.09947">
        <ele>-0.34</ele>
        <time>2016-07-08T10:03:39Z</time>
      </trkpt>
      <trkpt lat="45.54434" lon="-1.09959">
        <ele>-0.82</ele>
        <time>2016-07-08T10:03:55Z</time>
      </trkpt>
      <trkpt lat="45.54418" lon="-1.09968">
        <ele>-0.82</ele>
        <time>2016-07-08T10:04:11Z</time>
      </trkpt>
      <trkpt lat="45.54399" lon="-1.09976">
        <ele>-0.82</ele>
        <time>2016-07-08T10:04:28Z</time>
      </trkpt>
      <trkpt lat="45.54385" lon="-1.09982">
        <ele>-0.82</ele>
        <time>2016-07-08T10:04:40Z</time>
      </trkpt>
      <trkpt lat="45.54368" lon="-1.09989">
        <ele>-1.3</ele>
        <time>2016-07-08T10:04:54Z</time>
      </trkpt>
      <trkpt lat="45.54349" lon="-1.09996">
        <ele>-1.79</ele>
        <time>2016-07-08T10:05:10Z</time>
      </trkpt>
      <trkpt lat="45.54331" lon="-1.10001">
        <ele>-1.79</ele>
        <time>2016-07-08T10:05:26Z</time>
      </trkpt>
      <trkpt lat="45.54315" lon="-1.10004">
        <ele>-1.79</ele>
        <time>2016-07-08T10:05:40Z</time>
      </trkpt>
      <trkpt lat="45.54298" lon="-1.10009">
        <ele>-1.79</ele>
        <time>2016-07-08T10:05:54Z</time>
      </trkpt>
      <trkpt lat="45.54281" lon="-1.10011">
        <ele>-1.79</ele>
        <time>2016-07-08T10:06:08Z</time>
      </trkpt>
      <trkpt lat="45.54267" lon="-1.10014">
        <ele>-1.79</ele>
        <time>2016-07-08T10:06:20Z</time>
      </trkpt>
      <trkpt lat="45.54251" lon="-1.10018">
        <ele>-2.27</ele>
        <time>2016-07-08T10:06:33Z</time>
      </trkpt>
      <trkpt lat="45.54235" lon="-1.10021">
        <ele>-2.27</ele>
        <time>2016-07-08T10:06:47Z</time>
      </trkpt>
      <trkpt lat="45.54219" lon="-1.10022">
        <ele>-2.27</ele>
        <time>2016-07-08T10:07:00Z</time>
      </trkpt>
      <trkpt lat="45.54202" lon="-1.10022">
        <ele>-2.27</ele>
        <time>2016-07-08T10:07:13Z</time>
      </trkpt>
      <trkpt lat="45.54193" lon="-1.10023">
        <ele>-2.27</ele>
        <time>2016-07-08T10:07:21Z</time>
      </trkpt>
      <trkpt lat="45.5419" lon="-1.10024">
        <ele>-0.82</ele>
        <time>2016-07-08T10:07:24Z</time>
      </trkpt>
      <trkpt lat="45.54188" lon="-1.10024">
        <ele>-0.82</ele>
        <time>2016-07-08T10:07:25Z</time>
      </trkpt>
      <trkpt lat="45.54171" lon="-1.10024">
        <ele>-0.82</ele>
        <time>2016-07-08T10:07:39Z</time>
      </trkpt>
      <trkpt lat="45.54167" lon="-1.10028">
        <ele>0.14</ele>
        <time>2016-07-08T10:07:43Z</time>
      </trkpt>
      <trkpt lat="45.54165" lon="-1.10028">
        <ele>-1.3</ele>
        <time>2016-07-08T10:07:45Z</time>
      </trkpt>
      <trkpt lat="45.54148" lon="-1.10031">
        <ele>-1.3</ele>
        <time>2016-07-08T10:08:00Z</time>
      </trkpt>
      <trkpt lat="45.54146" lon="-1.10031">
        <ele>0.14</ele>
        <time>2016-07-08T10:08:10Z</time>
      </trkpt>
      <trkpt lat="45.54146" lon="-1.1003">
        <ele>0.14</ele>
        <time>2016-07-08T10:08:22Z</time>
      </trkpt>
      <trkpt lat="45.54144" lon="-1.1003">
        <ele>0.14</ele>
        <time>2016-07-08T10:08:31Z</time>
      </trkpt>
      <trkpt lat="45.54143" lon="-1.1003">
        <ele>0.14</ele>
        <time>2016-07-08T10:08:38Z</time>
      </trkpt>
      <trkpt lat="45.54142" lon="-1.10031">
        <ele>0.14</ele>
        <time>2016-07-08T10:08:51Z</time>
      </trkpt>
      <trkpt lat="45.54136" lon="-1.10031">
        <ele>0.14</ele>
        <time>2016-07-08T10:09:05Z</time>
      </trkpt>
      <trkpt lat="45.54124" lon="-1.10038">
        <ele>0.14</ele>
        <time>2016-07-08T10:09:20Z</time>
      </trkpt>
      <trkpt lat="45.54115" lon="-1.10045">
        <ele>0.14</ele>
        <time>2016-07-08T10:09:31Z</time>
      </trkpt>
      <trkpt lat="45.54112" lon="-1.10048">
        <ele>0.14</ele>
        <time>2016-07-08T10:09:35Z</time>
      </trkpt>
      <trkpt lat="45.54107" lon="-1.10055">
        <ele>-0.82</ele>
        <time>2016-07-08T10:09:50Z</time>
      </trkpt>
      <trkpt lat="45.54098" lon="-1.10064">
        <ele>-0.82</ele>
        <time>2016-07-08T10:10:04Z</time>
      </trkpt>
      <trkpt lat="45.54085" lon="-1.10073">
        <ele>-1.3</ele>
        <time>2016-07-08T10:10:17Z</time>
      </trkpt>
      <trkpt lat="45.5407" lon="-1.10086">
        <ele>-1.3</ele>
        <time>2016-07-08T10:10:32Z</time>
      </trkpt>
      <trkpt lat="45.54067" lon="-1.10089">
        <ele>-1.3</ele>
        <time>2016-07-08T10:10:37Z</time>
      </trkpt>
      <trkpt lat="45.54063" lon="-1.10097">
        <ele>-2.27</ele>
        <time>2016-07-08T10:10:50Z</time>
      </trkpt>
      <trkpt lat="45.54064" lon="-1.10097">
        <ele>-1.79</ele>
        <time>2016-07-08T10:11:09Z</time>
      </trkpt>
      <trkpt lat="45.54063" lon="-1.10098">
        <ele>-1.79</ele>
        <time>2016-07-08T10:11:35Z</time>
      </trkpt>
      <trkpt lat="45.54064" lon="-1.10101">
        <ele>-1.79</ele>
        <time>2016-07-08T10:11:53Z</time>
      </trkpt>
      <trkpt lat="45.54063" lon="-1.10103">
        <ele>-1.79</ele>
        <time>2016-07-08T10:11:59Z</time>
      </trkpt>
      <trkpt lat="45.54055" lon="-1.1011">
        <ele>-1.79</ele>
        <time>2016-07-08T10:12:09Z</time>
      </trkpt>
      <trkpt lat="45.54052" lon="-1.10115">
        <ele>-1.79</ele>
        <time>2016-07-08T10:12:13Z</time>
      </trkpt>
      <trkpt lat="45.54042" lon="-1.10135">
        <ele>-1.79</ele>
        <time>2016-07-08T10:12:30Z</time>
      </trkpt>
      <trkpt lat="45.54036" lon="-1.10154">
        <ele>-1.79</ele>
        <time>2016-07-08T10:12:46Z</time>
      </trkpt>
      <trkpt lat="45.5403" lon="-1.10174">
        <ele>-1.79</ele>
        <time>2016-07-08T10:13:00Z</time>
      </trkpt>
      <trkpt lat="45.5403" lon="-1.1018">
        <ele>-1.79</ele>
        <time>2016-07-08T10:13:04Z</time>
      </trkpt>
      <trkpt lat="45.54023" lon="-1.10196">
        <ele>-0.82</ele>
        <time>2016-07-08T10:13:19Z</time>
      </trkpt>
      <trkpt lat="45.54014" lon="-1.10206">
        <ele>0.62</ele>
        <time>2016-07-08T10:13:36Z</time>
      </trkpt>
      <trkpt lat="45.54016" lon="-1.10211">
        <ele>0.62</ele>
        <time>2016-07-08T10:13:41Z</time>
      </trkpt>
      <trkpt lat="45.54025" lon="-1.10224">
        <ele>-0.34</ele>
        <time>2016-07-08T10:13:56Z</time>
      </trkpt>
      <trkpt lat="45.54027" lon="-1.10226">
        <ele>-1.79</ele>
        <time>2016-07-08T10:14:11Z</time>
      </trkpt>
      <trkpt lat="45.54027" lon="-1.10227">
        <ele>-1.79</ele>
        <time>2016-07-08T10:14:28Z</time>
      </trkpt>
      <trkpt lat="45.54026" lon="-1.10224">
        <ele>-1.79</ele>
        <time>2016-07-08T10:14:41Z</time>
      </trkpt>
      <trkpt lat="45.54024" lon="-1.10217">
        <ele>-1.79</ele>
        <time>2016-07-08T10:14:54Z</time>
      </trkpt>
      <trkpt lat="45.54023" lon="-1.10209">
        <ele>-1.79</ele>
        <time>2016-07-08T10:15:07Z</time>
      </trkpt>
      <trkpt lat="45.54025" lon="-1.1021">
        <ele>-0.82</ele>
        <time>2016-07-08T10:15:39Z</time>
      </trkpt>
      <trkpt lat="45.54025" lon="-1.10207">
        <ele>-0.82</ele>
        <time>2016-07-08T10:16:05Z</time>
      </trkpt>
      <trkpt lat="45.54024" lon="-1.10209">
        <ele>-0.82</ele>
        <time>2016-07-08T10:16:21Z</time>
      </trkpt>
      <trkpt lat="45.54024" lon="-1.10211">
        <ele>-0.82</ele>
        <time>2016-07-08T10:16:24Z</time>
      </trkpt>
      <trkpt lat="45.54025" lon="-1.10224">
        <ele>-2.27</ele>
        <time>2016-07-08T10:16:34Z</time>
      </trkpt>
      <trkpt lat="45.54024" lon="-1.10231">
        <ele>-2.27</ele>
        <time>2016-07-08T10:16:39Z</time>
      </trkpt>
      <trkpt lat="45.54019" lon="-1.1024">
        <ele>-2.27</ele>
        <time>2016-07-08T10:16:48Z</time>
      </trkpt>
      <trkpt lat="45.54015" lon="-1.10245">
        <ele>-2.27</ele>
        <time>2016-07-08T10:16:53Z</time>
      </trkpt>
      <trkpt lat="45.54007" lon="-1.10261">
        <ele>-2.27</ele>
        <time>2016-07-08T10:17:06Z</time>
      </trkpt>
      <trkpt lat="45.54005" lon="-1.10265">
        <ele>-2.27</ele>
        <time>2016-07-08T10:17:10Z</time>
      </trkpt>
      <trkpt lat="45.54004" lon="-1.10267">
        <ele>-2.27</ele>
        <time>2016-07-08T10:17:12Z</time>
      </trkpt>
      <trkpt lat="45.53998" lon="-1.10279">
        <ele>-2.27</ele>
        <time>2016-07-08T10:17:22Z</time>
      </trkpt>
      <trkpt lat="45.53991" lon="-1.10287">
        <ele>-2.27</ele>
        <time>2016-07-08T10:17:30Z</time>
      </trkpt>
      <trkpt lat="45.53989" lon="-1.10294">
        <ele>-2.27</ele>
        <time>2016-07-08T10:17:35Z</time>
      </trkpt>
      <trkpt lat="45.53987" lon="-1.10297">
        <ele>-2.27</ele>
        <time>2016-07-08T10:17:37Z</time>
      </trkpt>
      <trkpt lat="45.53985" lon="-1.10302">
        <ele>-2.27</ele>
        <time>2016-07-08T10:17:41Z</time>
      </trkpt>
      <trkpt lat="45.53978" lon="-1.10322">
        <ele>-2.27</ele>
        <time>2016-07-08T10:17:55Z</time>
      </trkpt>
      <trkpt lat="45.53978" lon="-1.10323">
        <ele>-2.27</ele>
        <time>2016-07-08T10:17:56Z</time>
      </trkpt>
      <trkpt lat="45.53977" lon="-1.10326">
        <ele>-2.27</ele>
        <time>2016-07-08T10:17:58Z</time>
      </trkpt>
      <trkpt lat="45.53974" lon="-1.10345">
        <ele>-2.27</ele>
        <time>2016-07-08T10:18:11Z</time>
      </trkpt>
      <trkpt lat="45.5397" lon="-1.10363">
        <ele>-2.27</ele>
        <time>2016-07-08T10:18:23Z</time>
      </trkpt>
      <trkpt lat="45.53969" lon="-1.10368">
        <ele>-2.27</ele>
        <time>2016-07-08T10:18:26Z</time>
      </trkpt>
      <trkpt lat="45.53968" lon="-1.10372">
        <ele>-0.34</ele>
        <time>2016-07-08T10:18:29Z</time>
      </trkpt>
      <trkpt lat="45.53966" lon="-1.10395">
        <ele>-0.34</ele>
        <time>2016-07-08T10:18:46Z</time>
      </trkpt>
      <trkpt lat="45.53966" lon="-1.104">
        <ele>-0.34</ele>
        <time>2016-07-08T10:18:50Z</time>
      </trkpt>
      <trkpt lat="45.53965" lon="-1.10402">
        <ele>0.14</ele>
        <time>2016-07-08T10:18:55Z</time>
      </trkpt>
      <trkpt lat="45.53958" lon="-1.10427">
        <ele>0.14</ele>
        <time>2016-07-08T10:19:13Z</time>
      </trkpt>
      <trkpt lat="45.53956" lon="-1.10428">
        <ele>0.14</ele>
        <time>2016-07-08T10:19:27Z</time>
      </trkpt>
      <trkpt lat="45.53953" lon="-1.10442">
        <ele>0.14</ele>
        <time>2016-07-08T10:19:40Z</time>
      </trkpt>
      <trkpt lat="45.53952" lon="-1.10446">
        <ele>0.14</ele>
        <time>2016-07-08T10:19:43Z</time>
      </trkpt>
      <trkpt lat="45.53949" lon="-1.10451">
        <ele>-1.3</ele>
        <time>2016-07-08T10:19:56Z</time>
      </trkpt>
      <trkpt lat="45.5395" lon="-1.10439">
        <ele>-1.3</ele>
        <time>2016-07-08T10:20:12Z</time>
      </trkpt>
      <trkpt lat="45.53949" lon="-1.1044">
        <ele>-1.3</ele>
        <time>2016-07-08T10:20:13Z</time>
      </trkpt>
      <trkpt lat="45.53938" lon="-1.10463">
        <ele>-1.3</ele>
        <time>2016-07-08T10:20:31Z</time>
      </trkpt>
      <trkpt lat="45.53935" lon="-1.10469">
        <ele>-1.3</ele>
        <time>2016-07-08T10:20:36Z</time>
      </trkpt>
      <trkpt lat="45.53924" lon="-1.10485">
        <ele>-1.3</ele>
        <time>2016-07-08T10:20:52Z</time>
      </trkpt>
      <trkpt lat="45.53914" lon="-1.10504">
        <ele>-1.3</ele>
        <time>2016-07-08T10:21:08Z</time>
      </trkpt>
      <trkpt lat="45.53913" lon="-1.10507">
        <ele>-1.3</ele>
        <time>2016-07-08T10:21:10Z</time>
      </trkpt>
      <trkpt lat="45.53903" lon="-1.10528">
        <ele>-1.3</ele>
        <time>2016-07-08T10:21:28Z</time>
      </trkpt>
      <trkpt lat="45.539" lon="-1.10536">
        <ele>-1.3</ele>
        <time>2016-07-08T10:21:34Z</time>
      </trkpt>
      <trkpt lat="45.53897" lon="-1.1054">
        <ele>-1.3</ele>
        <time>2016-07-08T10:21:48Z</time>
      </trkpt>
      <trkpt lat="45.53897" lon="-1.10541">
        <ele>-0.82</ele>
        <time>2016-07-08T10:21:54Z</time>
      </trkpt>
      <trkpt lat="45.53887" lon="-1.10556">
        <ele>-1.3</ele>
        <time>2016-07-08T10:22:09Z</time>
      </trkpt>
      <trkpt lat="45.53881" lon="-1.10569">
        <ele>-1.3</ele>
        <time>2016-07-08T10:22:19Z</time>
      </trkpt>
      <trkpt lat="45.53877" lon="-1.10573">
        <ele>-1.3</ele>
        <time>2016-07-08T10:22:24Z</time>
      </trkpt>
      <trkpt lat="45.53865" lon="-1.10581">
        <ele>-1.3</ele>
        <time>2016-07-08T10:22:40Z</time>
      </trkpt>
      <trkpt lat="45.53863" lon="-1.10581">
        <ele>-1.3</ele>
        <time>2016-07-08T10:22:42Z</time>
      </trkpt>
      <trkpt lat="45.53844" lon="-1.10581">
        <ele>-1.3</ele>
        <time>2016-07-08T10:23:00Z</time>
      </trkpt>
      <trkpt lat="45.53831" lon="-1.10579">
        <ele>-1.3</ele>
        <time>2016-07-08T10:23:14Z</time>
      </trkpt>
      <trkpt lat="45.53817" lon="-1.10583">
        <ele>0.62</ele>
        <time>2016-07-08T10:23:30Z</time>
      </trkpt>
      <trkpt lat="45.53817" lon="-1.10586">
        <ele>0.62</ele>
        <time>2016-07-08T10:23:32Z</time>
      </trkpt>
      <trkpt lat="45.53829" lon="-1.10605">
        <ele>0.62</ele>
        <time>2016-07-08T10:23:51Z</time>
      </trkpt>
      <trkpt lat="45.53832" lon="-1.10607">
        <ele>0.62</ele>
        <time>2016-07-08T10:24:04Z</time>
      </trkpt>
      <trkpt lat="45.53831" lon="-1.10608">
        <ele>-0.34</ele>
        <time>2016-07-08T10:24:22Z</time>
      </trkpt>
      <trkpt lat="45.53826" lon="-1.10604">
        <ele>-0.34</ele>
        <time>2016-07-08T10:24:36Z</time>
      </trkpt>
      <trkpt lat="45.53826" lon="-1.10603">
        <ele>-0.34</ele>
        <time>2016-07-08T10:24:52Z</time>
      </trkpt>
      <trkpt lat="45.53827" lon="-1.10603">
        <ele>-0.34</ele>
        <time>2016-07-08T10:25:10Z</time>
      </trkpt>
      <trkpt lat="45.53823" lon="-1.10603">
        <ele>-0.34</ele>
        <time>2016-07-08T10:25:25Z</time>
      </trkpt>
      <trkpt lat="45.53815" lon="-1.10605">
        <ele>-0.34</ele>
        <time>2016-07-08T10:25:39Z</time>
      </trkpt>
      <trkpt lat="45.53805" lon="-1.10607">
        <ele>-0.82</ele>
        <time>2016-07-08T10:25:52Z</time>
      </trkpt>
      <trkpt lat="45.53788" lon="-1.10613">
        <ele>-0.82</ele>
        <time>2016-07-08T10:26:09Z</time>
      </trkpt>
      <trkpt lat="45.53774" lon="-1.10628">
        <ele>-0.82</ele>
        <time>2016-07-08T10:26:26Z</time>
      </trkpt>
      <trkpt lat="45.53768" lon="-1.1063">
        <ele>-0.82</ele>
        <time>2016-07-08T10:26:32Z</time>
      </trkpt>
      <trkpt lat="45.53751" lon="-1.10639">
        <ele>-0.82</ele>
        <time>2016-07-08T10:26:49Z</time>
      </trkpt>
      <trkpt lat="45.53749" lon="-1.1064">
        <ele>-0.82</ele>
        <time>2016-07-08T10:26:53Z</time>
      </trkpt>
      <trkpt lat="45.53738" lon="-1.10649">
        <ele>-0.82</ele>
        <time>2016-07-08T10:27:07Z</time>
      </trkpt>
      <trkpt lat="45.53736" lon="-1.10653">
        <ele>-0.82</ele>
        <time>2016-07-08T10:27:13Z</time>
      </trkpt>
      <trkpt lat="45.5372" lon="-1.10664">
        <ele>-0.82</ele>
        <time>2016-07-08T10:27:30Z</time>
      </trkpt>
      <trkpt lat="45.53702" lon="-1.10677">
        <ele>-0.82</ele>
        <time>2016-07-08T10:27:49Z</time>
      </trkpt>
      <trkpt lat="45.53686" lon="-1.10687">
        <ele>-0.82</ele>
        <time>2016-07-08T10:28:05Z</time>
      </trkpt>
      <trkpt lat="45.53677" lon="-1.10692">
        <ele>-1.3</ele>
        <time>2016-07-08T10:28:14Z</time>
      </trkpt>
      <trkpt lat="45.53661" lon="-1.10702">
        <ele>-1.3</ele>
        <time>2016-07-08T10:28:31Z</time>
      </trkpt>
      <trkpt lat="45.53647" lon="-1.10702">
        <ele>0.62</ele>
        <time>2016-07-08T10:28:47Z</time>
      </trkpt>
      <trkpt lat="45.53647" lon="-1.10703">
        <ele>0.62</ele>
        <time>2016-07-08T10:28:48Z</time>
      </trkpt>
      <trkpt lat="45.53646" lon="-1.10706">
        <ele>0.62</ele>
        <time>2016-07-08T10:28:51Z</time>
      </trkpt>
      <trkpt lat="45.53646" lon="-1.10724">
        <ele>0.62</ele>
        <time>2016-07-08T10:29:06Z</time>
      </trkpt>
      <trkpt lat="45.53645" lon="-1.10727">
        <ele>0.62</ele>
        <time>2016-07-08T10:29:08Z</time>
      </trkpt>
      <trkpt lat="45.53637" lon="-1.10737">
        <ele>-0.82</ele>
        <time>2016-07-08T10:29:18Z</time>
      </trkpt>
      <trkpt lat="45.53634" lon="-1.1074">
        <ele>-0.82</ele>
        <time>2016-07-08T10:29:22Z</time>
      </trkpt>
      <trkpt lat="45.5362" lon="-1.10751">
        <ele>-1.3</ele>
        <time>2016-07-08T10:29:38Z</time>
      </trkpt>
      <trkpt lat="45.53608" lon="-1.10761">
        <ele>-0.82</ele>
        <time>2016-07-08T10:29:52Z</time>
      </trkpt>
      <trkpt lat="45.53604" lon="-1.10763">
        <ele>-0.82</ele>
        <time>2016-07-08T10:29:55Z</time>
      </trkpt>
      <trkpt lat="45.53588" lon="-1.10774">
        <ele>-1.3</ele>
        <time>2016-07-08T10:30:12Z</time>
      </trkpt>
      <trkpt lat="45.53569" lon="-1.10785">
        <ele>-0.34</ele>
        <time>2016-07-08T10:30:30Z</time>
      </trkpt>
      <trkpt lat="45.53554" lon="-1.10794">
        <ele>-0.34</ele>
        <time>2016-07-08T10:30:46Z</time>
      </trkpt>
      <trkpt lat="45.53537" lon="-1.10796">
        <ele>-0.34</ele>
        <time>2016-07-08T10:31:02Z</time>
      </trkpt>
      <trkpt lat="45.53525" lon="-1.10796">
        <ele>0.14</ele>
        <time>2016-07-08T10:31:14Z</time>
      </trkpt>
      <trkpt lat="45.53524" lon="-1.10801">
        <ele>0.14</ele>
        <time>2016-07-08T10:31:18Z</time>
      </trkpt>
      <trkpt lat="45.53509" lon="-1.10816">
        <ele>0.14</ele>
        <time>2016-07-08T10:31:35Z</time>
      </trkpt>
      <trkpt lat="45.53493" lon="-1.10828">
        <ele>0.62</ele>
        <time>2016-07-08T10:31:51Z</time>
      </trkpt>
      <trkpt lat="45.53488" lon="-1.10832">
        <ele>0.62</ele>
        <time>2016-07-08T10:31:57Z</time>
      </trkpt>
      <trkpt lat="45.53485" lon="-1.10834">
        <ele>0.62</ele>
        <time>2016-07-08T10:32:00Z</time>
      </trkpt>
      <trkpt lat="45.53477" lon="-1.10841">
        <ele>0.62</ele>
        <time>2016-07-08T10:32:12Z</time>
      </trkpt>
      <trkpt lat="45.53463" lon="-1.10852">
        <ele>0.62</ele>
        <time>2016-07-08T10:32:27Z</time>
      </trkpt>
      <trkpt lat="45.53448" lon="-1.10864">
        <ele>0.62</ele>
        <time>2016-07-08T10:32:42Z</time>
      </trkpt>
      <trkpt lat="45.53434" lon="-1.10875">
        <ele>-0.82</ele>
        <time>2016-07-08T10:32:56Z</time>
      </trkpt>
      <trkpt lat="45.53417" lon="-1.10886">
        <ele>-0.82</ele>
        <time>2016-07-08T10:33:13Z</time>
      </trkpt>
      <trkpt lat="45.53399" lon="-1.10894">
        <ele>-0.82</ele>
        <time>2016-07-08T10:33:31Z</time>
      </trkpt>
      <trkpt lat="45.5339" lon="-1.10893">
        <ele>0.62</ele>
        <time>2016-07-08T10:33:41Z</time>
      </trkpt>
      <trkpt lat="45.53381" lon="-1.1089">
        <ele>1.58</ele>
        <time>2016-07-08T10:33:54Z</time>
      </trkpt>
      <trkpt lat="45.53378" lon="-1.10887">
        <ele>2.06</ele>
        <time>2016-07-08T10:34:07Z</time>
      </trkpt>
      <trkpt lat="45.53377" lon="-1.10888">
        <ele>2.06</ele>
        <time>2016-07-08T10:34:08Z</time>
      </trkpt>
      <trkpt lat="45.53367" lon="-1.10904">
        <ele>2.06</ele>
        <time>2016-07-08T10:34:23Z</time>
      </trkpt>
      <trkpt lat="45.53362" lon="-1.10912">
        <ele>2.54</ele>
        <time>2016-07-08T10:34:40Z</time>
      </trkpt>
      <trkpt lat="45.53363" lon="-1.10911">
        <ele>2.54</ele>
        <time>2016-07-08T10:34:57Z</time>
      </trkpt>
      <trkpt lat="45.53354" lon="-1.10925">
        <ele>2.54</ele>
        <time>2016-07-08T10:35:13Z</time>
      </trkpt>
      <trkpt lat="45.53348" lon="-1.1093">
        <ele>2.54</ele>
        <time>2016-07-08T10:35:19Z</time>
      </trkpt>
      <trkpt lat="45.53346" lon="-1.10946">
        <ele>1.1</ele>
        <time>2016-07-08T10:35:30Z</time>
      </trkpt>
      <trkpt lat="45.53346" lon="-1.10952">
        <ele>0.62</ele>
        <time>2016-07-08T10:35:34Z</time>
      </trkpt>
      <trkpt lat="45.53335" lon="-1.10974">
        <ele>-0.34</ele>
        <time>2016-07-08T10:35:53Z</time>
      </trkpt>
      <trkpt lat="45.53324" lon="-1.10992">
        <ele>-0.82</ele>
        <time>2016-07-08T10:36:09Z</time>
      </trkpt>
      <trkpt lat="45.5331" lon="-1.11013">
        <ele>-0.82</ele>
        <time>2016-07-08T10:36:27Z</time>
      </trkpt>
      <trkpt lat="45.53295" lon="-1.11035">
        <ele>-0.82</ele>
        <time>2016-07-08T10:36:46Z</time>
      </trkpt>
      <trkpt lat="45.53292" lon="-1.11052">
        <ele>-0.82</ele>
        <time>2016-07-08T10:36:59Z</time>
      </trkpt>
      <trkpt lat="45.53287" lon="-1.11071">
        <ele>-0.82</ele>
        <time>2016-07-08T10:37:12Z</time>
      </trkpt>
      <trkpt lat="45.53275" lon="-1.11097">
        <ele>-0.82</ele>
        <time>2016-07-08T10:37:32Z</time>
      </trkpt>
      <trkpt lat="45.53263" lon="-1.1112">
        <ele>-0.82</ele>
        <time>2016-07-08T10:37:50Z</time>
      </trkpt>
      <trkpt lat="45.5326" lon="-1.11123">
        <ele>-0.82</ele>
        <time>2016-07-08T10:37:53Z</time>
      </trkpt>
      <trkpt lat="45.53257" lon="-1.11122">
        <ele>-0.82</ele>
        <time>2016-07-08T10:37:56Z</time>
      </trkpt>
      <trkpt lat="45.5325" lon="-1.11116">
        <ele>-0.82</ele>
        <time>2016-07-08T10:38:04Z</time>
      </trkpt>
      <trkpt lat="45.53239" lon="-1.11113">
        <ele>-0.82</ele>
        <time>2016-07-08T10:38:15Z</time>
      </trkpt>
      <trkpt lat="45.53227" lon="-1.11121">
        <ele>-0.82</ele>
        <time>2016-07-08T10:38:29Z</time>
      </trkpt>
      <trkpt lat="45.53215" lon="-1.11139">
        <ele>-0.82</ele>
        <time>2016-07-08T10:38:46Z</time>
      </trkpt>
      <trkpt lat="45.53209" lon="-1.11144">
        <ele>-0.82</ele>
        <time>2016-07-08T10:39:00Z</time>
      </trkpt>
      <trkpt lat="45.53197" lon="-1.11155">
        <ele>-0.82</ele>
        <time>2016-07-08T10:39:15Z</time>
      </trkpt>
      <trkpt lat="45.53184" lon="-1.1117">
        <ele>-0.82</ele>
        <time>2016-07-08T10:39:30Z</time>
      </trkpt>
      <trkpt lat="45.53172" lon="-1.11185">
        <ele>-0.82</ele>
        <time>2016-07-08T10:39:45Z</time>
      </trkpt>
      <trkpt lat="45.53157" lon="-1.11195">
        <ele>-0.82</ele>
        <time>2016-07-08T10:40:01Z</time>
      </trkpt>
      <trkpt lat="45.53147" lon="-1.11202">
        <ele>0.62</ele>
        <time>2016-07-08T10:40:13Z</time>
      </trkpt>
      <trkpt lat="45.53131" lon="-1.11207">
        <ele>1.1</ele>
        <time>2016-07-08T10:40:30Z</time>
      </trkpt>
      <trkpt lat="45.53127" lon="-1.1121">
        <ele>1.1</ele>
        <time>2016-07-08T10:40:42Z</time>
      </trkpt>
      <trkpt lat="45.53125" lon="-1.11216">
        <ele>1.58</ele>
        <time>2016-07-08T10:40:53Z</time>
      </trkpt>
      <trkpt lat="45.53123" lon="-1.1122">
        <ele>1.58</ele>
        <time>2016-07-08T10:41:06Z</time>
      </trkpt>
      <trkpt lat="45.53125" lon="-1.1122">
        <ele>1.58</ele>
        <time>2016-07-08T10:41:31Z</time>
      </trkpt>
      <trkpt lat="45.53124" lon="-1.1122">
        <ele>1.58</ele>
        <time>2016-07-08T10:41:52Z</time>
      </trkpt>
      <trkpt lat="45.53121" lon="-1.1122">
        <ele>0.14</ele>
        <time>2016-07-08T10:41:55Z</time>
      </trkpt>
      <trkpt lat="45.5311" lon="-1.11213">
        <ele>0.14</ele>
        <time>2016-07-08T10:42:08Z</time>
      </trkpt>
      <trkpt lat="45.53104" lon="-1.11208">
        <ele>1.1</ele>
        <time>2016-07-08T10:42:16Z</time>
      </trkpt>
      <trkpt lat="45.53094" lon="-1.11198">
        <ele>1.58</ele>
        <time>2016-07-08T10:42:30Z</time>
      </trkpt>
      <trkpt lat="45.53086" lon="-1.11189">
        <ele>2.54</ele>
        <time>2016-07-08T10:42:44Z</time>
      </trkpt>
      <trkpt lat="45.53082" lon="-1.11182">
        <ele>4.94</ele>
        <time>2016-07-08T10:42:57Z</time>
      </trkpt>
      <trkpt lat="45.53078" lon="-1.1117">
        <ele>6.39</ele>
        <time>2016-07-08T10:43:12Z</time>
      </trkpt>
      <trkpt lat="45.53072" lon="-1.11156">
        <ele>9.27</ele>
        <time>2016-07-08T10:43:29Z</time>
      </trkpt>
      <trkpt lat="45.53067" lon="-1.11147">
        <ele>10.71</ele>
        <time>2016-07-08T10:43:43Z</time>
      </trkpt>
      <trkpt lat="45.5306" lon="-1.11136">
        <ele>11.67</ele>
        <time>2016-07-08T10:43:58Z</time>
      </trkpt>
      <trkpt lat="45.53056" lon="-1.11122">
        <ele>15.04</ele>
        <time>2016-07-08T10:44:14Z</time>
      </trkpt>
      <trkpt lat="45.53055" lon="-1.11111">
        <ele>16</ele>
        <time>2016-07-08T10:44:28Z</time>
      </trkpt>
      <trkpt lat="45.53048" lon="-1.11103">
        <ele>18.4</ele>
        <time>2016-07-08T10:44:43Z</time>
      </trkpt>
      <trkpt lat="45.53049" lon="-1.111">
        <ele>18.4</ele>
        <time>2016-07-08T10:44:54Z</time>
      </trkpt>
      <trkpt lat="45.53049" lon="-1.11101">
        <ele>18.88</ele>
        <time>2016-07-08T10:45:10Z</time>
      </trkpt>
      <trkpt lat="45.53047" lon="-1.111">
        <ele>19.36</ele>
        <time>2016-07-08T10:45:34Z</time>
      </trkpt>
      <trkpt lat="45.53047" lon="-1.111">
        <ele>19.36</ele>
        <time>2016-07-08T10:45:49Z</time>
      </trkpt>
      <trkpt lat="45.53049" lon="-1.11099">
        <ele>19.36</ele>
        <time>2016-07-08T10:46:05Z</time>
      </trkpt>
      <trkpt lat="45.53047" lon="-1.111">
        <ele>19.36</ele>
        <time>2016-07-08T10:46:30Z</time>
      </trkpt>
      <trkpt lat="45.53045" lon="-1.11102">
        <ele>19.36</ele>
        <time>2016-07-08T10:46:39Z</time>
      </trkpt>
      <trkpt lat="45.53043" lon="-1.11101">
        <ele>19.36</ele>
        <time>2016-07-08T10:46:41Z</time>
      </trkpt>
      <trkpt lat="45.53031" lon="-1.11102">
        <ele>20.32</ele>
        <time>2016-07-08T10:46:56Z</time>
      </trkpt>
      <trkpt lat="45.53019" lon="-1.11102">
        <ele>20.81</ele>
        <time>2016-07-08T10:47:11Z</time>
      </trkpt>
      <trkpt lat="45.5301" lon="-1.11107">
        <ele>21.77</ele>
        <time>2016-07-08T10:47:26Z</time>
      </trkpt>
      <trkpt lat="45.53014" lon="-1.11103">
        <ele>21.77</ele>
        <time>2016-07-08T10:47:32Z</time>
      </trkpt>
      <trkpt lat="45.53015" lon="-1.11111">
        <ele>22.25</ele>
        <time>2016-07-08T10:47:46Z</time>
      </trkpt>
      <trkpt lat="45.53015" lon="-1.11112">
        <ele>22.73</ele>
        <time>2016-07-08T10:48:10Z</time>
      </trkpt>
      <trkpt lat="45.53016" lon="-1.11112">
        <ele>21.29</ele>
        <time>2016-07-08T10:48:23Z</time>
      </trkpt>
      <trkpt lat="45.53013" lon="-1.11113">
        <ele>21.29</ele>
        <time>2016-07-08T10:48:27Z</time>
      </trkpt>
      <trkpt lat="45.53004" lon="-1.11119">
        <ele>20.32</ele>
        <time>2016-07-08T10:48:40Z</time>
      </trkpt>
      <trkpt lat="45.52995" lon="-1.11122">
        <ele>20.32</ele>
        <time>2016-07-08T10:48:52Z</time>
      </trkpt>
      <trkpt lat="45.52982" lon="-1.11124">
        <ele>19.84</ele>
        <time>2016-07-08T10:49:07Z</time>
      </trkpt>
      <trkpt lat="45.52975" lon="-1.11118">
        <ele>19.84</ele>
        <time>2016-07-08T10:49:16Z</time>
      </trkpt>
      <trkpt lat="45.52972" lon="-1.11115">
        <ele>19.84</ele>
        <time>2016-07-08T10:49:20Z</time>
      </trkpt>
      <trkpt lat="45.52967" lon="-1.11107">
        <ele>20.81</ele>
        <time>2016-07-08T10:49:27Z</time>
      </trkpt>
      <trkpt lat="45.52965" lon="-1.11105">
        <ele>20.81</ele>
        <time>2016-07-08T10:49:30Z</time>
      </trkpt>
      <trkpt lat="45.52955" lon="-1.11123">
        <ele>22.25</ele>
        <time>2016-07-08T10:49:45Z</time>
      </trkpt>
      <trkpt lat="45.52953" lon="-1.11133">
        <ele>22.73</ele>
        <time>2016-07-08T10:49:58Z</time>
      </trkpt>
      <trkpt lat="45.52955" lon="-1.11137">
        <ele>23.69</ele>
        <time>2016-07-08T10:50:16Z</time>
      </trkpt>
      <trkpt lat="45.52951" lon="-1.11135">
        <ele>21.77</ele>
        <time>2016-07-08T10:50:30Z</time>
      </trkpt>
      <trkpt lat="45.52952" lon="-1.11133">
        <ele>23.21</ele>
        <time>2016-07-08T10:50:39Z</time>
      </trkpt>
      <trkpt lat="45.52952" lon="-1.11133">
        <ele>21.77</ele>
        <time>2016-07-08T10:50:43Z</time>
      </trkpt>
      <trkpt lat="45.52953" lon="-1.11135">
        <ele>23.69</ele>
        <time>2016-07-08T10:50:55Z</time>
      </trkpt>
      <trkpt lat="45.52954" lon="-1.11136">
        <ele>22.25</ele>
        <time>2016-07-08T10:50:59Z</time>
      </trkpt>
      <trkpt lat="45.52952" lon="-1.11136">
        <ele>21.77</ele>
        <time>2016-07-08T10:51:30Z</time>
      </trkpt>
      <trkpt lat="45.52951" lon="-1.11135">
        <ele>22.25</ele>
        <time>2016-07-08T10:51:47Z</time>
      </trkpt>
      <trkpt lat="45.52951" lon="-1.11135">
        <ele>22.25</ele>
        <time>2016-07-08T10:51:48Z</time>
      </trkpt>
      <trkpt lat="45.52951" lon="-1.11133">
        <ele>23.69</ele>
        <time>2016-07-08T10:51:51Z</time>
      </trkpt>
      <trkpt lat="45.52952" lon="-1.11133">
        <ele>23.69</ele>
        <time>2016-07-08T10:52:05Z</time>
      </trkpt>
      <trkpt lat="45.52949" lon="-1.11132">
        <ele>22.25</ele>
        <time>2016-07-08T10:52:21Z</time>
      </trkpt>
      <trkpt lat="45.52948" lon="-1.11134">
        <ele>23.21</ele>
        <time>2016-07-08T10:52:24Z</time>
      </trkpt>
      <trkpt lat="45.5295" lon="-1.11133">
        <ele>23.21</ele>
        <time>2016-07-08T10:52:42Z</time>
      </trkpt>
      <trkpt lat="45.52949" lon="-1.11126">
        <ele>23.21</ele>
        <time>2016-07-08T10:52:57Z</time>
      </trkpt>
      <trkpt lat="45.52957" lon="-1.1112">
        <ele>23.21</ele>
        <time>2016-07-08T10:53:07Z</time>
      </trkpt>
      <trkpt lat="45.52956" lon="-1.11104">
        <ele>21.77</ele>
        <time>2016-07-08T10:53:19Z</time>
      </trkpt>
      <trkpt lat="45.5294" lon="-1.11104">
        <ele>19.84</ele>
        <time>2016-07-08T10:53:35Z</time>
      </trkpt>
      <trkpt lat="45.5292" lon="-1.11112">
        <ele>18.4</ele>
        <time>2016-07-08T10:53:53Z</time>
      </trkpt>
      <trkpt lat="45.529" lon="-1.11122">
        <ele>16.96</ele>
        <time>2016-07-08T10:54:11Z</time>
      </trkpt>
      <trkpt lat="45.52885" lon="-1.11134">
        <ele>15.04</ele>
        <time>2016-07-08T10:54:26Z</time>
      </trkpt>
      <trkpt lat="45.52875" lon="-1.11154">
        <ele>13.6</ele>
        <time>2016-07-08T10:54:42Z</time>
      </trkpt>
      <trkpt lat="45.52873" lon="-1.1116">
        <ele>13.12</ele>
        <time>2016-07-08T10:54:46Z</time>
      </trkpt>
      <trkpt lat="45.52869" lon="-1.11182">
        <ele>12.15</ele>
        <time>2016-07-08T10:55:01Z</time>
      </trkpt>
      <trkpt lat="45.52865" lon="-1.11194">
        <ele>11.19</ele>
        <time>2016-07-08T10:55:09Z</time>
      </trkpt>
      <trkpt lat="45.52849" lon="-1.11211">
        <ele>9.75</ele>
        <time>2016-07-08T10:55:27Z</time>
      </trkpt>
      <trkpt lat="45.5283" lon="-1.1122">
        <ele>7.83</ele>
        <time>2016-07-08T10:55:45Z</time>
      </trkpt>
      <trkpt lat="45.52814" lon="-1.11225">
        <ele>6.87</ele>
        <time>2016-07-08T10:56:01Z</time>
      </trkpt>
      <trkpt lat="45.52813" lon="-1.11225">
        <ele>6.87</ele>
        <time>2016-07-08T10:56:02Z</time>
      </trkpt>
      <trkpt lat="45.52811" lon="-1.11225">
        <ele>6.87</ele>
        <time>2016-07-08T10:56:05Z</time>
      </trkpt>
      <trkpt lat="45.52805" lon="-1.11227">
        <ele>6.87</ele>
        <time>2016-07-08T10:56:10Z</time>
      </trkpt>
      <trkpt lat="45.52802" lon="-1.11226">
        <ele>5.91</ele>
        <time>2016-07-08T10:56:24Z</time>
      </trkpt>
      <trkpt lat="45.52796" lon="-1.11231">
        <ele>5.91</ele>
        <time>2016-07-08T10:56:39Z</time>
      </trkpt>
      <trkpt lat="45.52778" lon="-1.1124">
        <ele>5.42</ele>
        <time>2016-07-08T10:56:56Z</time>
      </trkpt>
      <trkpt lat="45.52773" lon="-1.11243">
        <ele>5.42</ele>
        <time>2016-07-08T10:57:01Z</time>
      </trkpt>
      <trkpt lat="45.52757" lon="-1.11261">
        <ele>5.42</ele>
        <time>2016-07-08T10:57:19Z</time>
      </trkpt>
      <trkpt lat="45.52742" lon="-1.11269">
        <ele>4.94</ele>
        <time>2016-07-08T10:57:37Z</time>
      </trkpt>
      <trkpt lat="45.52744" lon="-1.11272">
        <ele>4.94</ele>
        <time>2016-07-08T10:57:44Z</time>
      </trkpt>
      <trkpt lat="45.52731" lon="-1.11282">
        <ele>4.94</ele>
        <time>2016-07-08T10:57:57Z</time>
      </trkpt>
      <trkpt lat="45.52725" lon="-1.11288">
        <ele>4.94</ele>
        <time>2016-07-08T10:58:09Z</time>
      </trkpt>
      <trkpt lat="45.52707" lon="-1.11303">
        <ele>3.98</ele>
        <time>2016-07-08T10:58:27Z</time>
      </trkpt>
      <trkpt lat="45.52689" lon="-1.11318">
        <ele>3.98</ele>
        <time>2016-07-08T10:58:45Z</time>
      </trkpt>
      <trkpt lat="45.5267" lon="-1.11332">
        <ele>3.98</ele>
        <time>2016-07-08T10:59:03Z</time>
      </trkpt>
      <trkpt lat="45.5265" lon="-1.11347">
        <ele>4.46</ele>
        <time>2016-07-08T10:59:22Z</time>
      </trkpt>
      <trkpt lat="45.52631" lon="-1.11361">
        <ele>4.46</ele>
        <time>2016-07-08T10:59:40Z</time>
      </trkpt>
      <trkpt lat="45.52613" lon="-1.11373">
        <ele>4.46</ele>
        <time>2016-07-08T10:59:57Z</time>
      </trkpt>
      <trkpt lat="45.52597" lon="-1.11383">
        <ele>4.46</ele>
        <time>2016-07-08T11:00:12Z</time>
      </trkpt>
      <trkpt lat="45.52578" lon="-1.11394">
        <ele>4.46</ele>
        <time>2016-07-08T11:00:29Z</time>
      </trkpt>
      <trkpt lat="45.52577" lon="-1.11395">
        <ele>5.91</ele>
        <time>2016-07-08T11:00:32Z</time>
      </trkpt>
      <trkpt lat="45.52575" lon="-1.11396">
        <ele>4.46</ele>
        <time>2016-07-08T11:00:35Z</time>
      </trkpt>
      <trkpt lat="45.52557" lon="-1.11406">
        <ele>5.42</ele>
        <time>2016-07-08T11:00:52Z</time>
      </trkpt>
      <trkpt lat="45.52537" lon="-1.11415">
        <ele>5.42</ele>
        <time>2016-07-08T11:01:10Z</time>
      </trkpt>
      <trkpt lat="45.52519" lon="-1.11426">
        <ele>5.42</ele>
        <time>2016-07-08T11:01:27Z</time>
      </trkpt>
      <trkpt lat="45.52499" lon="-1.11437">
        <ele>5.42</ele>
        <time>2016-07-08T11:01:45Z</time>
      </trkpt>
      <trkpt lat="45.52489" lon="-1.11445">
        <ele>4.46</ele>
        <time>2016-07-08T11:02:01Z</time>
      </trkpt>
      <trkpt lat="45.52489" lon="-1.11444">
        <ele>4.94</ele>
        <time>2016-07-08T11:02:13Z</time>
      </trkpt>
      <trkpt lat="45.52486" lon="-1.11439">
        <ele>4.94</ele>
        <time>2016-07-08T11:02:32Z</time>
      </trkpt>
      <trkpt lat="45.52487" lon="-1.11426">
        <ele>4.94</ele>
        <time>2016-07-08T11:02:44Z</time>
      </trkpt>
      <trkpt lat="45.52486" lon="-1.11403">
        <ele>4.94</ele>
        <time>2016-07-08T11:02:59Z</time>
      </trkpt>
      <trkpt lat="45.52487" lon="-1.1138">
        <ele>4.94</ele>
        <time>2016-07-08T11:03:15Z</time>
      </trkpt>
      <trkpt lat="45.5249" lon="-1.11359">
        <ele>5.91</ele>
        <time>2016-07-08T11:03:31Z</time>
      </trkpt>
      <trkpt lat="45.52491" lon="-1.11348">
        <ele>5.91</ele>
        <time>2016-07-08T11:03:45Z</time>
      </trkpt>
      <trkpt lat="45.5249" lon="-1.11344">
        <ele>5.91</ele>
        <time>2016-07-08T11:04:14Z</time>
      </trkpt>
      <trkpt lat="45.52489" lon="-1.11343">
        <ele>5.91</ele>
        <time>2016-07-08T11:04:15Z</time>
      </trkpt>
      <trkpt lat="45.52486" lon="-1.1134">
        <ele>5.91</ele>
        <time>2016-07-08T11:04:19Z</time>
      </trkpt>
      <trkpt lat="45.52481" lon="-1.11331">
        <ele>6.39</ele>
        <time>2016-07-08T11:04:33Z</time>
      </trkpt>
      <trkpt lat="45.5248" lon="-1.11327">
        <ele>7.35</ele>
        <time>2016-07-08T11:04:51Z</time>
      </trkpt>
      <trkpt lat="45.52481" lon="-1.11325">
        <ele>7.35</ele>
        <time>2016-07-08T11:05:09Z</time>
      </trkpt>
    </trkseg>
  </trk>
</gpx>